<?xml version="1.0" encoding="UTF-8" standalone="no" ?>
<gpx xmlns="http://www.topografix.com/GPX/1/1" xmlns:xsi="http://www.w3.org/2001/XMLSchema-instance" xsi:schemaLocation="http://www.topografix.com/GPX/1/1 http://www.topografix.com/GPX/1/1/gpx.xsd" version="1.1" creator="VisuGPX - https://www.visugpx.com">
  <metadata>
    <name>Pouta</name>
    <desc><![CDATA[
]]></desc>
  </metadata>
  <trk>
    <name><![CDATA[Pouta_1]]></name>
    <extensions>
      <line xmlns="http://www.topografix.com/GPX/gpx_style/0/2">
        <color>0000FF</color>
        <width>4</width>
      </line>
    </extensions>
    <trkseg>
      <trkpt lat="45.26441" lon="6.01518">
        <ele>1565.4549560547</ele>
        <time>2017-11-18T06:11:47Z</time>
      </trkpt>
      <trkpt lat="45.26445" lon="6.01521">
        <ele>1564.4549560547</ele>
        <time>2017-11-18T06:12:24Z</time>
      </trkpt>
      <trkpt lat="45.26449" lon="6.01523">
        <ele>1565.4549560547</ele>
        <time>2017-11-18T06:12:27Z</time>
      </trkpt>
      <trkpt lat="45.26454" lon="6.01526">
        <ele>1564.4549560547</ele>
        <time>2017-11-18T06:12:31Z</time>
      </trkpt>
      <trkpt lat="45.2645" lon="6.01534">
        <ele>1564.4549560547</ele>
        <time>2017-11-18T06:13:06Z</time>
      </trkpt>
      <trkpt lat="45.26448" lon="6.0154">
        <ele>1564.4549560547</ele>
        <time>2017-11-18T06:13:17Z</time>
      </trkpt>
      <trkpt lat="45.26449" lon="6.01548">
        <ele>1566.4549560547</ele>
        <time>2017-11-18T06:13:23Z</time>
      </trkpt>
      <trkpt lat="45.26452" lon="6.01554">
        <ele>1567.4549560547</ele>
        <time>2017-11-18T06:13:28Z</time>
      </trkpt>
      <trkpt lat="45.26456" lon="6.0156">
        <ele>1568.4549560547</ele>
        <time>2017-11-18T06:13:33Z</time>
      </trkpt>
      <trkpt lat="45.26458" lon="6.01567">
        <ele>1567.4549560547</ele>
        <time>2017-11-18T06:13:37Z</time>
      </trkpt>
      <trkpt lat="45.26458" lon="6.01573">
        <ele>1568.4549560547</ele>
        <time>2017-11-18T06:13:41Z</time>
      </trkpt>
      <trkpt lat="45.26458" lon="6.01582">
        <ele>1568.4549560547</ele>
        <time>2017-11-18T06:13:47Z</time>
      </trkpt>
      <trkpt lat="45.26455" lon="6.01589">
        <ele>1568.4549560547</ele>
        <time>2017-11-18T06:13:51Z</time>
      </trkpt>
      <trkpt lat="45.26452" lon="6.01594">
        <ele>1569.4549560547</ele>
        <time>2017-11-18T06:13:56Z</time>
      </trkpt>
      <trkpt lat="45.26448" lon="6.01598">
        <ele>1570.4549560547</ele>
        <time>2017-11-18T06:14:01Z</time>
      </trkpt>
      <trkpt lat="45.26443" lon="6.01604">
        <ele>1570.4549560547</ele>
        <time>2017-11-18T06:14:06Z</time>
      </trkpt>
      <trkpt lat="45.26438" lon="6.01606">
        <ele>1569.4549560547</ele>
        <time>2017-11-18T06:14:09Z</time>
      </trkpt>
      <trkpt lat="45.26434" lon="6.01609">
        <ele>1569.4549560547</ele>
        <time>2017-11-18T06:14:12Z</time>
      </trkpt>
      <trkpt lat="45.26429" lon="6.01613">
        <ele>1569.4549560547</ele>
        <time>2017-11-18T06:14:16Z</time>
      </trkpt>
      <trkpt lat="45.26423" lon="6.01616">
        <ele>1569.4549560547</ele>
        <time>2017-11-18T06:14:20Z</time>
      </trkpt>
      <trkpt lat="45.26419" lon="6.01619">
        <ele>1569.4549560547</ele>
        <time>2017-11-18T06:14:24Z</time>
      </trkpt>
      <trkpt lat="45.26415" lon="6.01623">
        <ele>1571.4549560547</ele>
        <time>2017-11-18T06:14:27Z</time>
      </trkpt>
      <trkpt lat="45.26411" lon="6.01628">
        <ele>1572.4549560547</ele>
        <time>2017-11-18T06:14:31Z</time>
      </trkpt>
      <trkpt lat="45.26408" lon="6.01635">
        <ele>1572.4549560547</ele>
        <time>2017-11-18T06:14:35Z</time>
      </trkpt>
      <trkpt lat="45.26405" lon="6.01642">
        <ele>1573.4549560547</ele>
        <time>2017-11-18T06:14:39Z</time>
      </trkpt>
      <trkpt lat="45.26401" lon="6.01648">
        <ele>1573.4549560547</ele>
        <time>2017-11-18T06:14:43Z</time>
      </trkpt>
      <trkpt lat="45.26398" lon="6.01653">
        <ele>1574.4549560547</ele>
        <time>2017-11-18T06:14:47Z</time>
      </trkpt>
      <trkpt lat="45.26394" lon="6.01659">
        <ele>1575.4549560547</ele>
        <time>2017-11-18T06:14:51Z</time>
      </trkpt>
      <trkpt lat="45.2639" lon="6.01664">
        <ele>1576.4549560547</ele>
        <time>2017-11-18T06:14:54Z</time>
      </trkpt>
      <trkpt lat="45.26388" lon="6.01671">
        <ele>1579.4549560547</ele>
        <time>2017-11-18T06:14:58Z</time>
      </trkpt>
      <trkpt lat="45.26386" lon="6.01677">
        <ele>1581.4549560547</ele>
        <time>2017-11-18T06:15:04Z</time>
      </trkpt>
      <trkpt lat="45.26382" lon="6.01684">
        <ele>1583.4549560547</ele>
        <time>2017-11-18T06:15:09Z</time>
      </trkpt>
      <trkpt lat="45.26382" lon="6.01691">
        <ele>1585.4549560547</ele>
        <time>2017-11-18T06:15:14Z</time>
      </trkpt>
      <trkpt lat="45.26381" lon="6.01698">
        <ele>1584.4549560547</ele>
        <time>2017-11-18T06:15:17Z</time>
      </trkpt>
      <trkpt lat="45.26382" lon="6.01705">
        <ele>1584.4549560547</ele>
        <time>2017-11-18T06:15:22Z</time>
      </trkpt>
      <trkpt lat="45.26381" lon="6.01713">
        <ele>1584.4549560547</ele>
        <time>2017-11-18T06:15:28Z</time>
      </trkpt>
      <trkpt lat="45.26381" lon="6.01719">
        <ele>1585.4549560547</ele>
        <time>2017-11-18T06:15:34Z</time>
      </trkpt>
      <trkpt lat="45.26381" lon="6.01726">
        <ele>1586.4549560547</ele>
        <time>2017-11-18T06:15:40Z</time>
      </trkpt>
      <trkpt lat="45.26381" lon="6.01734">
        <ele>1587.4549560547</ele>
        <time>2017-11-18T06:15:44Z</time>
      </trkpt>
      <trkpt lat="45.26381" lon="6.0174">
        <ele>1588.4549560547</ele>
        <time>2017-11-18T06:15:49Z</time>
      </trkpt>
      <trkpt lat="45.26383" lon="6.01747">
        <ele>1589.4549560547</ele>
        <time>2017-11-18T06:15:54Z</time>
      </trkpt>
      <trkpt lat="45.26382" lon="6.01755">
        <ele>1590.4549560547</ele>
        <time>2017-11-18T06:15:58Z</time>
      </trkpt>
      <trkpt lat="45.26382" lon="6.01763">
        <ele>1591.4549560547</ele>
        <time>2017-11-18T06:16:03Z</time>
      </trkpt>
      <trkpt lat="45.26382" lon="6.0177">
        <ele>1591.4549560547</ele>
        <time>2017-11-18T06:16:08Z</time>
      </trkpt>
      <trkpt lat="45.26382" lon="6.01776">
        <ele>1592.4549560547</ele>
        <time>2017-11-18T06:16:13Z</time>
      </trkpt>
      <trkpt lat="45.26381" lon="6.01783">
        <ele>1592.4549560547</ele>
        <time>2017-11-18T06:16:18Z</time>
      </trkpt>
      <trkpt lat="45.2638" lon="6.01789">
        <ele>1592.4549560547</ele>
        <time>2017-11-18T06:16:24Z</time>
      </trkpt>
      <trkpt lat="45.26379" lon="6.01797">
        <ele>1592.4549560547</ele>
        <time>2017-11-18T06:16:31Z</time>
      </trkpt>
      <trkpt lat="45.26377" lon="6.01804">
        <ele>1593.4549560547</ele>
        <time>2017-11-18T06:16:37Z</time>
      </trkpt>
      <trkpt lat="45.26376" lon="6.01812">
        <ele>1597.4549560547</ele>
        <time>2017-11-18T06:16:45Z</time>
      </trkpt>
      <trkpt lat="45.26374" lon="6.01818">
        <ele>1599.4549560547</ele>
        <time>2017-11-18T06:16:50Z</time>
      </trkpt>
      <trkpt lat="45.2637" lon="6.01824">
        <ele>1601.4549560547</ele>
        <time>2017-11-18T06:16:56Z</time>
      </trkpt>
      <trkpt lat="45.26367" lon="6.0183">
        <ele>1600.4549560547</ele>
        <time>2017-11-18T06:17:01Z</time>
      </trkpt>
      <trkpt lat="45.26364" lon="6.01835">
        <ele>1602.4549560547</ele>
        <time>2017-11-18T06:17:07Z</time>
      </trkpt>
      <trkpt lat="45.2636" lon="6.01839">
        <ele>1604.4549560547</ele>
        <time>2017-11-18T06:17:11Z</time>
      </trkpt>
      <trkpt lat="45.26357" lon="6.01846">
        <ele>1603.4549560547</ele>
        <time>2017-11-18T06:17:19Z</time>
      </trkpt>
      <trkpt lat="45.26354" lon="6.01851">
        <ele>1604.4549560547</ele>
        <time>2017-11-18T06:17:25Z</time>
      </trkpt>
      <trkpt lat="45.2635" lon="6.01855">
        <ele>1603.4549560547</ele>
        <time>2017-11-18T06:17:31Z</time>
      </trkpt>
      <trkpt lat="45.26345" lon="6.01859">
        <ele>1604.4549560547</ele>
        <time>2017-11-18T06:17:38Z</time>
      </trkpt>
      <trkpt lat="45.26341" lon="6.01862">
        <ele>1606.4549560547</ele>
        <time>2017-11-18T06:17:44Z</time>
      </trkpt>
      <trkpt lat="45.26337" lon="6.01865">
        <ele>1607.4549560547</ele>
        <time>2017-11-18T06:17:53Z</time>
      </trkpt>
      <trkpt lat="45.26332" lon="6.01868">
        <ele>1609.4549560547</ele>
        <time>2017-11-18T06:18:01Z</time>
      </trkpt>
      <trkpt lat="45.26329" lon="6.01874">
        <ele>1610.4549560547</ele>
        <time>2017-11-18T06:18:08Z</time>
      </trkpt>
      <trkpt lat="45.26326" lon="6.0188">
        <ele>1610.4549560547</ele>
        <time>2017-11-18T06:18:14Z</time>
      </trkpt>
      <trkpt lat="45.26312" lon="6.01904">
        <ele>1625.4549560547</ele>
        <time>2017-11-18T06:18:47Z</time>
      </trkpt>
      <trkpt lat="45.26307" lon="6.019">
        <ele>1617.4549560547</ele>
        <time>2017-11-18T06:18:48Z</time>
      </trkpt>
      <trkpt lat="45.26305" lon="6.01907">
        <ele>1616.4549560547</ele>
        <time>2017-11-18T06:18:53Z</time>
      </trkpt>
      <trkpt lat="45.263" lon="6.0191">
        <ele>1621.4549560547</ele>
        <time>2017-11-18T06:19:00Z</time>
      </trkpt>
      <trkpt lat="45.26296" lon="6.01914">
        <ele>1624.4549560547</ele>
        <time>2017-11-18T06:19:06Z</time>
      </trkpt>
      <trkpt lat="45.26292" lon="6.01917">
        <ele>1624.4549560547</ele>
        <time>2017-11-18T06:19:11Z</time>
      </trkpt>
      <trkpt lat="45.26288" lon="6.01921">
        <ele>1627.4549560547</ele>
        <time>2017-11-18T06:19:19Z</time>
      </trkpt>
      <trkpt lat="45.26285" lon="6.01928">
        <ele>1627.4549560547</ele>
        <time>2017-11-18T06:19:26Z</time>
      </trkpt>
      <trkpt lat="45.26281" lon="6.01933">
        <ele>1629.4549560547</ele>
        <time>2017-11-18T06:19:32Z</time>
      </trkpt>
      <trkpt lat="45.26278" lon="6.01937">
        <ele>1631.4549560547</ele>
        <time>2017-11-18T06:19:41Z</time>
      </trkpt>
      <trkpt lat="45.26274" lon="6.01941">
        <ele>1634.4549560547</ele>
        <time>2017-11-18T06:19:50Z</time>
      </trkpt>
      <trkpt lat="45.2627" lon="6.01946">
        <ele>1636.4549560547</ele>
        <time>2017-11-18T06:19:58Z</time>
      </trkpt>
      <trkpt lat="45.26266" lon="6.01953">
        <ele>1638.4549560547</ele>
        <time>2017-11-18T06:20:06Z</time>
      </trkpt>
      <trkpt lat="45.26264" lon="6.01958">
        <ele>1638.4549560547</ele>
        <time>2017-11-18T06:20:14Z</time>
      </trkpt>
      <trkpt lat="45.2626" lon="6.01963">
        <ele>1640.4549560547</ele>
        <time>2017-11-18T06:20:21Z</time>
      </trkpt>
      <trkpt lat="45.26255" lon="6.01966">
        <ele>1642.4549560547</ele>
        <time>2017-11-18T06:20:26Z</time>
      </trkpt>
      <trkpt lat="45.26251" lon="6.01966">
        <ele>1644.4549560547</ele>
        <time>2017-11-18T06:20:32Z</time>
      </trkpt>
      <trkpt lat="45.26246" lon="6.01966">
        <ele>1645.4549560547</ele>
        <time>2017-11-18T06:20:36Z</time>
      </trkpt>
      <trkpt lat="45.26241" lon="6.01965">
        <ele>1646.4549560547</ele>
        <time>2017-11-18T06:20:42Z</time>
      </trkpt>
      <trkpt lat="45.26236" lon="6.01966">
        <ele>1648.4549560547</ele>
        <time>2017-11-18T06:20:48Z</time>
      </trkpt>
      <trkpt lat="45.26231" lon="6.01965">
        <ele>1650.4549560547</ele>
        <time>2017-11-18T06:20:54Z</time>
      </trkpt>
      <trkpt lat="45.26227" lon="6.01964">
        <ele>1651.4549560547</ele>
        <time>2017-11-18T06:20:59Z</time>
      </trkpt>
      <trkpt lat="45.26222" lon="6.01962">
        <ele>1653.4549560547</ele>
        <time>2017-11-18T06:21:06Z</time>
      </trkpt>
      <trkpt lat="45.26218" lon="6.01959">
        <ele>1654.4549560547</ele>
        <time>2017-11-18T06:21:14Z</time>
      </trkpt>
      <trkpt lat="45.26215" lon="6.01954">
        <ele>1654.4549560547</ele>
        <time>2017-11-18T06:21:20Z</time>
      </trkpt>
      <trkpt lat="45.26211" lon="6.0195">
        <ele>1656.4549560547</ele>
        <time>2017-11-18T06:21:25Z</time>
      </trkpt>
      <trkpt lat="45.26206" lon="6.01949">
        <ele>1658.4549560547</ele>
        <time>2017-11-18T06:21:31Z</time>
      </trkpt>
      <trkpt lat="45.26202" lon="6.01952">
        <ele>1659.4549560547</ele>
        <time>2017-11-18T06:21:37Z</time>
      </trkpt>
      <trkpt lat="45.26198" lon="6.01955">
        <ele>1660.4549560547</ele>
        <time>2017-11-18T06:21:42Z</time>
      </trkpt>
      <trkpt lat="45.26193" lon="6.01958">
        <ele>1663.4549560547</ele>
        <time>2017-11-18T06:21:48Z</time>
      </trkpt>
      <trkpt lat="45.26188" lon="6.01957">
        <ele>1664.4549560547</ele>
        <time>2017-11-18T06:21:52Z</time>
      </trkpt>
      <trkpt lat="45.26184" lon="6.01959">
        <ele>1666.4549560547</ele>
        <time>2017-11-18T06:21:57Z</time>
      </trkpt>
      <trkpt lat="45.26179" lon="6.0196">
        <ele>1667.4549560547</ele>
        <time>2017-11-18T06:22:02Z</time>
      </trkpt>
      <trkpt lat="45.26174" lon="6.01963">
        <ele>1668.4549560547</ele>
        <time>2017-11-18T06:22:07Z</time>
      </trkpt>
      <trkpt lat="45.26169" lon="6.01964">
        <ele>1669.4549560547</ele>
        <time>2017-11-18T06:22:12Z</time>
      </trkpt>
      <trkpt lat="45.26164" lon="6.01965">
        <ele>1669.4549560547</ele>
        <time>2017-11-18T06:22:17Z</time>
      </trkpt>
      <trkpt lat="45.2616" lon="6.01966">
        <ele>1669.4549560547</ele>
        <time>2017-11-18T06:22:21Z</time>
      </trkpt>
      <trkpt lat="45.26154" lon="6.01966">
        <ele>1668.4549560547</ele>
        <time>2017-11-18T06:22:26Z</time>
      </trkpt>
      <trkpt lat="45.26149" lon="6.01965">
        <ele>1670.4549560547</ele>
        <time>2017-11-18T06:22:30Z</time>
      </trkpt>
      <trkpt lat="45.26144" lon="6.01965">
        <ele>1671.4549560547</ele>
        <time>2017-11-18T06:22:34Z</time>
      </trkpt>
      <trkpt lat="45.26139" lon="6.01967">
        <ele>1670.4549560547</ele>
        <time>2017-11-18T06:22:39Z</time>
      </trkpt>
      <trkpt lat="45.26134" lon="6.01966">
        <ele>1671.4549560547</ele>
        <time>2017-11-18T06:22:42Z</time>
      </trkpt>
      <trkpt lat="45.26129" lon="6.01966">
        <ele>1671.4549560547</ele>
        <time>2017-11-18T06:22:47Z</time>
      </trkpt>
      <trkpt lat="45.26124" lon="6.01965">
        <ele>1672.4549560547</ele>
        <time>2017-11-18T06:22:51Z</time>
      </trkpt>
      <trkpt lat="45.26119" lon="6.01966">
        <ele>1671.4549560547</ele>
        <time>2017-11-18T06:22:55Z</time>
      </trkpt>
      <trkpt lat="45.26114" lon="6.01964">
        <ele>1671.4549560547</ele>
        <time>2017-11-18T06:22:59Z</time>
      </trkpt>
      <trkpt lat="45.26109" lon="6.01962">
        <ele>1672.4549560547</ele>
        <time>2017-11-18T06:23:03Z</time>
      </trkpt>
      <trkpt lat="45.26104" lon="6.0196">
        <ele>1673.4549560547</ele>
        <time>2017-11-18T06:23:07Z</time>
      </trkpt>
      <trkpt lat="45.261" lon="6.01958">
        <ele>1601.4549560547</ele>
        <time>2017-11-18T06:23:10Z</time>
      </trkpt>
      <trkpt lat="45.26095" lon="6.01956">
        <ele>1645.4549560547</ele>
        <time>2017-11-18T06:23:14Z</time>
      </trkpt>
      <trkpt lat="45.2609" lon="6.01955">
        <ele>1660.4549560547</ele>
        <time>2017-11-18T06:23:18Z</time>
      </trkpt>
      <trkpt lat="45.26085" lon="6.01952">
        <ele>1666.4549560547</ele>
        <time>2017-11-18T06:23:22Z</time>
      </trkpt>
      <trkpt lat="45.2608" lon="6.01951">
        <ele>1669.4549560547</ele>
        <time>2017-11-18T06:23:27Z</time>
      </trkpt>
      <trkpt lat="45.26075" lon="6.01949">
        <ele>1673.4549560547</ele>
        <time>2017-11-18T06:23:32Z</time>
      </trkpt>
      <trkpt lat="45.2607" lon="6.01948">
        <ele>1674.4549560547</ele>
        <time>2017-11-18T06:23:37Z</time>
      </trkpt>
      <trkpt lat="45.26065" lon="6.01945">
        <ele>1675.4549560547</ele>
        <time>2017-11-18T06:23:41Z</time>
      </trkpt>
      <trkpt lat="45.26061" lon="6.01943">
        <ele>1677.4549560547</ele>
        <time>2017-11-18T06:23:45Z</time>
      </trkpt>
      <trkpt lat="45.26055" lon="6.01941">
        <ele>1677.4549560547</ele>
        <time>2017-11-18T06:23:50Z</time>
      </trkpt>
      <trkpt lat="45.26051" lon="6.01941">
        <ele>1677.4549560547</ele>
        <time>2017-11-18T06:23:55Z</time>
      </trkpt>
      <trkpt lat="45.26046" lon="6.01938">
        <ele>1679.4549560547</ele>
        <time>2017-11-18T06:23:59Z</time>
      </trkpt>
      <trkpt lat="45.26042" lon="6.01934">
        <ele>1680.4549560547</ele>
        <time>2017-11-18T06:24:03Z</time>
      </trkpt>
      <trkpt lat="45.26038" lon="6.0193">
        <ele>1680.4549560547</ele>
        <time>2017-11-18T06:24:08Z</time>
      </trkpt>
      <trkpt lat="45.26035" lon="6.01925">
        <ele>1681.4549560547</ele>
        <time>2017-11-18T06:24:13Z</time>
      </trkpt>
      <trkpt lat="45.26031" lon="6.01922">
        <ele>1681.4549560547</ele>
        <time>2017-11-18T06:24:18Z</time>
      </trkpt>
      <trkpt lat="45.26027" lon="6.01918">
        <ele>1683.4549560547</ele>
        <time>2017-11-18T06:24:24Z</time>
      </trkpt>
      <trkpt lat="45.26024" lon="6.01914">
        <ele>1685.4549560547</ele>
        <time>2017-11-18T06:24:29Z</time>
      </trkpt>
      <trkpt lat="45.26019" lon="6.01912">
        <ele>1684.4549560547</ele>
        <time>2017-11-18T06:24:33Z</time>
      </trkpt>
      <trkpt lat="45.26015" lon="6.01908">
        <ele>1684.4549560547</ele>
        <time>2017-11-18T06:24:37Z</time>
      </trkpt>
      <trkpt lat="45.2601" lon="6.01906">
        <ele>1685.4549560547</ele>
        <time>2017-11-18T06:24:42Z</time>
      </trkpt>
      <trkpt lat="45.26006" lon="6.01902">
        <ele>1687.4549560547</ele>
        <time>2017-11-18T06:24:46Z</time>
      </trkpt>
      <trkpt lat="45.26002" lon="6.01899">
        <ele>1688.4549560547</ele>
        <time>2017-11-18T06:24:50Z</time>
      </trkpt>
      <trkpt lat="45.25998" lon="6.01895">
        <ele>1688.4549560547</ele>
        <time>2017-11-18T06:24:54Z</time>
      </trkpt>
      <trkpt lat="45.25994" lon="6.01892">
        <ele>1690.4549560547</ele>
        <time>2017-11-18T06:24:58Z</time>
      </trkpt>
      <trkpt lat="45.25989" lon="6.01889">
        <ele>1690.4549560547</ele>
        <time>2017-11-18T06:25:04Z</time>
      </trkpt>
      <trkpt lat="45.25984" lon="6.01886">
        <ele>1691.4549560547</ele>
        <time>2017-11-18T06:25:09Z</time>
      </trkpt>
      <trkpt lat="45.2598" lon="6.01882">
        <ele>1690.4549560547</ele>
        <time>2017-11-18T06:25:14Z</time>
      </trkpt>
      <trkpt lat="45.25976" lon="6.01878">
        <ele>1690.4549560547</ele>
        <time>2017-11-18T06:25:19Z</time>
      </trkpt>
      <trkpt lat="45.25972" lon="6.01873">
        <ele>1691.4549560547</ele>
        <time>2017-11-18T06:25:24Z</time>
      </trkpt>
      <trkpt lat="45.25968" lon="6.01869">
        <ele>1694.4549560547</ele>
        <time>2017-11-18T06:25:28Z</time>
      </trkpt>
      <trkpt lat="45.25965" lon="6.01864">
        <ele>1696.4539794922</ele>
        <time>2017-11-18T06:25:32Z</time>
      </trkpt>
      <trkpt lat="45.25961" lon="6.0186">
        <ele>1697.4539794922</ele>
        <time>2017-11-18T06:25:36Z</time>
      </trkpt>
      <trkpt lat="45.25957" lon="6.01857">
        <ele>1696.4539794922</ele>
        <time>2017-11-18T06:25:40Z</time>
      </trkpt>
      <trkpt lat="45.25954" lon="6.01852">
        <ele>1701.4539794922</ele>
        <time>2017-11-18T06:28:05Z</time>
      </trkpt>
      <trkpt lat="45.2595" lon="6.01849">
        <ele>1702.4539794922</ele>
        <time>2017-11-18T06:28:09Z</time>
      </trkpt>
      <trkpt lat="45.25945" lon="6.01847">
        <ele>1702.4539794922</ele>
        <time>2017-11-18T06:28:13Z</time>
      </trkpt>
      <trkpt lat="45.25941" lon="6.01847">
        <ele>1702.4539794922</ele>
        <time>2017-11-18T06:28:19Z</time>
      </trkpt>
      <trkpt lat="45.25936" lon="6.01847">
        <ele>1704.4539794922</ele>
        <time>2017-11-18T06:28:23Z</time>
      </trkpt>
      <trkpt lat="45.2593" lon="6.01846">
        <ele>1706.4539794922</ele>
        <time>2017-11-18T06:28:26Z</time>
      </trkpt>
      <trkpt lat="45.25924" lon="6.01843">
        <ele>1705.4539794922</ele>
        <time>2017-11-18T06:28:32Z</time>
      </trkpt>
      <trkpt lat="45.25918" lon="6.01843">
        <ele>1707.4539794922</ele>
        <time>2017-11-18T06:28:38Z</time>
      </trkpt>
      <trkpt lat="45.25913" lon="6.01844">
        <ele>1708.4539794922</ele>
        <time>2017-11-18T06:28:46Z</time>
      </trkpt>
      <trkpt lat="45.25908" lon="6.01843">
        <ele>1709.4539794922</ele>
        <time>2017-11-18T06:28:51Z</time>
      </trkpt>
      <trkpt lat="45.25903" lon="6.01843">
        <ele>1711.4539794922</ele>
        <time>2017-11-18T06:28:57Z</time>
      </trkpt>
      <trkpt lat="45.25899" lon="6.01844">
        <ele>1712.4539794922</ele>
        <time>2017-11-18T06:29:01Z</time>
      </trkpt>
      <trkpt lat="45.25893" lon="6.01846">
        <ele>1712.4539794922</ele>
        <time>2017-11-18T06:29:06Z</time>
      </trkpt>
      <trkpt lat="45.25888" lon="6.01846">
        <ele>1714.4539794922</ele>
        <time>2017-11-18T06:29:11Z</time>
      </trkpt>
      <trkpt lat="45.25883" lon="6.01848">
        <ele>1715.4539794922</ele>
        <time>2017-11-18T06:29:17Z</time>
      </trkpt>
      <trkpt lat="45.25878" lon="6.0185">
        <ele>1717.4539794922</ele>
        <time>2017-11-18T06:29:23Z</time>
      </trkpt>
      <trkpt lat="45.25874" lon="6.01853">
        <ele>1719.4539794922</ele>
        <time>2017-11-18T06:29:29Z</time>
      </trkpt>
      <trkpt lat="45.25869" lon="6.01856">
        <ele>1721.4539794922</ele>
        <time>2017-11-18T06:29:37Z</time>
      </trkpt>
      <trkpt lat="45.25865" lon="6.0186">
        <ele>1723.4539794922</ele>
        <time>2017-11-18T06:29:43Z</time>
      </trkpt>
      <trkpt lat="45.25861" lon="6.01863">
        <ele>1726.4539794922</ele>
        <time>2017-11-18T06:29:50Z</time>
      </trkpt>
      <trkpt lat="45.25858" lon="6.01868">
        <ele>1725.4539794922</ele>
        <time>2017-11-18T06:29:56Z</time>
      </trkpt>
      <trkpt lat="45.25855" lon="6.01874">
        <ele>1726.4539794922</ele>
        <time>2017-11-18T06:30:02Z</time>
      </trkpt>
      <trkpt lat="45.25855" lon="6.01881">
        <ele>1727.4539794922</ele>
        <time>2017-11-18T06:30:08Z</time>
      </trkpt>
      <trkpt lat="45.25858" lon="6.01888">
        <ele>1729.4539794922</ele>
        <time>2017-11-18T06:30:14Z</time>
      </trkpt>
      <trkpt lat="45.25861" lon="6.01893">
        <ele>1732.4539794922</ele>
        <time>2017-11-18T06:30:20Z</time>
      </trkpt>
      <trkpt lat="45.25865" lon="6.01897">
        <ele>1733.4539794922</ele>
        <time>2017-11-18T06:30:25Z</time>
      </trkpt>
      <trkpt lat="45.25868" lon="6.01903">
        <ele>1734.4539794922</ele>
        <time>2017-11-18T06:30:32Z</time>
      </trkpt>
      <trkpt lat="45.25868" lon="6.01909">
        <ele>1737.4539794922</ele>
        <time>2017-11-18T06:30:39Z</time>
      </trkpt>
      <trkpt lat="45.25865" lon="6.01915">
        <ele>1739.4539794922</ele>
        <time>2017-11-18T06:30:46Z</time>
      </trkpt>
      <trkpt lat="45.25861" lon="6.0192">
        <ele>1740.4539794922</ele>
        <time>2017-11-18T06:30:51Z</time>
      </trkpt>
      <trkpt lat="45.25857" lon="6.01923">
        <ele>1742.4539794922</ele>
        <time>2017-11-18T06:30:56Z</time>
      </trkpt>
      <trkpt lat="45.25852" lon="6.01925">
        <ele>1741.4539794922</ele>
        <time>2017-11-18T06:31:00Z</time>
      </trkpt>
      <trkpt lat="45.25847" lon="6.01928">
        <ele>1741.4539794922</ele>
        <time>2017-11-18T06:31:05Z</time>
      </trkpt>
      <trkpt lat="45.25843" lon="6.01933">
        <ele>1742.4539794922</ele>
        <time>2017-11-18T06:31:10Z</time>
      </trkpt>
      <trkpt lat="45.25839" lon="6.01936">
        <ele>1741.4539794922</ele>
        <time>2017-11-18T06:31:14Z</time>
      </trkpt>
      <trkpt lat="45.25834" lon="6.01939">
        <ele>1742.4539794922</ele>
        <time>2017-11-18T06:31:20Z</time>
      </trkpt>
      <trkpt lat="45.2583" lon="6.01942">
        <ele>1744.4539794922</ele>
        <time>2017-11-18T06:31:25Z</time>
      </trkpt>
      <trkpt lat="45.25825" lon="6.01943">
        <ele>1745.4539794922</ele>
        <time>2017-11-18T06:31:30Z</time>
      </trkpt>
      <trkpt lat="45.2582" lon="6.01943">
        <ele>1747.4539794922</ele>
        <time>2017-11-18T06:31:35Z</time>
      </trkpt>
      <trkpt lat="45.25816" lon="6.01943">
        <ele>1748.4539794922</ele>
        <time>2017-11-18T06:31:40Z</time>
      </trkpt>
      <trkpt lat="45.25811" lon="6.01944">
        <ele>1750.4539794922</ele>
        <time>2017-11-18T06:31:45Z</time>
      </trkpt>
      <trkpt lat="45.25806" lon="6.01946">
        <ele>1752.4539794922</ele>
        <time>2017-11-18T06:31:52Z</time>
      </trkpt>
      <trkpt lat="45.25801" lon="6.01949">
        <ele>1752.4539794922</ele>
        <time>2017-11-18T06:31:58Z</time>
      </trkpt>
      <trkpt lat="45.25797" lon="6.01951">
        <ele>1753.4539794922</ele>
        <time>2017-11-18T06:32:03Z</time>
      </trkpt>
      <trkpt lat="45.25793" lon="6.01957">
        <ele>1754.4539794922</ele>
        <time>2017-11-18T06:32:09Z</time>
      </trkpt>
      <trkpt lat="45.2579" lon="6.01962">
        <ele>1756.4539794922</ele>
        <time>2017-11-18T06:32:15Z</time>
      </trkpt>
      <trkpt lat="45.25787" lon="6.01968">
        <ele>1755.4539794922</ele>
        <time>2017-11-18T06:32:21Z</time>
      </trkpt>
      <trkpt lat="45.25783" lon="6.01972">
        <ele>1759.4539794922</ele>
        <time>2017-11-18T06:32:29Z</time>
      </trkpt>
      <trkpt lat="45.2578" lon="6.01977">
        <ele>1761.4539794922</ele>
        <time>2017-11-18T06:32:36Z</time>
      </trkpt>
      <trkpt lat="45.25777" lon="6.01983">
        <ele>1760.4539794922</ele>
        <time>2017-11-18T06:32:43Z</time>
      </trkpt>
      <trkpt lat="45.25773" lon="6.01987">
        <ele>1762.4539794922</ele>
        <time>2017-11-18T06:32:49Z</time>
      </trkpt>
      <trkpt lat="45.2577" lon="6.01992">
        <ele>1764.4539794922</ele>
        <time>2017-11-18T06:32:55Z</time>
      </trkpt>
      <trkpt lat="45.25766" lon="6.01996">
        <ele>1766.4539794922</ele>
        <time>2017-11-18T06:33:01Z</time>
      </trkpt>
      <trkpt lat="45.25762" lon="6.01999">
        <ele>1768.4539794922</ele>
        <time>2017-11-18T06:33:06Z</time>
      </trkpt>
      <trkpt lat="45.25758" lon="6.02004">
        <ele>1769.4539794922</ele>
        <time>2017-11-18T06:33:12Z</time>
      </trkpt>
      <trkpt lat="45.25753" lon="6.02007">
        <ele>1769.4539794922</ele>
        <time>2017-11-18T06:33:18Z</time>
      </trkpt>
      <trkpt lat="45.25748" lon="6.02009">
        <ele>1770.4539794922</ele>
        <time>2017-11-18T06:33:24Z</time>
      </trkpt>
      <trkpt lat="45.25744" lon="6.02013">
        <ele>1771.4539794922</ele>
        <time>2017-11-18T06:33:30Z</time>
      </trkpt>
      <trkpt lat="45.2574" lon="6.02017">
        <ele>1772.4539794922</ele>
        <time>2017-11-18T06:33:35Z</time>
      </trkpt>
      <trkpt lat="45.25736" lon="6.02021">
        <ele>1773.4539794922</ele>
        <time>2017-11-18T06:33:41Z</time>
      </trkpt>
      <trkpt lat="45.25732" lon="6.02025">
        <ele>1773.4539794922</ele>
        <time>2017-11-18T06:33:47Z</time>
      </trkpt>
      <trkpt lat="45.25728" lon="6.02029">
        <ele>1774.4539794922</ele>
        <time>2017-11-18T06:33:54Z</time>
      </trkpt>
      <trkpt lat="45.25725" lon="6.02034">
        <ele>1776.4539794922</ele>
        <time>2017-11-18T06:34:01Z</time>
      </trkpt>
      <trkpt lat="45.25722" lon="6.02039">
        <ele>1777.4539794922</ele>
        <time>2017-11-18T06:34:07Z</time>
      </trkpt>
      <trkpt lat="45.25718" lon="6.02044">
        <ele>1779.4539794922</ele>
        <time>2017-11-18T06:34:14Z</time>
      </trkpt>
      <trkpt lat="45.25716" lon="6.02051">
        <ele>1780.4539794922</ele>
        <time>2017-11-18T06:34:21Z</time>
      </trkpt>
      <trkpt lat="45.25712" lon="6.02055">
        <ele>1782.4539794922</ele>
        <time>2017-11-18T06:34:27Z</time>
      </trkpt>
      <trkpt lat="45.2571" lon="6.02061">
        <ele>1783.4539794922</ele>
        <time>2017-11-18T06:34:34Z</time>
      </trkpt>
      <trkpt lat="45.25707" lon="6.02067">
        <ele>1784.4539794922</ele>
        <time>2017-11-18T06:34:39Z</time>
      </trkpt>
      <trkpt lat="45.25704" lon="6.02073">
        <ele>1787.4539794922</ele>
        <time>2017-11-18T06:34:46Z</time>
      </trkpt>
      <trkpt lat="45.25701" lon="6.02079">
        <ele>1788.4539794922</ele>
        <time>2017-11-18T06:34:53Z</time>
      </trkpt>
      <trkpt lat="45.25698" lon="6.02084">
        <ele>1789.4539794922</ele>
        <time>2017-11-18T06:35:00Z</time>
      </trkpt>
      <trkpt lat="45.25697" lon="6.0209">
        <ele>1790.4539794922</ele>
        <time>2017-11-18T06:35:06Z</time>
      </trkpt>
      <trkpt lat="45.25695" lon="6.02096">
        <ele>1791.4539794922</ele>
        <time>2017-11-18T06:35:13Z</time>
      </trkpt>
      <trkpt lat="45.25692" lon="6.02102">
        <ele>1793.4539794922</ele>
        <time>2017-11-18T06:35:18Z</time>
      </trkpt>
      <trkpt lat="45.25691" lon="6.02108">
        <ele>1796.4539794922</ele>
        <time>2017-11-18T06:35:26Z</time>
      </trkpt>
      <trkpt lat="45.25689" lon="6.02114">
        <ele>1796.4539794922</ele>
        <time>2017-11-18T06:35:34Z</time>
      </trkpt>
      <trkpt lat="45.2569" lon="6.02121">
        <ele>1799.4539794922</ele>
        <time>2017-11-18T06:35:40Z</time>
      </trkpt>
      <trkpt lat="45.25695" lon="6.02125">
        <ele>1800.4539794922</ele>
        <time>2017-11-18T06:35:46Z</time>
      </trkpt>
      <trkpt lat="45.257" lon="6.02124">
        <ele>1804.4539794922</ele>
        <time>2017-11-18T06:35:51Z</time>
      </trkpt>
      <trkpt lat="45.25704" lon="6.0212">
        <ele>1729.4539794922</ele>
        <time>2017-11-18T06:35:57Z</time>
      </trkpt>
      <trkpt lat="45.25709" lon="6.02119">
        <ele>1786.4539794922</ele>
        <time>2017-11-18T06:36:03Z</time>
      </trkpt>
      <trkpt lat="45.25714" lon="6.02119">
        <ele>1796.4539794922</ele>
        <time>2017-11-18T06:36:09Z</time>
      </trkpt>
      <trkpt lat="45.25719" lon="6.02121">
        <ele>1805.4539794922</ele>
        <time>2017-11-18T06:36:14Z</time>
      </trkpt>
      <trkpt lat="45.25725" lon="6.02123">
        <ele>1805.4539794922</ele>
        <time>2017-11-18T06:36:19Z</time>
      </trkpt>
      <trkpt lat="45.25731" lon="6.02123">
        <ele>1808.4539794922</ele>
        <time>2017-11-18T06:36:25Z</time>
      </trkpt>
      <trkpt lat="45.25736" lon="6.02124">
        <ele>1846.4539794922</ele>
        <time>2017-11-18T06:36:31Z</time>
      </trkpt>
      <trkpt lat="45.25741" lon="6.02125">
        <ele>1825.4539794922</ele>
        <time>2017-11-18T06:36:35Z</time>
      </trkpt>
      <trkpt lat="45.25746" lon="6.02127">
        <ele>1820.4539794922</ele>
        <time>2017-11-18T06:36:39Z</time>
      </trkpt>
      <trkpt lat="45.25752" lon="6.02128">
        <ele>1817.4539794922</ele>
        <time>2017-11-18T06:36:44Z</time>
      </trkpt>
      <trkpt lat="45.25756" lon="6.02127">
        <ele>1818.4539794922</ele>
        <time>2017-11-18T06:36:50Z</time>
      </trkpt>
      <trkpt lat="45.25761" lon="6.02127">
        <ele>1802.4539794922</ele>
        <time>2017-11-18T06:36:56Z</time>
      </trkpt>
      <trkpt lat="45.25768" lon="6.02128">
        <ele>1817.4539794922</ele>
        <time>2017-11-18T06:37:02Z</time>
      </trkpt>
      <trkpt lat="45.25773" lon="6.02127">
        <ele>1818.4539794922</ele>
        <time>2017-11-18T06:37:07Z</time>
      </trkpt>
      <trkpt lat="45.25778" lon="6.02127">
        <ele>1820.4539794922</ele>
        <time>2017-11-18T06:37:12Z</time>
      </trkpt>
      <trkpt lat="45.25784" lon="6.02127">
        <ele>1822.4539794922</ele>
        <time>2017-11-18T06:37:17Z</time>
      </trkpt>
      <trkpt lat="45.25788" lon="6.02128">
        <ele>1824.4539794922</ele>
        <time>2017-11-18T06:37:22Z</time>
      </trkpt>
      <trkpt lat="45.25793" lon="6.02131">
        <ele>1824.4549560547</ele>
        <time>2017-11-18T06:37:25Z</time>
      </trkpt>
      <trkpt lat="45.25798" lon="6.02133">
        <ele>1825.4549560547</ele>
        <time>2017-11-18T06:37:29Z</time>
      </trkpt>
      <trkpt lat="45.25803" lon="6.02137">
        <ele>1827.4549560547</ele>
        <time>2017-11-18T06:37:34Z</time>
      </trkpt>
      <trkpt lat="45.25807" lon="6.02141">
        <ele>1826.4549560547</ele>
        <time>2017-11-18T06:37:39Z</time>
      </trkpt>
      <trkpt lat="45.25811" lon="6.02146">
        <ele>1825.4549560547</ele>
        <time>2017-11-18T06:37:45Z</time>
      </trkpt>
      <trkpt lat="45.25816" lon="6.0215">
        <ele>1826.4549560547</ele>
        <time>2017-11-18T06:37:52Z</time>
      </trkpt>
      <trkpt lat="45.2582" lon="6.02154">
        <ele>1826.4549560547</ele>
        <time>2017-11-18T06:37:57Z</time>
      </trkpt>
      <trkpt lat="45.25824" lon="6.02159">
        <ele>1827.4549560547</ele>
        <time>2017-11-18T06:38:03Z</time>
      </trkpt>
      <trkpt lat="45.25826" lon="6.02165">
        <ele>1829.4549560547</ele>
        <time>2017-11-18T06:38:08Z</time>
      </trkpt>
      <trkpt lat="45.2583" lon="6.02171">
        <ele>1830.4549560547</ele>
        <time>2017-11-18T06:38:13Z</time>
      </trkpt>
      <trkpt lat="45.25833" lon="6.02176">
        <ele>1831.4549560547</ele>
        <time>2017-11-18T06:38:19Z</time>
      </trkpt>
      <trkpt lat="45.25837" lon="6.02181">
        <ele>1834.4549560547</ele>
        <time>2017-11-18T06:38:24Z</time>
      </trkpt>
      <trkpt lat="45.2584" lon="6.02186">
        <ele>1833.4549560547</ele>
        <time>2017-11-18T06:38:30Z</time>
      </trkpt>
      <trkpt lat="45.25844" lon="6.0219">
        <ele>1832.4549560547</ele>
        <time>2017-11-18T06:38:37Z</time>
      </trkpt>
      <trkpt lat="45.25847" lon="6.02195">
        <ele>1833.4549560547</ele>
        <time>2017-11-18T06:38:41Z</time>
      </trkpt>
      <trkpt lat="45.25852" lon="6.02199">
        <ele>1830.4549560547</ele>
        <time>2017-11-18T06:38:47Z</time>
      </trkpt>
      <trkpt lat="45.25856" lon="6.02203">
        <ele>1833.4549560547</ele>
        <time>2017-11-18T06:38:50Z</time>
      </trkpt>
      <trkpt lat="45.2586" lon="6.02207">
        <ele>1833.4549560547</ele>
        <time>2017-11-18T06:38:53Z</time>
      </trkpt>
      <trkpt lat="45.25865" lon="6.02211">
        <ele>1837.4549560547</ele>
        <time>2017-11-18T06:38:59Z</time>
      </trkpt>
      <trkpt lat="45.25868" lon="6.02216">
        <ele>1839.4549560547</ele>
        <time>2017-11-18T06:39:04Z</time>
      </trkpt>
      <trkpt lat="45.25872" lon="6.0222">
        <ele>1841.4549560547</ele>
        <time>2017-11-18T06:39:08Z</time>
      </trkpt>
      <trkpt lat="45.25875" lon="6.02225">
        <ele>1837.4549560547</ele>
        <time>2017-11-18T06:39:13Z</time>
      </trkpt>
      <trkpt lat="45.25877" lon="6.02231">
        <ele>1838.4549560547</ele>
        <time>2017-11-18T06:39:20Z</time>
      </trkpt>
      <trkpt lat="45.25881" lon="6.02237">
        <ele>1839.4549560547</ele>
        <time>2017-11-18T06:39:24Z</time>
      </trkpt>
      <trkpt lat="45.25885" lon="6.02241">
        <ele>1839.4549560547</ele>
        <time>2017-11-18T06:39:28Z</time>
      </trkpt>
      <trkpt lat="45.25889" lon="6.02246">
        <ele>1841.4549560547</ele>
        <time>2017-11-18T06:39:33Z</time>
      </trkpt>
      <trkpt lat="45.25892" lon="6.02251">
        <ele>1842.4549560547</ele>
        <time>2017-11-18T06:39:38Z</time>
      </trkpt>
      <trkpt lat="45.25894" lon="6.02258">
        <ele>1844.4549560547</ele>
        <time>2017-11-18T06:39:46Z</time>
      </trkpt>
      <trkpt lat="45.25891" lon="6.02265">
        <ele>1839.4549560547</ele>
        <time>2017-11-18T06:39:50Z</time>
      </trkpt>
      <trkpt lat="45.25886" lon="6.02269">
        <ele>1844.4549560547</ele>
        <time>2017-11-18T06:39:56Z</time>
      </trkpt>
      <trkpt lat="45.25882" lon="6.02266">
        <ele>1849.4549560547</ele>
        <time>2017-11-18T06:40:00Z</time>
      </trkpt>
      <trkpt lat="45.25877" lon="6.02266">
        <ele>1848.4549560547</ele>
        <time>2017-11-18T06:40:06Z</time>
      </trkpt>
      <trkpt lat="45.25872" lon="6.02265">
        <ele>1850.4549560547</ele>
        <time>2017-11-18T06:40:11Z</time>
      </trkpt>
      <trkpt lat="45.25868" lon="6.02263">
        <ele>1850.4549560547</ele>
        <time>2017-11-18T06:40:15Z</time>
      </trkpt>
      <trkpt lat="45.25863" lon="6.02258">
        <ele>1849.4549560547</ele>
        <time>2017-11-18T06:40:19Z</time>
      </trkpt>
      <trkpt lat="45.2586" lon="6.02253">
        <ele>1850.4549560547</ele>
        <time>2017-11-18T06:40:21Z</time>
      </trkpt>
      <trkpt lat="45.25855" lon="6.02254">
        <ele>1852.4549560547</ele>
        <time>2017-11-18T06:40:27Z</time>
      </trkpt>
      <trkpt lat="45.2585" lon="6.02251">
        <ele>1827.4549560547</ele>
        <time>2017-11-18T06:40:32Z</time>
      </trkpt>
      <trkpt lat="45.25846" lon="6.02249">
        <ele>1848.4549560547</ele>
        <time>2017-11-18T06:40:37Z</time>
      </trkpt>
      <trkpt lat="45.25841" lon="6.02249">
        <ele>1854.4549560547</ele>
        <time>2017-11-18T06:40:41Z</time>
      </trkpt>
      <trkpt lat="45.25836" lon="6.02246">
        <ele>1857.4549560547</ele>
        <time>2017-11-18T06:40:46Z</time>
      </trkpt>
      <trkpt lat="45.25831" lon="6.02244">
        <ele>1859.4549560547</ele>
        <time>2017-11-18T06:40:50Z</time>
      </trkpt>
      <trkpt lat="45.25826" lon="6.02245">
        <ele>1858.4549560547</ele>
        <time>2017-11-18T06:40:55Z</time>
      </trkpt>
      <trkpt lat="45.25822" lon="6.02248">
        <ele>1786.4549560547</ele>
        <time>2017-11-18T06:41:01Z</time>
      </trkpt>
      <trkpt lat="45.25817" lon="6.02251">
        <ele>1841.4549560547</ele>
        <time>2017-11-18T06:41:07Z</time>
      </trkpt>
      <trkpt lat="45.25813" lon="6.02254">
        <ele>1851.4549560547</ele>
        <time>2017-11-18T06:41:13Z</time>
      </trkpt>
      <trkpt lat="45.25808" lon="6.02256">
        <ele>1858.4549560547</ele>
        <time>2017-11-18T06:41:17Z</time>
      </trkpt>
      <trkpt lat="45.25803" lon="6.02259">
        <ele>1862.4549560547</ele>
        <time>2017-11-18T06:41:22Z</time>
      </trkpt>
      <trkpt lat="45.25798" lon="6.02258">
        <ele>1866.4549560547</ele>
        <time>2017-11-18T06:41:26Z</time>
      </trkpt>
      <trkpt lat="45.25793" lon="6.02257">
        <ele>1869.4549560547</ele>
        <time>2017-11-18T06:41:32Z</time>
      </trkpt>
      <trkpt lat="45.25788" lon="6.02259">
        <ele>1782.4549560547</ele>
        <time>2017-11-18T06:41:37Z</time>
      </trkpt>
      <trkpt lat="45.25783" lon="6.02259">
        <ele>1839.4549560547</ele>
        <time>2017-11-18T06:41:42Z</time>
      </trkpt>
      <trkpt lat="45.25777" lon="6.0226">
        <ele>1857.4549560547</ele>
        <time>2017-11-18T06:41:46Z</time>
      </trkpt>
      <trkpt lat="45.25772" lon="6.02259">
        <ele>1871.4549560547</ele>
        <time>2017-11-18T06:41:53Z</time>
      </trkpt>
      <trkpt lat="45.25766" lon="6.02258">
        <ele>1875.4549560547</ele>
        <time>2017-11-18T06:41:59Z</time>
      </trkpt>
      <trkpt lat="45.25762" lon="6.02259">
        <ele>1874.4549560547</ele>
        <time>2017-11-18T06:42:03Z</time>
      </trkpt>
      <trkpt lat="45.25756" lon="6.02261">
        <ele>1874.4549560547</ele>
        <time>2017-11-18T06:42:06Z</time>
      </trkpt>
      <trkpt lat="45.25751" lon="6.02258">
        <ele>1878.4549560547</ele>
        <time>2017-11-18T06:42:12Z</time>
      </trkpt>
      <trkpt lat="45.25746" lon="6.02258">
        <ele>1881.4549560547</ele>
        <time>2017-11-18T06:42:17Z</time>
      </trkpt>
      <trkpt lat="45.25741" lon="6.02262">
        <ele>1878.4549560547</ele>
        <time>2017-11-18T06:42:20Z</time>
      </trkpt>
      <trkpt lat="45.25735" lon="6.02265">
        <ele>1876.4549560547</ele>
        <time>2017-11-18T06:42:27Z</time>
      </trkpt>
      <trkpt lat="45.2573" lon="6.02266">
        <ele>1878.4549560547</ele>
        <time>2017-11-18T06:42:33Z</time>
      </trkpt>
      <trkpt lat="45.25725" lon="6.02266">
        <ele>1882.4549560547</ele>
        <time>2017-11-18T06:42:37Z</time>
      </trkpt>
      <trkpt lat="45.25721" lon="6.02271">
        <ele>1879.4549560547</ele>
        <time>2017-11-18T06:42:41Z</time>
      </trkpt>
      <trkpt lat="45.25717" lon="6.02275">
        <ele>1878.4549560547</ele>
        <time>2017-11-18T06:42:44Z</time>
      </trkpt>
      <trkpt lat="45.25713" lon="6.02279">
        <ele>1878.4549560547</ele>
        <time>2017-11-18T06:42:48Z</time>
      </trkpt>
      <trkpt lat="45.25708" lon="6.02283">
        <ele>1879.4549560547</ele>
        <time>2017-11-18T06:42:52Z</time>
      </trkpt>
      <trkpt lat="45.25705" lon="6.02287">
        <ele>1880.4549560547</ele>
        <time>2017-11-18T06:42:55Z</time>
      </trkpt>
      <trkpt lat="45.25702" lon="6.02295">
        <ele>1882.4549560547</ele>
        <time>2017-11-18T06:43:00Z</time>
      </trkpt>
      <trkpt lat="45.25698" lon="6.023">
        <ele>1882.4549560547</ele>
        <time>2017-11-18T06:43:05Z</time>
      </trkpt>
      <trkpt lat="45.25694" lon="6.02305">
        <ele>1883.4549560547</ele>
        <time>2017-11-18T06:43:09Z</time>
      </trkpt>
      <trkpt lat="45.25691" lon="6.0231">
        <ele>1882.4549560547</ele>
        <time>2017-11-18T06:43:16Z</time>
      </trkpt>
      <trkpt lat="45.25688" lon="6.02315">
        <ele>1881.4549560547</ele>
        <time>2017-11-18T06:43:19Z</time>
      </trkpt>
      <trkpt lat="45.25685" lon="6.02322">
        <ele>1883.4549560547</ele>
        <time>2017-11-18T06:43:25Z</time>
      </trkpt>
      <trkpt lat="45.25682" lon="6.02328">
        <ele>1889.4549560547</ele>
        <time>2017-11-18T06:43:37Z</time>
      </trkpt>
      <trkpt lat="45.25677" lon="6.02333">
        <ele>1890.4549560547</ele>
        <time>2017-11-18T06:43:42Z</time>
      </trkpt>
      <trkpt lat="45.25674" lon="6.02338">
        <ele>1889.4549560547</ele>
        <time>2017-11-18T06:43:45Z</time>
      </trkpt>
      <trkpt lat="45.25669" lon="6.02342">
        <ele>1892.4549560547</ele>
        <time>2017-11-18T06:43:49Z</time>
      </trkpt>
      <trkpt lat="45.25664" lon="6.02344">
        <ele>1894.4549560547</ele>
        <time>2017-11-18T06:43:52Z</time>
      </trkpt>
      <trkpt lat="45.2566" lon="6.02347">
        <ele>1892.4549560547</ele>
        <time>2017-11-18T06:43:56Z</time>
      </trkpt>
      <trkpt lat="45.25657" lon="6.02352">
        <ele>1893.4549560547</ele>
        <time>2017-11-18T06:43:59Z</time>
      </trkpt>
      <trkpt lat="45.25653" lon="6.02355">
        <ele>1893.4549560547</ele>
        <time>2017-11-18T06:44:02Z</time>
      </trkpt>
      <trkpt lat="45.25649" lon="6.02361">
        <ele>1890.4549560547</ele>
        <time>2017-11-18T06:44:06Z</time>
      </trkpt>
      <trkpt lat="45.25645" lon="6.02367">
        <ele>1889.4549560547</ele>
        <time>2017-11-18T06:44:11Z</time>
      </trkpt>
      <trkpt lat="45.25641" lon="6.02369">
        <ele>1891.4549560547</ele>
        <time>2017-11-18T06:44:14Z</time>
      </trkpt>
      <trkpt lat="45.25635" lon="6.02373">
        <ele>1892.4549560547</ele>
        <time>2017-11-18T06:44:17Z</time>
      </trkpt>
      <trkpt lat="45.25632" lon="6.02378">
        <ele>1891.4549560547</ele>
        <time>2017-11-18T06:44:20Z</time>
      </trkpt>
      <trkpt lat="45.25627" lon="6.02382">
        <ele>1892.4549560547</ele>
        <time>2017-11-18T06:44:24Z</time>
      </trkpt>
      <trkpt lat="45.25623" lon="6.02385">
        <ele>1894.4549560547</ele>
        <time>2017-11-18T06:44:28Z</time>
      </trkpt>
      <trkpt lat="45.25618" lon="6.02387">
        <ele>1894.4549560547</ele>
        <time>2017-11-18T06:44:31Z</time>
      </trkpt>
      <trkpt lat="45.25614" lon="6.02391">
        <ele>1894.4549560547</ele>
        <time>2017-11-18T06:44:35Z</time>
      </trkpt>
      <trkpt lat="45.25609" lon="6.02392">
        <ele>1894.4549560547</ele>
        <time>2017-11-18T06:44:39Z</time>
      </trkpt>
      <trkpt lat="45.25604" lon="6.02392">
        <ele>1896.4539794922</ele>
        <time>2017-11-18T06:44:43Z</time>
      </trkpt>
      <trkpt lat="45.25599" lon="6.02395">
        <ele>1897.4539794922</ele>
        <time>2017-11-18T06:44:47Z</time>
      </trkpt>
      <trkpt lat="45.25594" lon="6.02399">
        <ele>1897.4539794922</ele>
        <time>2017-11-18T06:44:51Z</time>
      </trkpt>
      <trkpt lat="45.25589" lon="6.02401">
        <ele>1897.4539794922</ele>
        <time>2017-11-18T06:44:55Z</time>
      </trkpt>
      <trkpt lat="45.25585" lon="6.02404">
        <ele>1899.4539794922</ele>
        <time>2017-11-18T06:44:59Z</time>
      </trkpt>
      <trkpt lat="45.2558" lon="6.02408">
        <ele>1898.4539794922</ele>
        <time>2017-11-18T06:45:04Z</time>
      </trkpt>
      <trkpt lat="45.25575" lon="6.02409">
        <ele>1897.4539794922</ele>
        <time>2017-11-18T06:45:10Z</time>
      </trkpt>
      <trkpt lat="45.2557" lon="6.02412">
        <ele>1897.4539794922</ele>
        <time>2017-11-18T06:45:14Z</time>
      </trkpt>
      <trkpt lat="45.25565" lon="6.02413">
        <ele>1898.4539794922</ele>
        <time>2017-11-18T06:45:17Z</time>
      </trkpt>
      <trkpt lat="45.2556" lon="6.02417">
        <ele>1897.4539794922</ele>
        <time>2017-11-18T06:45:21Z</time>
      </trkpt>
      <trkpt lat="45.25555" lon="6.0242">
        <ele>1897.4539794922</ele>
        <time>2017-11-18T06:45:25Z</time>
      </trkpt>
      <trkpt lat="45.25551" lon="6.02423">
        <ele>1898.4539794922</ele>
        <time>2017-11-18T06:45:28Z</time>
      </trkpt>
      <trkpt lat="45.25546" lon="6.02427">
        <ele>1898.4539794922</ele>
        <time>2017-11-18T06:45:32Z</time>
      </trkpt>
      <trkpt lat="45.25541" lon="6.0243">
        <ele>1898.4539794922</ele>
        <time>2017-11-18T06:45:35Z</time>
      </trkpt>
      <trkpt lat="45.25537" lon="6.02432">
        <ele>1898.4539794922</ele>
        <time>2017-11-18T06:45:39Z</time>
      </trkpt>
      <trkpt lat="45.25532" lon="6.02435">
        <ele>1898.4539794922</ele>
        <time>2017-11-18T06:45:43Z</time>
      </trkpt>
      <trkpt lat="45.25527" lon="6.02436">
        <ele>1900.4539794922</ele>
        <time>2017-11-18T06:45:47Z</time>
      </trkpt>
      <trkpt lat="45.25521" lon="6.02439">
        <ele>1902.4539794922</ele>
        <time>2017-11-18T06:45:51Z</time>
      </trkpt>
      <trkpt lat="45.25517" lon="6.02443">
        <ele>1899.4539794922</ele>
        <time>2017-11-18T06:45:55Z</time>
      </trkpt>
      <trkpt lat="45.25513" lon="6.02446">
        <ele>1898.4539794922</ele>
        <time>2017-11-18T06:45:58Z</time>
      </trkpt>
      <trkpt lat="45.25509" lon="6.0245">
        <ele>1896.4539794922</ele>
        <time>2017-11-18T06:46:02Z</time>
      </trkpt>
      <trkpt lat="45.25504" lon="6.02451">
        <ele>1897.4539794922</ele>
        <time>2017-11-18T06:46:06Z</time>
      </trkpt>
      <trkpt lat="45.25499" lon="6.02454">
        <ele>1897.4539794922</ele>
        <time>2017-11-18T06:46:10Z</time>
      </trkpt>
      <trkpt lat="45.25495" lon="6.02458">
        <ele>1900.4539794922</ele>
        <time>2017-11-18T06:46:14Z</time>
      </trkpt>
      <trkpt lat="45.2549" lon="6.02459">
        <ele>1902.4539794922</ele>
        <time>2017-11-18T06:46:17Z</time>
      </trkpt>
      <trkpt lat="45.25485" lon="6.02462">
        <ele>1901.4539794922</ele>
        <time>2017-11-18T06:46:20Z</time>
      </trkpt>
      <trkpt lat="45.2548" lon="6.02463">
        <ele>1903.4539794922</ele>
        <time>2017-11-18T06:46:26Z</time>
      </trkpt>
      <trkpt lat="45.25476" lon="6.02468">
        <ele>1903.4539794922</ele>
        <time>2017-11-18T06:46:30Z</time>
      </trkpt>
      <trkpt lat="45.25471" lon="6.02471">
        <ele>1904.4539794922</ele>
        <time>2017-11-18T06:46:36Z</time>
      </trkpt>
      <trkpt lat="45.25467" lon="6.02474">
        <ele>1903.4539794922</ele>
        <time>2017-11-18T06:46:40Z</time>
      </trkpt>
      <trkpt lat="45.25463" lon="6.02478">
        <ele>1904.4539794922</ele>
        <time>2017-11-18T06:46:44Z</time>
      </trkpt>
      <trkpt lat="45.25459" lon="6.02481">
        <ele>1904.4539794922</ele>
        <time>2017-11-18T06:46:47Z</time>
      </trkpt>
      <trkpt lat="45.25454" lon="6.0248">
        <ele>1906.4539794922</ele>
        <time>2017-11-18T06:46:52Z</time>
      </trkpt>
      <trkpt lat="45.25448" lon="6.02482">
        <ele>1908.4539794922</ele>
        <time>2017-11-18T06:46:56Z</time>
      </trkpt>
      <trkpt lat="45.25444" lon="6.02483">
        <ele>1909.4539794922</ele>
        <time>2017-11-18T06:46:59Z</time>
      </trkpt>
      <trkpt lat="45.25439" lon="6.02479">
        <ele>1906.4539794922</ele>
        <time>2017-11-18T06:47:03Z</time>
      </trkpt>
      <trkpt lat="45.25434" lon="6.02477">
        <ele>1907.4539794922</ele>
        <time>2017-11-18T06:47:07Z</time>
      </trkpt>
      <trkpt lat="45.2543" lon="6.02474">
        <ele>1907.4539794922</ele>
        <time>2017-11-18T06:47:10Z</time>
      </trkpt>
      <trkpt lat="45.25424" lon="6.02471">
        <ele>1908.4539794922</ele>
        <time>2017-11-18T06:47:14Z</time>
      </trkpt>
      <trkpt lat="45.25419" lon="6.02469">
        <ele>1908.4539794922</ele>
        <time>2017-11-18T06:47:16Z</time>
      </trkpt>
      <trkpt lat="45.25414" lon="6.02467">
        <ele>1907.4539794922</ele>
        <time>2017-11-18T06:47:19Z</time>
      </trkpt>
      <trkpt lat="45.25408" lon="6.02467">
        <ele>1905.4539794922</ele>
        <time>2017-11-18T06:47:22Z</time>
      </trkpt>
      <trkpt lat="45.25404" lon="6.02464">
        <ele>1903.4539794922</ele>
        <time>2017-11-18T06:47:25Z</time>
      </trkpt>
      <trkpt lat="45.25399" lon="6.02459">
        <ele>1900.4539794922</ele>
        <time>2017-11-18T06:47:29Z</time>
      </trkpt>
      <trkpt lat="45.25393" lon="6.02454">
        <ele>1897.4539794922</ele>
        <time>2017-11-18T06:47:32Z</time>
      </trkpt>
      <trkpt lat="45.25389" lon="6.02452">
        <ele>1894.4539794922</ele>
        <time>2017-11-18T06:47:35Z</time>
      </trkpt>
      <trkpt lat="45.25384" lon="6.02451">
        <ele>1892.4539794922</ele>
        <time>2017-11-18T06:47:38Z</time>
      </trkpt>
      <trkpt lat="45.25389" lon="6.02455">
        <ele>1894.4539794922</ele>
        <time>2017-11-18T06:48:40Z</time>
      </trkpt>
      <trkpt lat="45.25394" lon="6.02458">
        <ele>1896.4539794922</ele>
        <time>2017-11-18T06:48:43Z</time>
      </trkpt>
      <trkpt lat="45.25399" lon="6.02459">
        <ele>1898.4539794922</ele>
        <time>2017-11-18T06:48:47Z</time>
      </trkpt>
      <trkpt lat="45.25396" lon="6.02452">
        <ele>1897.4539794922</ele>
        <time>2017-11-18T06:50:22Z</time>
      </trkpt>
      <trkpt lat="45.25391" lon="6.02447">
        <ele>1898.4539794922</ele>
        <time>2017-11-18T06:50:25Z</time>
      </trkpt>
      <trkpt lat="45.25385" lon="6.02443">
        <ele>1898.4539794922</ele>
        <time>2017-11-18T06:50:28Z</time>
      </trkpt>
      <trkpt lat="45.25379" lon="6.0244">
        <ele>1898.4539794922</ele>
        <time>2017-11-18T06:50:31Z</time>
      </trkpt>
      <trkpt lat="45.25375" lon="6.02439">
        <ele>1898.4539794922</ele>
        <time>2017-11-18T06:50:41Z</time>
      </trkpt>
      <trkpt lat="45.25371" lon="6.02443">
        <ele>1895.4539794922</ele>
        <time>2017-11-18T06:50:54Z</time>
      </trkpt>
      <trkpt lat="45.25366" lon="6.0244">
        <ele>1895.4539794922</ele>
        <time>2017-11-18T06:50:56Z</time>
      </trkpt>
      <trkpt lat="45.2536" lon="6.02438">
        <ele>1894.4539794922</ele>
        <time>2017-11-18T06:50:58Z</time>
      </trkpt>
      <trkpt lat="45.25352" lon="6.02435">
        <ele>1892.4539794922</ele>
        <time>2017-11-18T06:51:00Z</time>
      </trkpt>
      <trkpt lat="45.25343" lon="6.02432">
        <ele>1891.4539794922</ele>
        <time>2017-11-18T06:51:02Z</time>
      </trkpt>
      <trkpt lat="45.25334" lon="6.02429">
        <ele>1891.4539794922</ele>
        <time>2017-11-18T06:51:04Z</time>
      </trkpt>
      <trkpt lat="45.25324" lon="6.02424">
        <ele>1891.4539794922</ele>
        <time>2017-11-18T06:51:06Z</time>
      </trkpt>
      <trkpt lat="45.25313" lon="6.02422">
        <ele>1889.4539794922</ele>
        <time>2017-11-18T06:51:09Z</time>
      </trkpt>
      <trkpt lat="45.25308" lon="6.0242">
        <ele>1890.4539794922</ele>
        <time>2017-11-18T06:51:13Z</time>
      </trkpt>
      <trkpt lat="45.25304" lon="6.02423">
        <ele>1887.4539794922</ele>
        <time>2017-11-18T06:51:37Z</time>
      </trkpt>
      <trkpt lat="45.25299" lon="6.02417">
        <ele>1886.4539794922</ele>
        <time>2017-11-18T06:51:42Z</time>
      </trkpt>
      <trkpt lat="45.25295" lon="6.02415">
        <ele>1884.4539794922</ele>
        <time>2017-11-18T06:51:46Z</time>
      </trkpt>
      <trkpt lat="45.2529" lon="6.02411">
        <ele>1882.4539794922</ele>
        <time>2017-11-18T06:51:51Z</time>
      </trkpt>
      <trkpt lat="45.25284" lon="6.02407">
        <ele>1883.4539794922</ele>
        <time>2017-11-18T06:51:55Z</time>
      </trkpt>
      <trkpt lat="45.25279" lon="6.02405">
        <ele>1881.4539794922</ele>
        <time>2017-11-18T06:51:58Z</time>
      </trkpt>
      <trkpt lat="45.25275" lon="6.02399">
        <ele>1880.4539794922</ele>
        <time>2017-11-18T06:52:02Z</time>
      </trkpt>
      <trkpt lat="45.2527" lon="6.02396">
        <ele>1880.4539794922</ele>
        <time>2017-11-18T06:52:06Z</time>
      </trkpt>
      <trkpt lat="45.25267" lon="6.02392">
        <ele>1881.4539794922</ele>
        <time>2017-11-18T06:52:09Z</time>
      </trkpt>
      <trkpt lat="45.25263" lon="6.02388">
        <ele>1880.4539794922</ele>
        <time>2017-11-18T06:52:13Z</time>
      </trkpt>
      <trkpt lat="45.25257" lon="6.02384">
        <ele>1882.4539794922</ele>
        <time>2017-11-18T06:52:17Z</time>
      </trkpt>
      <trkpt lat="45.25252" lon="6.0238">
        <ele>1883.4539794922</ele>
        <time>2017-11-18T06:52:21Z</time>
      </trkpt>
      <trkpt lat="45.25247" lon="6.02378">
        <ele>1884.4539794922</ele>
        <time>2017-11-18T06:52:25Z</time>
      </trkpt>
      <trkpt lat="45.25242" lon="6.02375">
        <ele>1885.4539794922</ele>
        <time>2017-11-18T06:52:36Z</time>
      </trkpt>
      <trkpt lat="45.25238" lon="6.02371">
        <ele>1865.4539794922</ele>
        <time>2017-11-18T06:52:41Z</time>
      </trkpt>
      <trkpt lat="45.25234" lon="6.02367">
        <ele>1884.4539794922</ele>
        <time>2017-11-18T06:52:46Z</time>
      </trkpt>
      <trkpt lat="45.25229" lon="6.02364">
        <ele>1886.4539794922</ele>
        <time>2017-11-18T06:52:50Z</time>
      </trkpt>
      <trkpt lat="45.25225" lon="6.0236">
        <ele>1887.4539794922</ele>
        <time>2017-11-18T06:52:54Z</time>
      </trkpt>
      <trkpt lat="45.25221" lon="6.02357">
        <ele>1887.4539794922</ele>
        <time>2017-11-18T06:52:58Z</time>
      </trkpt>
      <trkpt lat="45.25216" lon="6.02354">
        <ele>1887.4539794922</ele>
        <time>2017-11-18T06:53:02Z</time>
      </trkpt>
      <trkpt lat="45.25211" lon="6.02353">
        <ele>1888.4539794922</ele>
        <time>2017-11-18T06:53:05Z</time>
      </trkpt>
      <trkpt lat="45.25207" lon="6.02351">
        <ele>1888.4539794922</ele>
        <time>2017-11-18T06:53:08Z</time>
      </trkpt>
      <trkpt lat="45.25201" lon="6.02349">
        <ele>1887.4539794922</ele>
        <time>2017-11-18T06:53:12Z</time>
      </trkpt>
      <trkpt lat="45.25197" lon="6.02347">
        <ele>1888.4539794922</ele>
        <time>2017-11-18T06:53:15Z</time>
      </trkpt>
      <trkpt lat="45.25191" lon="6.02343">
        <ele>1888.4539794922</ele>
        <time>2017-11-18T06:53:19Z</time>
      </trkpt>
      <trkpt lat="45.25185" lon="6.02342">
        <ele>1888.4539794922</ele>
        <time>2017-11-18T06:53:23Z</time>
      </trkpt>
      <trkpt lat="45.2518" lon="6.02341">
        <ele>1888.4539794922</ele>
        <time>2017-11-18T06:53:27Z</time>
      </trkpt>
      <trkpt lat="45.25175" lon="6.02338">
        <ele>1888.4539794922</ele>
        <time>2017-11-18T06:53:30Z</time>
      </trkpt>
      <trkpt lat="45.25171" lon="6.02337">
        <ele>1889.4539794922</ele>
        <time>2017-11-18T06:53:33Z</time>
      </trkpt>
      <trkpt lat="45.25165" lon="6.02335">
        <ele>1892.4539794922</ele>
        <time>2017-11-18T06:53:37Z</time>
      </trkpt>
      <trkpt lat="45.2516" lon="6.02335">
        <ele>1890.4539794922</ele>
        <time>2017-11-18T06:53:42Z</time>
      </trkpt>
      <trkpt lat="45.25156" lon="6.02333">
        <ele>1890.4539794922</ele>
        <time>2017-11-18T06:53:46Z</time>
      </trkpt>
      <trkpt lat="45.25151" lon="6.02331">
        <ele>1890.4539794922</ele>
        <time>2017-11-18T06:53:49Z</time>
      </trkpt>
      <trkpt lat="45.25147" lon="6.02329">
        <ele>1892.4530029297</ele>
        <time>2017-11-18T06:53:52Z</time>
      </trkpt>
      <trkpt lat="45.25142" lon="6.02328">
        <ele>1893.4530029297</ele>
        <time>2017-11-18T06:53:56Z</time>
      </trkpt>
      <trkpt lat="45.25137" lon="6.02326">
        <ele>1893.4530029297</ele>
        <time>2017-11-18T06:54:00Z</time>
      </trkpt>
      <trkpt lat="45.25132" lon="6.02325">
        <ele>1893.4530029297</ele>
        <time>2017-11-18T06:54:04Z</time>
      </trkpt>
      <trkpt lat="45.25127" lon="6.02325">
        <ele>1891.4530029297</ele>
        <time>2017-11-18T06:54:09Z</time>
      </trkpt>
      <trkpt lat="45.25122" lon="6.02324">
        <ele>1891.4530029297</ele>
        <time>2017-11-18T06:54:12Z</time>
      </trkpt>
      <trkpt lat="45.25117" lon="6.02324">
        <ele>1891.4530029297</ele>
        <time>2017-11-18T06:54:16Z</time>
      </trkpt>
      <trkpt lat="45.25112" lon="6.02323">
        <ele>1892.4530029297</ele>
        <time>2017-11-18T06:54:20Z</time>
      </trkpt>
      <trkpt lat="45.25107" lon="6.02322">
        <ele>1894.4530029297</ele>
        <time>2017-11-18T06:54:24Z</time>
      </trkpt>
      <trkpt lat="45.25102" lon="6.02322">
        <ele>1894.4530029297</ele>
        <time>2017-11-18T06:54:28Z</time>
      </trkpt>
      <trkpt lat="45.25096" lon="6.02322">
        <ele>1895.4530029297</ele>
        <time>2017-11-18T06:54:32Z</time>
      </trkpt>
      <trkpt lat="45.25091" lon="6.02322">
        <ele>1895.4530029297</ele>
        <time>2017-11-18T06:54:35Z</time>
      </trkpt>
      <trkpt lat="45.25086" lon="6.02324">
        <ele>1896.4530029297</ele>
        <time>2017-11-18T06:54:39Z</time>
      </trkpt>
      <trkpt lat="45.25083" lon="6.02329">
        <ele>1896.4530029297</ele>
        <time>2017-11-18T06:54:43Z</time>
      </trkpt>
      <trkpt lat="45.25078" lon="6.02333">
        <ele>1897.4530029297</ele>
        <time>2017-11-18T06:54:46Z</time>
      </trkpt>
      <trkpt lat="45.25075" lon="6.02339">
        <ele>1896.4530029297</ele>
        <time>2017-11-18T06:54:49Z</time>
      </trkpt>
      <trkpt lat="45.25071" lon="6.02345">
        <ele>1894.4530029297</ele>
        <time>2017-11-18T06:54:53Z</time>
      </trkpt>
      <trkpt lat="45.25067" lon="6.02349">
        <ele>1894.4530029297</ele>
        <time>2017-11-18T06:54:57Z</time>
      </trkpt>
      <trkpt lat="45.25064" lon="6.02355">
        <ele>1895.4530029297</ele>
        <time>2017-11-18T06:55:01Z</time>
      </trkpt>
      <trkpt lat="45.25061" lon="6.0236">
        <ele>1894.4530029297</ele>
        <time>2017-11-18T06:55:05Z</time>
      </trkpt>
      <trkpt lat="45.25057" lon="6.02364">
        <ele>1893.4530029297</ele>
        <time>2017-11-18T06:55:08Z</time>
      </trkpt>
      <trkpt lat="45.25054" lon="6.02369">
        <ele>1895.4530029297</ele>
        <time>2017-11-18T06:55:11Z</time>
      </trkpt>
      <trkpt lat="45.2505" lon="6.02372">
        <ele>1895.4530029297</ele>
        <time>2017-11-18T06:55:15Z</time>
      </trkpt>
      <trkpt lat="45.25045" lon="6.02377">
        <ele>1894.4530029297</ele>
        <time>2017-11-18T06:55:19Z</time>
      </trkpt>
      <trkpt lat="45.25042" lon="6.02382">
        <ele>1894.4530029297</ele>
        <time>2017-11-18T06:55:23Z</time>
      </trkpt>
      <trkpt lat="45.25039" lon="6.02388">
        <ele>1895.4530029297</ele>
        <time>2017-11-18T06:55:28Z</time>
      </trkpt>
      <trkpt lat="45.25035" lon="6.02392">
        <ele>1896.4530029297</ele>
        <time>2017-11-18T06:55:32Z</time>
      </trkpt>
      <trkpt lat="45.25031" lon="6.02396">
        <ele>1896.4530029297</ele>
        <time>2017-11-18T06:55:36Z</time>
      </trkpt>
      <trkpt lat="45.25028" lon="6.02401">
        <ele>1898.4530029297</ele>
        <time>2017-11-18T06:55:42Z</time>
      </trkpt>
      <trkpt lat="45.25024" lon="6.02406">
        <ele>1899.4530029297</ele>
        <time>2017-11-18T06:55:46Z</time>
      </trkpt>
      <trkpt lat="45.2502" lon="6.02411">
        <ele>1901.4530029297</ele>
        <time>2017-11-18T06:55:51Z</time>
      </trkpt>
      <trkpt lat="45.25016" lon="6.02415">
        <ele>1901.4530029297</ele>
        <time>2017-11-18T06:55:55Z</time>
      </trkpt>
      <trkpt lat="45.25012" lon="6.0242">
        <ele>1904.4530029297</ele>
        <time>2017-11-18T06:56:01Z</time>
      </trkpt>
      <trkpt lat="45.25008" lon="6.02424">
        <ele>1907.4530029297</ele>
        <time>2017-11-18T06:56:05Z</time>
      </trkpt>
      <trkpt lat="45.25004" lon="6.02428">
        <ele>1906.4530029297</ele>
        <time>2017-11-18T06:56:09Z</time>
      </trkpt>
      <trkpt lat="45.25" lon="6.02433">
        <ele>1909.4530029297</ele>
        <time>2017-11-18T06:56:16Z</time>
      </trkpt>
      <trkpt lat="45.24997" lon="6.02437">
        <ele>1910.4530029297</ele>
        <time>2017-11-18T06:56:23Z</time>
      </trkpt>
      <trkpt lat="45.24993" lon="6.02441">
        <ele>1909.4530029297</ele>
        <time>2017-11-18T06:56:28Z</time>
      </trkpt>
      <trkpt lat="45.24989" lon="6.02444">
        <ele>1912.4530029297</ele>
        <time>2017-11-18T06:56:33Z</time>
      </trkpt>
      <trkpt lat="45.24985" lon="6.02448">
        <ele>1916.4530029297</ele>
        <time>2017-11-18T06:56:39Z</time>
      </trkpt>
      <trkpt lat="45.2498" lon="6.0245">
        <ele>1918.4530029297</ele>
        <time>2017-11-18T06:56:46Z</time>
      </trkpt>
      <trkpt lat="45.24977" lon="6.02454">
        <ele>1917.4530029297</ele>
        <time>2017-11-18T06:56:52Z</time>
      </trkpt>
      <trkpt lat="45.24977" lon="6.02461">
        <ele>1919.4530029297</ele>
        <time>2017-11-18T06:56:59Z</time>
      </trkpt>
      <trkpt lat="45.24979" lon="6.02469">
        <ele>1921.4530029297</ele>
        <time>2017-11-18T06:57:05Z</time>
      </trkpt>
      <trkpt lat="45.24979" lon="6.02475">
        <ele>1922.4530029297</ele>
        <time>2017-11-18T06:57:09Z</time>
      </trkpt>
      <trkpt lat="45.24974" lon="6.02477">
        <ele>1925.4530029297</ele>
        <time>2017-11-18T06:57:21Z</time>
      </trkpt>
      <trkpt lat="45.24969" lon="6.02475">
        <ele>1926.4530029297</ele>
        <time>2017-11-18T06:57:27Z</time>
      </trkpt>
      <trkpt lat="45.24965" lon="6.02473">
        <ele>1926.4530029297</ele>
        <time>2017-11-18T06:57:32Z</time>
      </trkpt>
      <trkpt lat="45.24961" lon="6.02469">
        <ele>1929.4530029297</ele>
        <time>2017-11-18T06:57:38Z</time>
      </trkpt>
      <trkpt lat="45.24957" lon="6.02464">
        <ele>1932.4530029297</ele>
        <time>2017-11-18T06:57:44Z</time>
      </trkpt>
      <trkpt lat="45.24957" lon="6.02472">
        <ele>1935.4530029297</ele>
        <time>2017-11-18T06:57:55Z</time>
      </trkpt>
      <trkpt lat="45.24954" lon="6.02479">
        <ele>1936.4530029297</ele>
        <time>2017-11-18T06:58:02Z</time>
      </trkpt>
      <trkpt lat="45.24953" lon="6.02486">
        <ele>1938.4530029297</ele>
        <time>2017-11-18T06:58:11Z</time>
      </trkpt>
      <trkpt lat="45.24952" lon="6.02492">
        <ele>1940.4530029297</ele>
        <time>2017-11-18T06:58:16Z</time>
      </trkpt>
      <trkpt lat="45.24947" lon="6.0249">
        <ele>1941.4530029297</ele>
        <time>2017-11-18T06:58:25Z</time>
      </trkpt>
      <trkpt lat="45.24942" lon="6.02487">
        <ele>1945.4530029297</ele>
        <time>2017-11-18T06:58:33Z</time>
      </trkpt>
      <trkpt lat="45.24937" lon="6.02485">
        <ele>1945.4530029297</ele>
        <time>2017-11-18T06:58:40Z</time>
      </trkpt>
      <trkpt lat="45.24934" lon="6.02481">
        <ele>1948.4530029297</ele>
        <time>2017-11-18T06:58:45Z</time>
      </trkpt>
      <trkpt lat="45.2493" lon="6.02478">
        <ele>1950.4530029297</ele>
        <time>2017-11-18T06:58:50Z</time>
      </trkpt>
      <trkpt lat="45.24929" lon="6.02485">
        <ele>1951.4530029297</ele>
        <time>2017-11-18T06:58:57Z</time>
      </trkpt>
      <trkpt lat="45.24929" lon="6.02492">
        <ele>1952.4530029297</ele>
        <time>2017-11-18T06:59:02Z</time>
      </trkpt>
      <trkpt lat="45.24928" lon="6.02499">
        <ele>1954.4530029297</ele>
        <time>2017-11-18T06:59:08Z</time>
      </trkpt>
      <trkpt lat="45.24925" lon="6.02504">
        <ele>1955.4530029297</ele>
        <time>2017-11-18T06:59:18Z</time>
      </trkpt>
      <trkpt lat="45.2492" lon="6.02502">
        <ele>1955.4530029297</ele>
        <time>2017-11-18T06:59:24Z</time>
      </trkpt>
      <trkpt lat="45.24916" lon="6.025">
        <ele>1956.4530029297</ele>
        <time>2017-11-18T06:59:35Z</time>
      </trkpt>
      <trkpt lat="45.24911" lon="6.02498">
        <ele>1957.4530029297</ele>
        <time>2017-11-18T06:59:40Z</time>
      </trkpt>
      <trkpt lat="45.24906" lon="6.02495">
        <ele>1959.4530029297</ele>
        <time>2017-11-18T06:59:45Z</time>
      </trkpt>
      <trkpt lat="45.24902" lon="6.02494">
        <ele>1961.4530029297</ele>
        <time>2017-11-18T06:59:51Z</time>
      </trkpt>
      <trkpt lat="45.24897" lon="6.02491">
        <ele>1961.4530029297</ele>
        <time>2017-11-18T07:00:00Z</time>
      </trkpt>
      <trkpt lat="45.24893" lon="6.02489">
        <ele>1962.4530029297</ele>
        <time>2017-11-18T07:00:07Z</time>
      </trkpt>
      <trkpt lat="45.24888" lon="6.02485">
        <ele>1963.4530029297</ele>
        <time>2017-11-18T07:00:12Z</time>
      </trkpt>
      <trkpt lat="45.24884" lon="6.02482">
        <ele>1964.4530029297</ele>
        <time>2017-11-18T07:00:18Z</time>
      </trkpt>
      <trkpt lat="45.24879" lon="6.0248">
        <ele>1966.4530029297</ele>
        <time>2017-11-18T07:00:24Z</time>
      </trkpt>
      <trkpt lat="45.24877" lon="6.02486">
        <ele>1968.4530029297</ele>
        <time>2017-11-18T07:00:33Z</time>
      </trkpt>
      <trkpt lat="45.24875" lon="6.02492">
        <ele>1969.4530029297</ele>
        <time>2017-11-18T07:00:39Z</time>
      </trkpt>
      <trkpt lat="45.2487" lon="6.0249">
        <ele>1972.4530029297</ele>
        <time>2017-11-18T07:00:46Z</time>
      </trkpt>
      <trkpt lat="45.24867" lon="6.02484">
        <ele>1974.4530029297</ele>
        <time>2017-11-18T07:00:58Z</time>
      </trkpt>
      <trkpt lat="45.24863" lon="6.0248">
        <ele>1975.4530029297</ele>
        <time>2017-11-18T07:01:04Z</time>
      </trkpt>
      <trkpt lat="45.24859" lon="6.02476">
        <ele>1976.4530029297</ele>
        <time>2017-11-18T07:01:10Z</time>
      </trkpt>
      <trkpt lat="45.24856" lon="6.0247">
        <ele>1978.4530029297</ele>
        <time>2017-11-18T07:01:17Z</time>
      </trkpt>
      <trkpt lat="45.24855" lon="6.02477">
        <ele>1979.4530029297</ele>
        <time>2017-11-18T07:01:29Z</time>
      </trkpt>
      <trkpt lat="45.24853" lon="6.02483">
        <ele>1981.4530029297</ele>
        <time>2017-11-18T07:01:33Z</time>
      </trkpt>
      <trkpt lat="45.24849" lon="6.02479">
        <ele>1983.4530029297</ele>
        <time>2017-11-18T07:01:47Z</time>
      </trkpt>
      <trkpt lat="45.24845" lon="6.02475">
        <ele>1984.4530029297</ele>
        <time>2017-11-18T07:01:51Z</time>
      </trkpt>
      <trkpt lat="45.24843" lon="6.02469">
        <ele>1989.4530029297</ele>
        <time>2017-11-18T07:02:03Z</time>
      </trkpt>
      <trkpt lat="45.2484" lon="6.02463">
        <ele>1989.4530029297</ele>
        <time>2017-11-18T07:02:09Z</time>
      </trkpt>
      <trkpt lat="45.24838" lon="6.02456">
        <ele>1990.4530029297</ele>
        <time>2017-11-18T07:02:14Z</time>
      </trkpt>
      <trkpt lat="45.24835" lon="6.02463">
        <ele>1993.4530029297</ele>
        <time>2017-11-18T07:02:22Z</time>
      </trkpt>
      <trkpt lat="45.24834" lon="6.0247">
        <ele>1996.4530029297</ele>
        <time>2017-11-18T07:02:30Z</time>
      </trkpt>
      <trkpt lat="45.24828" lon="6.02471">
        <ele>1997.4530029297</ele>
        <time>2017-11-18T07:02:41Z</time>
      </trkpt>
      <trkpt lat="45.24824" lon="6.02465">
        <ele>1998.4530029297</ele>
        <time>2017-11-18T07:02:47Z</time>
      </trkpt>
      <trkpt lat="45.2482" lon="6.02463">
        <ele>1997.4530029297</ele>
        <time>2017-11-18T07:02:51Z</time>
      </trkpt>
      <trkpt lat="45.24817" lon="6.02457">
        <ele>1998.4530029297</ele>
        <time>2017-11-18T07:03:19Z</time>
      </trkpt>
      <trkpt lat="45.24813" lon="6.02453">
        <ele>2000.4530029297</ele>
        <time>2017-11-18T07:03:24Z</time>
      </trkpt>
      <trkpt lat="45.24808" lon="6.02451">
        <ele>2002.4530029297</ele>
        <time>2017-11-18T07:03:31Z</time>
      </trkpt>
      <trkpt lat="45.24804" lon="6.02458">
        <ele>2005.4530029297</ele>
        <time>2017-11-18T07:03:39Z</time>
      </trkpt>
      <trkpt lat="45.248" lon="6.02464">
        <ele>2008.4530029297</ele>
        <time>2017-11-18T07:03:47Z</time>
      </trkpt>
      <trkpt lat="45.24798" lon="6.0247">
        <ele>2011.4530029297</ele>
        <time>2017-11-18T07:03:54Z</time>
      </trkpt>
      <trkpt lat="45.24796" lon="6.02477">
        <ele>2010.4530029297</ele>
        <time>2017-11-18T07:03:59Z</time>
      </trkpt>
      <trkpt lat="45.24792" lon="6.02481">
        <ele>2012.4530029297</ele>
        <time>2017-11-18T07:04:05Z</time>
      </trkpt>
      <trkpt lat="45.24787" lon="6.02486">
        <ele>2012.4530029297</ele>
        <time>2017-11-18T07:04:11Z</time>
      </trkpt>
      <trkpt lat="45.24783" lon="6.02488">
        <ele>2013.4530029297</ele>
        <time>2017-11-18T07:04:18Z</time>
      </trkpt>
      <trkpt lat="45.24779" lon="6.02492">
        <ele>2016.4530029297</ele>
        <time>2017-11-18T07:04:27Z</time>
      </trkpt>
      <trkpt lat="45.24776" lon="6.02497">
        <ele>2017.4530029297</ele>
        <time>2017-11-18T07:04:34Z</time>
      </trkpt>
      <trkpt lat="45.24772" lon="6.02502">
        <ele>2018.4530029297</ele>
        <time>2017-11-18T07:04:40Z</time>
      </trkpt>
      <trkpt lat="45.2477" lon="6.02508">
        <ele>2022.4530029297</ele>
        <time>2017-11-18T07:04:51Z</time>
      </trkpt>
      <trkpt lat="45.24773" lon="6.02514">
        <ele>2023.4530029297</ele>
        <time>2017-11-18T07:04:57Z</time>
      </trkpt>
      <trkpt lat="45.24775" lon="6.0252">
        <ele>2025.4530029297</ele>
        <time>2017-11-18T07:05:03Z</time>
      </trkpt>
      <trkpt lat="45.24779" lon="6.02524">
        <ele>2027.4530029297</ele>
        <time>2017-11-18T07:05:09Z</time>
      </trkpt>
      <trkpt lat="45.24775" lon="6.0253">
        <ele>2028.4530029297</ele>
        <time>2017-11-18T07:05:17Z</time>
      </trkpt>
      <trkpt lat="45.2477" lon="6.02533">
        <ele>2031.4530029297</ele>
        <time>2017-11-18T07:05:23Z</time>
      </trkpt>
      <trkpt lat="45.24766" lon="6.02536">
        <ele>2034.4530029297</ele>
        <time>2017-11-18T07:05:28Z</time>
      </trkpt>
      <trkpt lat="45.24768" lon="6.02543">
        <ele>2035.4530029297</ele>
        <time>2017-11-18T07:05:38Z</time>
      </trkpt>
      <trkpt lat="45.24773" lon="6.02546">
        <ele>2037.4530029297</ele>
        <time>2017-11-18T07:05:44Z</time>
      </trkpt>
      <trkpt lat="45.24778" lon="6.0255">
        <ele>2038.4530029297</ele>
        <time>2017-11-18T07:05:51Z</time>
      </trkpt>
      <trkpt lat="45.24776" lon="6.02556">
        <ele>2041.4530029297</ele>
        <time>2017-11-18T07:06:05Z</time>
      </trkpt>
      <trkpt lat="45.24772" lon="6.0256">
        <ele>2043.4530029297</ele>
        <time>2017-11-18T07:06:12Z</time>
      </trkpt>
      <trkpt lat="45.24768" lon="6.02564">
        <ele>2043.4530029297</ele>
        <time>2017-11-18T07:06:21Z</time>
      </trkpt>
      <trkpt lat="45.24771" lon="6.0257">
        <ele>2040.4530029297</ele>
        <time>2017-11-18T07:06:35Z</time>
      </trkpt>
      <trkpt lat="45.24774" lon="6.02574">
        <ele>2041.4530029297</ele>
        <time>2017-11-18T07:06:42Z</time>
      </trkpt>
      <trkpt lat="45.24778" lon="6.02579">
        <ele>2042.4530029297</ele>
        <time>2017-11-18T07:06:48Z</time>
      </trkpt>
      <trkpt lat="45.2478" lon="6.02586">
        <ele>2042.4530029297</ele>
        <time>2017-11-18T07:06:57Z</time>
      </trkpt>
      <trkpt lat="45.24781" lon="6.02593">
        <ele>2043.4530029297</ele>
        <time>2017-11-18T07:07:03Z</time>
      </trkpt>
      <trkpt lat="45.24779" lon="6.026">
        <ele>2044.4530029297</ele>
        <time>2017-11-18T07:07:16Z</time>
      </trkpt>
      <trkpt lat="45.24777" lon="6.02607">
        <ele>2048.4528808594</ele>
        <time>2017-11-18T07:07:30Z</time>
      </trkpt>
      <trkpt lat="45.24774" lon="6.02611">
        <ele>2048.4528808594</ele>
        <time>2017-11-18T07:07:37Z</time>
      </trkpt>
      <trkpt lat="45.24769" lon="6.02616">
        <ele>2048.4528808594</ele>
        <time>2017-11-18T07:07:41Z</time>
      </trkpt>
      <trkpt lat="45.24764" lon="6.02621">
        <ele>2053.4528808594</ele>
        <time>2017-11-18T07:07:47Z</time>
      </trkpt>
      <trkpt lat="45.24766" lon="6.02628">
        <ele>2059.4528808594</ele>
        <time>2017-11-18T07:07:59Z</time>
      </trkpt>
      <trkpt lat="45.24764" lon="6.02634">
        <ele>2060.4528808594</ele>
        <time>2017-11-18T07:08:10Z</time>
      </trkpt>
      <trkpt lat="45.24762" lon="6.0264">
        <ele>2061.4528808594</ele>
        <time>2017-11-18T07:08:18Z</time>
      </trkpt>
      <trkpt lat="45.24757" lon="6.02646">
        <ele>2060.4528808594</ele>
        <time>2017-11-18T07:08:24Z</time>
      </trkpt>
      <trkpt lat="45.24756" lon="6.02653">
        <ele>2061.4528808594</ele>
        <time>2017-11-18T07:08:28Z</time>
      </trkpt>
      <trkpt lat="45.24752" lon="6.0266">
        <ele>2061.4528808594</ele>
        <time>2017-11-18T07:08:32Z</time>
      </trkpt>
      <trkpt lat="45.24755" lon="6.02667">
        <ele>2065.4528808594</ele>
        <time>2017-11-18T07:08:38Z</time>
      </trkpt>
      <trkpt lat="45.24755" lon="6.02675">
        <ele>2064.4528808594</ele>
        <time>2017-11-18T07:08:47Z</time>
      </trkpt>
      <trkpt lat="45.24756" lon="6.02682">
        <ele>2062.4528808594</ele>
        <time>2017-11-18T07:08:51Z</time>
      </trkpt>
      <trkpt lat="45.24761" lon="6.02688">
        <ele>2062.4528808594</ele>
        <time>2017-11-18T07:08:56Z</time>
      </trkpt>
      <trkpt lat="45.24763" lon="6.02694">
        <ele>2065.4528808594</ele>
        <time>2017-11-18T07:09:02Z</time>
      </trkpt>
      <trkpt lat="45.24762" lon="6.02701">
        <ele>2068.4528808594</ele>
        <time>2017-11-18T07:09:08Z</time>
      </trkpt>
      <trkpt lat="45.24763" lon="6.02708">
        <ele>2068.4528808594</ele>
        <time>2017-11-18T07:09:14Z</time>
      </trkpt>
      <trkpt lat="45.24763" lon="6.02715">
        <ele>2070.4528808594</ele>
        <time>2017-11-18T07:09:22Z</time>
      </trkpt>
      <trkpt lat="45.24764" lon="6.02721">
        <ele>2073.4528808594</ele>
        <time>2017-11-18T07:09:28Z</time>
      </trkpt>
      <trkpt lat="45.24765" lon="6.02728">
        <ele>2075.4528808594</ele>
        <time>2017-11-18T07:09:36Z</time>
      </trkpt>
      <trkpt lat="45.24763" lon="6.02735">
        <ele>2073.4528808594</ele>
        <time>2017-11-18T07:09:43Z</time>
      </trkpt>
      <trkpt lat="45.24764" lon="6.02741">
        <ele>2073.4528808594</ele>
        <time>2017-11-18T07:09:52Z</time>
      </trkpt>
      <trkpt lat="45.24765" lon="6.02749">
        <ele>2073.4528808594</ele>
        <time>2017-11-18T07:09:58Z</time>
      </trkpt>
      <trkpt lat="45.24766" lon="6.02755">
        <ele>2079.4528808594</ele>
        <time>2017-11-18T07:10:02Z</time>
      </trkpt>
      <trkpt lat="45.24768" lon="6.02761">
        <ele>2080.4528808594</ele>
        <time>2017-11-18T07:10:12Z</time>
      </trkpt>
      <trkpt lat="45.24766" lon="6.02769">
        <ele>2081.4528808594</ele>
        <time>2017-11-18T07:10:19Z</time>
      </trkpt>
      <trkpt lat="45.24766" lon="6.02776">
        <ele>2081.4528808594</ele>
        <time>2017-11-18T07:10:29Z</time>
      </trkpt>
      <trkpt lat="45.2477" lon="6.0278">
        <ele>2084.4528808594</ele>
        <time>2017-11-18T07:10:37Z</time>
      </trkpt>
      <trkpt lat="45.24774" lon="6.02784">
        <ele>2089.4528808594</ele>
        <time>2017-11-18T07:10:48Z</time>
      </trkpt>
      <trkpt lat="45.24778" lon="6.02787">
        <ele>2088.4528808594</ele>
        <time>2017-11-18T07:10:53Z</time>
      </trkpt>
      <trkpt lat="45.24776" lon="6.02793">
        <ele>2087.4528808594</ele>
        <time>2017-11-18T07:10:59Z</time>
      </trkpt>
      <trkpt lat="45.24779" lon="6.02799">
        <ele>2092.4528808594</ele>
        <time>2017-11-18T07:11:03Z</time>
      </trkpt>
      <trkpt lat="45.24778" lon="6.02807">
        <ele>2093.4528808594</ele>
        <time>2017-11-18T07:11:17Z</time>
      </trkpt>
      <trkpt lat="45.24782" lon="6.02812">
        <ele>2101.4528808594</ele>
        <time>2017-11-18T07:11:29Z</time>
      </trkpt>
      <trkpt lat="45.24778" lon="6.02818">
        <ele>2102.4528808594</ele>
        <time>2017-11-18T07:11:36Z</time>
      </trkpt>
      <trkpt lat="45.24773" lon="6.02824">
        <ele>2106.4528808594</ele>
        <time>2017-11-18T07:11:52Z</time>
      </trkpt>
      <trkpt lat="45.24774" lon="6.0283">
        <ele>2117.4528808594</ele>
        <time>2017-11-18T07:12:22Z</time>
      </trkpt>
      <trkpt lat="45.24773" lon="6.02837">
        <ele>2116.4528808594</ele>
        <time>2017-11-18T07:12:34Z</time>
      </trkpt>
      <trkpt lat="45.24774" lon="6.02843">
        <ele>2115.4528808594</ele>
        <time>2017-11-18T07:12:40Z</time>
      </trkpt>
      <trkpt lat="45.24777" lon="6.02847">
        <ele>2114.4528808594</ele>
        <time>2017-11-18T07:12:48Z</time>
      </trkpt>
      <trkpt lat="45.24779" lon="6.02853">
        <ele>2115.4528808594</ele>
        <time>2017-11-18T07:12:53Z</time>
      </trkpt>
      <trkpt lat="45.24781" lon="6.02859">
        <ele>2119.4528808594</ele>
        <time>2017-11-18T07:12:57Z</time>
      </trkpt>
      <trkpt lat="45.24784" lon="6.02865">
        <ele>2123.4541015625</ele>
        <time>2017-11-18T07:13:04Z</time>
      </trkpt>
      <trkpt lat="45.24783" lon="6.02873">
        <ele>2125.4541015625</ele>
        <time>2017-11-18T07:13:10Z</time>
      </trkpt>
      <trkpt lat="45.24784" lon="6.0288">
        <ele>2127.4541015625</ele>
        <time>2017-11-18T07:13:16Z</time>
      </trkpt>
      <trkpt lat="45.2478" lon="6.02883">
        <ele>2131.4541015625</ele>
        <time>2017-11-18T07:13:40Z</time>
      </trkpt>
      <trkpt lat="45.24775" lon="6.02882">
        <ele>2133.4541015625</ele>
        <time>2017-11-18T07:13:56Z</time>
      </trkpt>
      <trkpt lat="45.24771" lon="6.0288">
        <ele>2134.4541015625</ele>
        <time>2017-11-18T07:14:03Z</time>
      </trkpt>
      <trkpt lat="45.24774" lon="6.02884">
        <ele>2141.4541015625</ele>
        <time>2017-11-18T07:16:37Z</time>
      </trkpt>
      <trkpt lat="45.24776" lon="6.0289">
        <ele>2141.4541015625</ele>
        <time>2017-11-18T07:16:46Z</time>
      </trkpt>
      <trkpt lat="45.24771" lon="6.02892">
        <ele>2143.4541015625</ele>
        <time>2017-11-18T07:17:20Z</time>
      </trkpt>
      <trkpt lat="45.24766" lon="6.02891">
        <ele>2145.4541015625</ele>
        <time>2017-11-18T07:17:25Z</time>
      </trkpt>
      <trkpt lat="45.24762" lon="6.02887">
        <ele>2147.4541015625</ele>
        <time>2017-11-18T07:17:30Z</time>
      </trkpt>
      <trkpt lat="45.24757" lon="6.02888">
        <ele>2143.4528808594</ele>
        <time>2017-11-18T07:17:34Z</time>
      </trkpt>
      <trkpt lat="45.24753" lon="6.02888">
        <ele>2145.4528808594</ele>
        <time>2017-11-18T07:17:39Z</time>
      </trkpt>
      <trkpt lat="45.2475" lon="6.02882">
        <ele>2148.4528808594</ele>
        <time>2017-11-18T07:17:43Z</time>
      </trkpt>
      <trkpt lat="45.24744" lon="6.02882">
        <ele>2147.4528808594</ele>
        <time>2017-11-18T07:17:46Z</time>
      </trkpt>
      <trkpt lat="45.24741" lon="6.02886">
        <ele>2143.4528808594</ele>
        <time>2017-11-18T07:17:52Z</time>
      </trkpt>
      <trkpt lat="45.24737" lon="6.02883">
        <ele>2148.4528808594</ele>
        <time>2017-11-18T07:17:58Z</time>
      </trkpt>
      <trkpt lat="45.2473" lon="6.02881">
        <ele>2151.4528808594</ele>
        <time>2017-11-18T07:18:05Z</time>
      </trkpt>
      <trkpt lat="45.24726" lon="6.02879">
        <ele>2151.4528808594</ele>
        <time>2017-11-18T07:18:08Z</time>
      </trkpt>
      <trkpt lat="45.24721" lon="6.02876">
        <ele>2148.4528808594</ele>
        <time>2017-11-18T07:18:11Z</time>
      </trkpt>
      <trkpt lat="45.24716" lon="6.02871">
        <ele>2154.4528808594</ele>
        <time>2017-11-18T07:18:18Z</time>
      </trkpt>
      <trkpt lat="45.24711" lon="6.02867">
        <ele>2156.4528808594</ele>
        <time>2017-11-18T07:18:24Z</time>
      </trkpt>
      <trkpt lat="45.24707" lon="6.02863">
        <ele>2157.4528808594</ele>
        <time>2017-11-18T07:18:28Z</time>
      </trkpt>
      <trkpt lat="45.24702" lon="6.02859">
        <ele>2156.4528808594</ele>
        <time>2017-11-18T07:18:30Z</time>
      </trkpt>
      <trkpt lat="45.24697" lon="6.02855">
        <ele>2153.4528808594</ele>
        <time>2017-11-18T07:18:33Z</time>
      </trkpt>
      <trkpt lat="45.24694" lon="6.02849">
        <ele>2154.4528808594</ele>
        <time>2017-11-18T07:18:36Z</time>
      </trkpt>
      <trkpt lat="45.24691" lon="6.02844">
        <ele>2154.4528808594</ele>
        <time>2017-11-18T07:18:39Z</time>
      </trkpt>
      <trkpt lat="45.24687" lon="6.0284">
        <ele>2153.4528808594</ele>
        <time>2017-11-18T07:18:42Z</time>
      </trkpt>
      <trkpt lat="45.24682" lon="6.02836">
        <ele>2152.4528808594</ele>
        <time>2017-11-18T07:18:46Z</time>
      </trkpt>
      <trkpt lat="45.2468" lon="6.0283">
        <ele>2153.4528808594</ele>
        <time>2017-11-18T07:18:49Z</time>
      </trkpt>
      <trkpt lat="45.24677" lon="6.02825">
        <ele>2152.4528808594</ele>
        <time>2017-11-18T07:18:53Z</time>
      </trkpt>
      <trkpt lat="45.24674" lon="6.02819">
        <ele>2151.4528808594</ele>
        <time>2017-11-18T07:18:57Z</time>
      </trkpt>
      <trkpt lat="45.2467" lon="6.02815">
        <ele>2150.4528808594</ele>
        <time>2017-11-18T07:19:00Z</time>
      </trkpt>
      <trkpt lat="45.24669" lon="6.02809">
        <ele>2153.4528808594</ele>
        <time>2017-11-18T07:19:03Z</time>
      </trkpt>
      <trkpt lat="45.24667" lon="6.02803">
        <ele>2154.4528808594</ele>
        <time>2017-11-18T07:19:06Z</time>
      </trkpt>
      <trkpt lat="45.24665" lon="6.02796">
        <ele>2156.4528808594</ele>
        <time>2017-11-18T07:19:09Z</time>
      </trkpt>
      <trkpt lat="45.24663" lon="6.02791">
        <ele>2156.4528808594</ele>
        <time>2017-11-18T07:19:12Z</time>
      </trkpt>
      <trkpt lat="45.24661" lon="6.02783">
        <ele>2158.4528808594</ele>
        <time>2017-11-18T07:19:16Z</time>
      </trkpt>
      <trkpt lat="45.24659" lon="6.02775">
        <ele>2160.4528808594</ele>
        <time>2017-11-18T07:19:20Z</time>
      </trkpt>
      <trkpt lat="45.24655" lon="6.02769">
        <ele>2159.4528808594</ele>
        <time>2017-11-18T07:19:23Z</time>
      </trkpt>
      <trkpt lat="45.24652" lon="6.02764">
        <ele>2160.4528808594</ele>
        <time>2017-11-18T07:19:27Z</time>
      </trkpt>
      <trkpt lat="45.24648" lon="6.02759">
        <ele>2160.4528808594</ele>
        <time>2017-11-18T07:19:31Z</time>
      </trkpt>
      <trkpt lat="45.24644" lon="6.02753">
        <ele>2160.4528808594</ele>
        <time>2017-11-18T07:19:35Z</time>
      </trkpt>
      <trkpt lat="45.2464" lon="6.02749">
        <ele>2160.4528808594</ele>
        <time>2017-11-18T07:19:40Z</time>
      </trkpt>
      <trkpt lat="45.24635" lon="6.02746">
        <ele>2161.4528808594</ele>
        <time>2017-11-18T07:19:45Z</time>
      </trkpt>
      <trkpt lat="45.2463" lon="6.02744">
        <ele>2161.4528808594</ele>
        <time>2017-11-18T07:19:49Z</time>
      </trkpt>
      <trkpt lat="45.24626" lon="6.02742">
        <ele>2163.4528808594</ele>
        <time>2017-11-18T07:19:53Z</time>
      </trkpt>
      <trkpt lat="45.2462" lon="6.02741">
        <ele>2161.4528808594</ele>
        <time>2017-11-18T07:19:58Z</time>
      </trkpt>
      <trkpt lat="45.24616" lon="6.02741">
        <ele>2160.4528808594</ele>
        <time>2017-11-18T07:20:04Z</time>
      </trkpt>
      <trkpt lat="45.2461" lon="6.02742">
        <ele>2160.4528808594</ele>
        <time>2017-11-18T07:20:08Z</time>
      </trkpt>
      <trkpt lat="45.24605" lon="6.02742">
        <ele>2161.4528808594</ele>
        <time>2017-11-18T07:20:12Z</time>
      </trkpt>
      <trkpt lat="45.24599" lon="6.02741">
        <ele>2162.4528808594</ele>
        <time>2017-11-18T07:20:17Z</time>
      </trkpt>
      <trkpt lat="45.24594" lon="6.02741">
        <ele>2165.4528808594</ele>
        <time>2017-11-18T07:20:21Z</time>
      </trkpt>
      <trkpt lat="45.24588" lon="6.02741">
        <ele>2167.4528808594</ele>
        <time>2017-11-18T07:20:27Z</time>
      </trkpt>
      <trkpt lat="45.24584" lon="6.02744">
        <ele>2166.4528808594</ele>
        <time>2017-11-18T07:20:32Z</time>
      </trkpt>
      <trkpt lat="45.24578" lon="6.02746">
        <ele>2168.4528808594</ele>
        <time>2017-11-18T07:20:37Z</time>
      </trkpt>
      <trkpt lat="45.24575" lon="6.02751">
        <ele>2169.4528808594</ele>
        <time>2017-11-18T07:20:45Z</time>
      </trkpt>
      <trkpt lat="45.2457" lon="6.02755">
        <ele>2174.4528808594</ele>
        <time>2017-11-18T07:20:50Z</time>
      </trkpt>
      <trkpt lat="45.24567" lon="6.0276">
        <ele>2177.4528808594</ele>
        <time>2017-11-18T07:20:58Z</time>
      </trkpt>
      <trkpt lat="45.24563" lon="6.02756">
        <ele>2181.4528808594</ele>
        <time>2017-11-18T07:21:03Z</time>
      </trkpt>
      <trkpt lat="45.24559" lon="6.02762">
        <ele>2180.4528808594</ele>
        <time>2017-11-18T07:21:10Z</time>
      </trkpt>
      <trkpt lat="45.24558" lon="6.02768">
        <ele>2181.4528808594</ele>
        <time>2017-11-18T07:21:16Z</time>
      </trkpt>
      <trkpt lat="45.24555" lon="6.02776">
        <ele>2183.4528808594</ele>
        <time>2017-11-18T07:21:32Z</time>
      </trkpt>
      <trkpt lat="45.24554" lon="6.02783">
        <ele>2188.4528808594</ele>
        <time>2017-11-18T07:21:38Z</time>
      </trkpt>
      <trkpt lat="45.24549" lon="6.02785">
        <ele>2189.4528808594</ele>
        <time>2017-11-18T07:21:44Z</time>
      </trkpt>
      <trkpt lat="45.24544" lon="6.02786">
        <ele>2188.4528808594</ele>
        <time>2017-11-18T07:21:51Z</time>
      </trkpt>
      <trkpt lat="45.24541" lon="6.02793">
        <ele>2190.4528808594</ele>
        <time>2017-11-18T07:21:58Z</time>
      </trkpt>
      <trkpt lat="45.24539" lon="6.028">
        <ele>2187.4528808594</ele>
        <time>2017-11-18T07:22:08Z</time>
      </trkpt>
      <trkpt lat="45.2454" lon="6.02807">
        <ele>2193.4528808594</ele>
        <time>2017-11-18T07:22:18Z</time>
      </trkpt>
      <trkpt lat="45.24541" lon="6.02814">
        <ele>2192.4528808594</ele>
        <time>2017-11-18T07:22:23Z</time>
      </trkpt>
      <trkpt lat="45.24542" lon="6.0282">
        <ele>2191.4528808594</ele>
        <time>2017-11-18T07:22:27Z</time>
      </trkpt>
      <trkpt lat="45.24543" lon="6.02828">
        <ele>2187.4528808594</ele>
        <time>2017-11-18T07:22:31Z</time>
      </trkpt>
      <trkpt lat="45.24546" lon="6.02832">
        <ele>2195.4528808594</ele>
        <time>2017-11-18T07:22:41Z</time>
      </trkpt>
      <trkpt lat="45.2455" lon="6.02837">
        <ele>2194.4528808594</ele>
        <time>2017-11-18T07:22:45Z</time>
      </trkpt>
      <trkpt lat="45.24545" lon="6.02842">
        <ele>2198.4528808594</ele>
        <time>2017-11-18T07:22:55Z</time>
      </trkpt>
      <trkpt lat="45.24541" lon="6.02844">
        <ele>2203.4528808594</ele>
        <time>2017-11-18T07:23:12Z</time>
      </trkpt>
      <trkpt lat="45.24537" lon="6.0285">
        <ele>2202.4528808594</ele>
        <time>2017-11-18T07:23:22Z</time>
      </trkpt>
      <trkpt lat="45.24532" lon="6.02851">
        <ele>2207.4528808594</ele>
        <time>2017-11-18T07:23:28Z</time>
      </trkpt>
      <trkpt lat="45.24534" lon="6.02858">
        <ele>2207.4528808594</ele>
        <time>2017-11-18T07:23:41Z</time>
      </trkpt>
      <trkpt lat="45.24539" lon="6.02859">
        <ele>2207.4528808594</ele>
        <time>2017-11-18T07:23:45Z</time>
      </trkpt>
      <trkpt lat="45.24543" lon="6.02864">
        <ele>2211.4528808594</ele>
        <time>2017-11-18T07:23:51Z</time>
      </trkpt>
      <trkpt lat="45.24545" lon="6.0287">
        <ele>2213.4528808594</ele>
        <time>2017-11-18T07:24:00Z</time>
      </trkpt>
      <trkpt lat="45.24541" lon="6.02873">
        <ele>2221.4528808594</ele>
        <time>2017-11-18T07:24:09Z</time>
      </trkpt>
      <trkpt lat="45.24537" lon="6.02878">
        <ele>2221.4528808594</ele>
        <time>2017-11-18T07:24:16Z</time>
      </trkpt>
      <trkpt lat="45.24538" lon="6.02884">
        <ele>2220.4528808594</ele>
        <time>2017-11-18T07:24:23Z</time>
      </trkpt>
      <trkpt lat="45.2454" lon="6.02891">
        <ele>2224.4528808594</ele>
        <time>2017-11-18T07:24:35Z</time>
      </trkpt>
      <trkpt lat="45.24539" lon="6.02897">
        <ele>2229.4528808594</ele>
        <time>2017-11-18T07:24:50Z</time>
      </trkpt>
      <trkpt lat="45.24536" lon="6.02904">
        <ele>2226.4528808594</ele>
        <time>2017-11-18T07:24:57Z</time>
      </trkpt>
      <trkpt lat="45.24532" lon="6.02908">
        <ele>2229.4528808594</ele>
        <time>2017-11-18T07:25:06Z</time>
      </trkpt>
      <trkpt lat="45.24528" lon="6.02912">
        <ele>2230.4528808594</ele>
        <time>2017-11-18T07:25:12Z</time>
      </trkpt>
      <trkpt lat="45.24523" lon="6.02915">
        <ele>2236.4528808594</ele>
        <time>2017-11-18T07:25:23Z</time>
      </trkpt>
      <trkpt lat="45.24518" lon="6.02915">
        <ele>2238.4528808594</ele>
        <time>2017-11-18T07:25:32Z</time>
      </trkpt>
      <trkpt lat="45.24513" lon="6.02914">
        <ele>2235.4528808594</ele>
        <time>2017-11-18T07:25:37Z</time>
      </trkpt>
      <trkpt lat="45.24514" lon="6.02921">
        <ele>2243.4528808594</ele>
        <time>2017-11-18T07:25:58Z</time>
      </trkpt>
      <trkpt lat="45.24514" lon="6.02928">
        <ele>2244.4528808594</ele>
        <time>2017-11-18T07:26:03Z</time>
      </trkpt>
      <trkpt lat="45.24515" lon="6.02935">
        <ele>2244.4528808594</ele>
        <time>2017-11-18T07:26:15Z</time>
      </trkpt>
      <trkpt lat="45.24515" lon="6.02942">
        <ele>2242.4528808594</ele>
        <time>2017-11-18T07:26:21Z</time>
      </trkpt>
      <trkpt lat="45.24516" lon="6.02949">
        <ele>2241.4528808594</ele>
        <time>2017-11-18T07:26:26Z</time>
      </trkpt>
      <trkpt lat="45.24518" lon="6.02956">
        <ele>2242.4528808594</ele>
        <time>2017-11-18T07:26:32Z</time>
      </trkpt>
      <trkpt lat="45.24518" lon="6.02962">
        <ele>2244.4528808594</ele>
        <time>2017-11-18T07:26:38Z</time>
      </trkpt>
      <trkpt lat="45.2452" lon="6.0297">
        <ele>2246.4528808594</ele>
        <time>2017-11-18T07:26:44Z</time>
      </trkpt>
      <trkpt lat="45.24522" lon="6.02976">
        <ele>2250.4528808594</ele>
        <time>2017-11-18T07:26:53Z</time>
      </trkpt>
      <trkpt lat="45.24522" lon="6.02983">
        <ele>2252.4528808594</ele>
        <time>2017-11-18T07:27:02Z</time>
      </trkpt>
      <trkpt lat="45.24517" lon="6.02984">
        <ele>2255.4528808594</ele>
        <time>2017-11-18T07:27:10Z</time>
      </trkpt>
      <trkpt lat="45.24513" lon="6.02987">
        <ele>2255.4528808594</ele>
        <time>2017-11-18T07:27:18Z</time>
      </trkpt>
      <trkpt lat="45.2451" lon="6.02992">
        <ele>2256.4528808594</ele>
        <time>2017-11-18T07:27:28Z</time>
      </trkpt>
      <trkpt lat="45.24506" lon="6.02995">
        <ele>2260.4528808594</ele>
        <time>2017-11-18T07:27:35Z</time>
      </trkpt>
      <trkpt lat="45.24501" lon="6.02999">
        <ele>2260.4528808594</ele>
        <time>2017-11-18T07:27:42Z</time>
      </trkpt>
      <trkpt lat="45.24497" lon="6.03002">
        <ele>2264.4528808594</ele>
        <time>2017-11-18T07:27:49Z</time>
      </trkpt>
      <trkpt lat="45.24492" lon="6.03004">
        <ele>2266.4528808594</ele>
        <time>2017-11-18T07:27:54Z</time>
      </trkpt>
      <trkpt lat="45.24487" lon="6.03002">
        <ele>2269.4528808594</ele>
        <time>2017-11-18T07:28:00Z</time>
      </trkpt>
      <trkpt lat="45.24483" lon="6.03">
        <ele>2271.4528808594</ele>
        <time>2017-11-18T07:28:05Z</time>
      </trkpt>
      <trkpt lat="45.24478" lon="6.02998">
        <ele>2271.4528808594</ele>
        <time>2017-11-18T07:28:10Z</time>
      </trkpt>
      <trkpt lat="45.24474" lon="6.02995">
        <ele>2272.4528808594</ele>
        <time>2017-11-18T07:28:16Z</time>
      </trkpt>
      <trkpt lat="45.2447" lon="6.0299">
        <ele>2274.4528808594</ele>
        <time>2017-11-18T07:28:22Z</time>
      </trkpt>
      <trkpt lat="45.24468" lon="6.02983">
        <ele>2274.4528808594</ele>
        <time>2017-11-18T07:28:28Z</time>
      </trkpt>
      <trkpt lat="45.24464" lon="6.02979">
        <ele>2275.4528808594</ele>
        <time>2017-11-18T07:28:34Z</time>
      </trkpt>
      <trkpt lat="45.2446" lon="6.02974">
        <ele>2274.4528808594</ele>
        <time>2017-11-18T07:28:40Z</time>
      </trkpt>
      <trkpt lat="45.24456" lon="6.0297">
        <ele>2276.4528808594</ele>
        <time>2017-11-18T07:28:47Z</time>
      </trkpt>
      <trkpt lat="45.24451" lon="6.02967">
        <ele>2278.4528808594</ele>
        <time>2017-11-18T07:28:52Z</time>
      </trkpt>
      <trkpt lat="45.24446" lon="6.02967">
        <ele>2278.4528808594</ele>
        <time>2017-11-18T07:28:58Z</time>
      </trkpt>
      <trkpt lat="45.24442" lon="6.02969">
        <ele>2278.4528808594</ele>
        <time>2017-11-18T07:29:03Z</time>
      </trkpt>
      <trkpt lat="45.24437" lon="6.02972">
        <ele>2280.4528808594</ele>
        <time>2017-11-18T07:29:09Z</time>
      </trkpt>
      <trkpt lat="45.24433" lon="6.02975">
        <ele>2282.4528808594</ele>
        <time>2017-11-18T07:29:14Z</time>
      </trkpt>
      <trkpt lat="45.2443" lon="6.02978">
        <ele>2284.4528808594</ele>
        <time>2017-11-18T07:29:21Z</time>
      </trkpt>
      <trkpt lat="45.24425" lon="6.02981">
        <ele>2287.4528808594</ele>
        <time>2017-11-18T07:29:27Z</time>
      </trkpt>
      <trkpt lat="45.24421" lon="6.02985">
        <ele>2284.4528808594</ele>
        <time>2017-11-18T07:29:34Z</time>
      </trkpt>
      <trkpt lat="45.24417" lon="6.02987">
        <ele>2286.4528808594</ele>
        <time>2017-11-18T07:29:39Z</time>
      </trkpt>
      <trkpt lat="45.24413" lon="6.02991">
        <ele>2289.4528808594</ele>
        <time>2017-11-18T07:29:46Z</time>
      </trkpt>
      <trkpt lat="45.24415" lon="6.02996">
        <ele>2290.4528808594</ele>
        <time>2017-11-18T07:29:52Z</time>
      </trkpt>
      <trkpt lat="45.24418" lon="6.03002">
        <ele>2291.4528808594</ele>
        <time>2017-11-18T07:29:58Z</time>
      </trkpt>
      <trkpt lat="45.24419" lon="6.03009">
        <ele>2290.4528808594</ele>
        <time>2017-11-18T07:30:06Z</time>
      </trkpt>
      <trkpt lat="45.24416" lon="6.03013">
        <ele>2292.4528808594</ele>
        <time>2017-11-18T07:30:12Z</time>
      </trkpt>
      <trkpt lat="45.24411" lon="6.03016">
        <ele>2295.4528808594</ele>
        <time>2017-11-18T07:30:19Z</time>
      </trkpt>
      <trkpt lat="45.24406" lon="6.0302">
        <ele>2298.4528808594</ele>
        <time>2017-11-18T07:30:26Z</time>
      </trkpt>
      <trkpt lat="45.24402" lon="6.03022">
        <ele>2303.4528808594</ele>
        <time>2017-11-18T07:30:38Z</time>
      </trkpt>
      <trkpt lat="45.24405" lon="6.03028">
        <ele>2304.4528808594</ele>
        <time>2017-11-18T07:30:47Z</time>
      </trkpt>
      <trkpt lat="45.24408" lon="6.03034">
        <ele>2304.4528808594</ele>
        <time>2017-11-18T07:30:53Z</time>
      </trkpt>
      <trkpt lat="45.24411" lon="6.03039">
        <ele>2305.4528808594</ele>
        <time>2017-11-18T07:31:00Z</time>
      </trkpt>
      <trkpt lat="45.24413" lon="6.03045">
        <ele>2304.4528808594</ele>
        <time>2017-11-18T07:31:09Z</time>
      </trkpt>
      <trkpt lat="45.24412" lon="6.03051">
        <ele>2311.4528808594</ele>
        <time>2017-11-18T07:31:26Z</time>
      </trkpt>
      <trkpt lat="45.24414" lon="6.03058">
        <ele>2315.4528808594</ele>
        <time>2017-11-18T07:31:43Z</time>
      </trkpt>
      <trkpt lat="45.24417" lon="6.03063">
        <ele>2317.4528808594</ele>
        <time>2017-11-18T07:31:50Z</time>
      </trkpt>
      <trkpt lat="45.24415" lon="6.0307">
        <ele>2317.4528808594</ele>
        <time>2017-11-18T07:32:01Z</time>
      </trkpt>
      <trkpt lat="45.24411" lon="6.0307">
        <ele>2319.4528808594</ele>
        <time>2017-11-18T07:32:08Z</time>
      </trkpt>
      <trkpt lat="45.24413" lon="6.03076">
        <ele>2322.4528808594</ele>
        <time>2017-11-18T07:32:19Z</time>
      </trkpt>
      <trkpt lat="45.24416" lon="6.03082">
        <ele>2324.4528808594</ele>
        <time>2017-11-18T07:32:31Z</time>
      </trkpt>
      <trkpt lat="45.24413" lon="6.03087">
        <ele>2324.4528808594</ele>
        <time>2017-11-18T07:32:42Z</time>
      </trkpt>
      <trkpt lat="45.24408" lon="6.0309">
        <ele>2328.4528808594</ele>
        <time>2017-11-18T07:33:05Z</time>
      </trkpt>
      <trkpt lat="45.24404" lon="6.03092">
        <ele>2330.4528808594</ele>
        <time>2017-11-18T07:33:14Z</time>
      </trkpt>
      <trkpt lat="45.24407" lon="6.03096">
        <ele>2334.4528808594</ele>
        <time>2017-11-18T07:33:23Z</time>
      </trkpt>
      <trkpt lat="45.24411" lon="6.031">
        <ele>2337.4528808594</ele>
        <time>2017-11-18T07:33:35Z</time>
      </trkpt>
      <trkpt lat="45.24414" lon="6.03106">
        <ele>2337.4528808594</ele>
        <time>2017-11-18T07:33:44Z</time>
      </trkpt>
      <trkpt lat="45.24412" lon="6.03113">
        <ele>2334.4528808594</ele>
        <time>2017-11-18T07:33:56Z</time>
      </trkpt>
      <trkpt lat="45.24409" lon="6.03119">
        <ele>2337.4528808594</ele>
        <time>2017-11-18T07:34:07Z</time>
      </trkpt>
      <trkpt lat="45.24406" lon="6.03123">
        <ele>2003.4530029297</ele>
        <time>2017-11-18T07:34:14Z</time>
      </trkpt>
      <trkpt lat="45.24404" lon="6.0313">
        <ele>2278.4528808594</ele>
        <time>2017-11-18T07:34:20Z</time>
      </trkpt>
      <trkpt lat="45.24406" lon="6.03136">
        <ele>2324.4528808594</ele>
        <time>2017-11-18T07:34:31Z</time>
      </trkpt>
      <trkpt lat="45.2441" lon="6.03141">
        <ele>2329.4528808594</ele>
        <time>2017-11-18T07:34:37Z</time>
      </trkpt>
      <trkpt lat="45.24411" lon="6.03148">
        <ele>2336.4528808594</ele>
        <time>2017-11-18T07:34:45Z</time>
      </trkpt>
      <trkpt lat="45.24412" lon="6.03154">
        <ele>2338.4528808594</ele>
        <time>2017-11-18T07:34:51Z</time>
      </trkpt>
      <trkpt lat="45.24412" lon="6.03162">
        <ele>2341.4528808594</ele>
        <time>2017-11-18T07:34:58Z</time>
      </trkpt>
      <trkpt lat="45.24414" lon="6.03168">
        <ele>2346.4528808594</ele>
        <time>2017-11-18T07:35:03Z</time>
      </trkpt>
      <trkpt lat="45.24414" lon="6.03174">
        <ele>2346.4528808594</ele>
        <time>2017-11-18T07:35:09Z</time>
      </trkpt>
      <trkpt lat="45.24416" lon="6.03182">
        <ele>2347.4528808594</ele>
        <time>2017-11-18T07:35:18Z</time>
      </trkpt>
      <trkpt lat="45.24421" lon="6.03187">
        <ele>2345.4528808594</ele>
        <time>2017-11-18T07:35:26Z</time>
      </trkpt>
      <trkpt lat="45.24424" lon="6.03193">
        <ele>2345.4528808594</ele>
        <time>2017-11-18T07:35:36Z</time>
      </trkpt>
      <trkpt lat="45.24427" lon="6.03198">
        <ele>2350.4528808594</ele>
        <time>2017-11-18T07:35:41Z</time>
      </trkpt>
      <trkpt lat="45.2443" lon="6.03203">
        <ele>2355.4528808594</ele>
        <time>2017-11-18T07:35:46Z</time>
      </trkpt>
      <trkpt lat="45.24432" lon="6.0321">
        <ele>2360.4528808594</ele>
        <time>2017-11-18T07:35:51Z</time>
      </trkpt>
      <trkpt lat="45.24434" lon="6.03217">
        <ele>2360.4528808594</ele>
        <time>2017-11-18T07:35:55Z</time>
      </trkpt>
      <trkpt lat="45.24436" lon="6.03223">
        <ele>2363.4528808594</ele>
        <time>2017-11-18T07:36:01Z</time>
      </trkpt>
      <trkpt lat="45.24439" lon="6.03229">
        <ele>2366.4528808594</ele>
        <time>2017-11-18T07:36:06Z</time>
      </trkpt>
      <trkpt lat="45.2444" lon="6.03238">
        <ele>2370.4528808594</ele>
        <time>2017-11-18T07:36:13Z</time>
      </trkpt>
      <trkpt lat="45.2444" lon="6.03244">
        <ele>2371.4528808594</ele>
        <time>2017-11-18T07:36:18Z</time>
      </trkpt>
      <trkpt lat="45.24442" lon="6.03251">
        <ele>2373.4528808594</ele>
        <time>2017-11-18T07:36:23Z</time>
      </trkpt>
      <trkpt lat="45.24443" lon="6.03258">
        <ele>2374.4528808594</ele>
        <time>2017-11-18T07:36:28Z</time>
      </trkpt>
      <trkpt lat="45.2444" lon="6.03263">
        <ele>2377.4528808594</ele>
        <time>2017-11-18T07:39:29Z</time>
      </trkpt>
      <trkpt lat="45.24436" lon="6.03267">
        <ele>2376.4528808594</ele>
        <time>2017-11-18T07:40:46Z</time>
      </trkpt>
      <trkpt lat="45.24432" lon="6.03268">
        <ele>2379.4528808594</ele>
        <time>2017-11-18T07:41:06Z</time>
      </trkpt>
      <trkpt lat="45.24427" lon="6.03272">
        <ele>2376.4528808594</ele>
        <time>2017-11-18T07:41:08Z</time>
      </trkpt>
      <trkpt lat="45.24423" lon="6.03269">
        <ele>2372.4528808594</ele>
        <time>2017-11-18T07:41:11Z</time>
      </trkpt>
      <trkpt lat="45.24419" lon="6.03275">
        <ele>2368.4528808594</ele>
        <time>2017-11-18T07:41:28Z</time>
      </trkpt>
      <trkpt lat="45.24413" lon="6.03281">
        <ele>2367.4528808594</ele>
        <time>2017-11-18T07:41:30Z</time>
      </trkpt>
      <trkpt lat="45.24402" lon="6.03292">
        <ele>2365.4528808594</ele>
        <time>2017-11-18T07:41:33Z</time>
      </trkpt>
      <trkpt lat="45.24394" lon="6.03298">
        <ele>2359.4528808594</ele>
        <time>2017-11-18T07:41:35Z</time>
      </trkpt>
      <trkpt lat="45.24388" lon="6.03307">
        <ele>2357.4528808594</ele>
        <time>2017-11-18T07:41:39Z</time>
      </trkpt>
      <trkpt lat="45.24384" lon="6.03307">
        <ele>2357.4528808594</ele>
        <time>2017-11-18T07:41:41Z</time>
      </trkpt>
      <trkpt lat="45.24381" lon="6.03316">
        <ele>2353.4528808594</ele>
        <time>2017-11-18T07:41:43Z</time>
      </trkpt>
      <trkpt lat="45.24374" lon="6.03318">
        <ele>2354.4528808594</ele>
        <time>2017-11-18T07:41:45Z</time>
      </trkpt>
      <trkpt lat="45.2437" lon="6.03326">
        <ele>2352.4528808594</ele>
        <time>2017-11-18T07:41:51Z</time>
      </trkpt>
      <trkpt lat="45.2437" lon="6.03335">
        <ele>2351.4528808594</ele>
        <time>2017-11-18T07:41:53Z</time>
      </trkpt>
      <trkpt lat="45.24371" lon="6.03341">
        <ele>2347.4528808594</ele>
        <time>2017-11-18T07:41:55Z</time>
      </trkpt>
      <trkpt lat="45.2437" lon="6.03349">
        <ele>2346.4528808594</ele>
        <time>2017-11-18T07:41:59Z</time>
      </trkpt>
      <trkpt lat="45.24365" lon="6.03356">
        <ele>2344.4528808594</ele>
        <time>2017-11-18T07:42:01Z</time>
      </trkpt>
      <trkpt lat="45.24365" lon="6.03365">
        <ele>2343.4528808594</ele>
        <time>2017-11-18T07:42:03Z</time>
      </trkpt>
      <trkpt lat="45.24358" lon="6.03373">
        <ele>2337.4528808594</ele>
        <time>2017-11-18T07:42:07Z</time>
      </trkpt>
      <trkpt lat="45.24358" lon="6.03382">
        <ele>2332.4528808594</ele>
        <time>2017-11-18T07:42:15Z</time>
      </trkpt>
      <trkpt lat="45.24356" lon="6.03388">
        <ele>2331.4528808594</ele>
        <time>2017-11-18T07:42:18Z</time>
      </trkpt>
      <trkpt lat="45.24354" lon="6.03398">
        <ele>2325.4528808594</ele>
        <time>2017-11-18T07:42:21Z</time>
      </trkpt>
      <trkpt lat="45.24348" lon="6.03411">
        <ele>2322.4528808594</ele>
        <time>2017-11-18T07:42:23Z</time>
      </trkpt>
      <trkpt lat="45.24345" lon="6.03424">
        <ele>2320.4528808594</ele>
        <time>2017-11-18T07:42:30Z</time>
      </trkpt>
      <trkpt lat="45.24346" lon="6.03431">
        <ele>2314.4528808594</ele>
        <time>2017-11-18T07:42:36Z</time>
      </trkpt>
      <trkpt lat="45.24352" lon="6.03435">
        <ele>2313.4528808594</ele>
        <time>2017-11-18T07:42:39Z</time>
      </trkpt>
      <trkpt lat="45.24359" lon="6.03434">
        <ele>2304.4528808594</ele>
        <time>2017-11-18T07:42:42Z</time>
      </trkpt>
      <trkpt lat="45.24365" lon="6.0344">
        <ele>2301.4528808594</ele>
        <time>2017-11-18T07:42:44Z</time>
      </trkpt>
      <trkpt lat="45.24362" lon="6.03445">
        <ele>2301.4528808594</ele>
        <time>2017-11-18T07:42:45Z</time>
      </trkpt>
      <trkpt lat="45.2436" lon="6.03454">
        <ele>2297.4528808594</ele>
        <time>2017-11-18T07:42:47Z</time>
      </trkpt>
      <trkpt lat="45.24356" lon="6.03463">
        <ele>2296.4528808594</ele>
        <time>2017-11-18T07:42:49Z</time>
      </trkpt>
      <trkpt lat="45.24361" lon="6.03468">
        <ele>2292.4541015625</ele>
        <time>2017-11-18T07:42:51Z</time>
      </trkpt>
      <trkpt lat="45.24368" lon="6.03477">
        <ele>2288.4541015625</ele>
        <time>2017-11-18T07:42:53Z</time>
      </trkpt>
      <trkpt lat="45.24377" lon="6.03491">
        <ele>2285.4541015625</ele>
        <time>2017-11-18T07:42:56Z</time>
      </trkpt>
      <trkpt lat="45.24382" lon="6.03507">
        <ele>2284.4541015625</ele>
        <time>2017-11-18T07:42:58Z</time>
      </trkpt>
      <trkpt lat="45.24377" lon="6.03511">
        <ele>2276.4541015625</ele>
        <time>2017-11-18T07:43:00Z</time>
      </trkpt>
      <trkpt lat="45.24379" lon="6.03519">
        <ele>2272.4541015625</ele>
        <time>2017-11-18T07:43:01Z</time>
      </trkpt>
      <trkpt lat="45.24383" lon="6.03525">
        <ele>2263.4541015625</ele>
        <time>2017-11-18T07:43:03Z</time>
      </trkpt>
      <trkpt lat="45.24382" lon="6.03533">
        <ele>2258.4541015625</ele>
        <time>2017-11-18T07:43:05Z</time>
      </trkpt>
      <trkpt lat="45.24385" lon="6.0354">
        <ele>2253.4541015625</ele>
        <time>2017-11-18T07:43:06Z</time>
      </trkpt>
      <trkpt lat="45.24387" lon="6.03548">
        <ele>2248.4541015625</ele>
        <time>2017-11-18T07:43:08Z</time>
      </trkpt>
      <trkpt lat="45.24387" lon="6.03559">
        <ele>2241.4541015625</ele>
        <time>2017-11-18T07:43:10Z</time>
      </trkpt>
      <trkpt lat="45.24391" lon="6.03567">
        <ele>2237.4541015625</ele>
        <time>2017-11-18T07:43:12Z</time>
      </trkpt>
      <trkpt lat="45.24396" lon="6.03575">
        <ele>2234.4541015625</ele>
        <time>2017-11-18T07:43:14Z</time>
      </trkpt>
      <trkpt lat="45.24401" lon="6.03581">
        <ele>2225.4541015625</ele>
        <time>2017-11-18T07:43:16Z</time>
      </trkpt>
      <trkpt lat="45.24402" lon="6.03589">
        <ele>2223.4541015625</ele>
        <time>2017-11-18T07:43:18Z</time>
      </trkpt>
      <trkpt lat="45.244" lon="6.03597">
        <ele>2222.4541015625</ele>
        <time>2017-11-18T07:43:20Z</time>
      </trkpt>
      <trkpt lat="45.24397" lon="6.03605">
        <ele>2220.4541015625</ele>
        <time>2017-11-18T07:43:22Z</time>
      </trkpt>
      <trkpt lat="45.24394" lon="6.03619">
        <ele>2216.4541015625</ele>
        <time>2017-11-18T07:43:24Z</time>
      </trkpt>
      <trkpt lat="45.2439" lon="6.03638">
        <ele>2215.4541015625</ele>
        <time>2017-11-18T07:43:27Z</time>
      </trkpt>
      <trkpt lat="45.24387" lon="6.03652">
        <ele>2213.4541015625</ele>
        <time>2017-11-18T07:43:29Z</time>
      </trkpt>
      <trkpt lat="45.24385" lon="6.03664">
        <ele>2213.4541015625</ele>
        <time>2017-11-18T07:43:31Z</time>
      </trkpt>
      <trkpt lat="45.24384" lon="6.03673">
        <ele>2213.4541015625</ele>
        <time>2017-11-18T07:43:33Z</time>
      </trkpt>
      <trkpt lat="45.24384" lon="6.0368">
        <ele>2214.4541015625</ele>
        <time>2017-11-18T07:43:35Z</time>
      </trkpt>
      <trkpt lat="45.24384" lon="6.03688">
        <ele>2213.4541015625</ele>
        <time>2017-11-18T07:43:37Z</time>
      </trkpt>
      <trkpt lat="45.24383" lon="6.03698">
        <ele>2212.4541015625</ele>
        <time>2017-11-18T07:43:39Z</time>
      </trkpt>
      <trkpt lat="45.24385" lon="6.03703">
        <ele>2206.4541015625</ele>
        <time>2017-11-18T07:47:31Z</time>
      </trkpt>
      <trkpt lat="45.24381" lon="6.03706">
        <ele>2210.4541015625</ele>
        <time>2017-11-18T07:48:46Z</time>
      </trkpt>
      <trkpt lat="45.24377" lon="6.0371">
        <ele>2209.4541015625</ele>
        <time>2017-11-18T07:48:55Z</time>
      </trkpt>
      <trkpt lat="45.24374" lon="6.03716">
        <ele>2209.4541015625</ele>
        <time>2017-11-18T07:49:03Z</time>
      </trkpt>
      <trkpt lat="45.2437" lon="6.03718">
        <ele>2215.4541015625</ele>
        <time>2017-11-18T07:49:12Z</time>
      </trkpt>
      <trkpt lat="45.24366" lon="6.03723">
        <ele>2211.4541015625</ele>
        <time>2017-11-18T07:49:22Z</time>
      </trkpt>
      <trkpt lat="45.24363" lon="6.03717">
        <ele>2218.4541015625</ele>
        <time>2017-11-18T07:49:38Z</time>
      </trkpt>
      <trkpt lat="45.24363" lon="6.0371">
        <ele>2221.4541015625</ele>
        <time>2017-11-18T07:49:47Z</time>
      </trkpt>
      <trkpt lat="45.2436" lon="6.03704">
        <ele>2222.4541015625</ele>
        <time>2017-11-18T07:49:53Z</time>
      </trkpt>
      <trkpt lat="45.24357" lon="6.03699">
        <ele>2219.4541015625</ele>
        <time>2017-11-18T07:49:58Z</time>
      </trkpt>
      <trkpt lat="45.24355" lon="6.03693">
        <ele>2223.4541015625</ele>
        <time>2017-11-18T07:50:09Z</time>
      </trkpt>
      <trkpt lat="45.24355" lon="6.03687">
        <ele>2224.4541015625</ele>
        <time>2017-11-18T07:50:21Z</time>
      </trkpt>
      <trkpt lat="45.24352" lon="6.03682">
        <ele>2221.4541015625</ele>
        <time>2017-11-18T07:50:25Z</time>
      </trkpt>
      <trkpt lat="45.24349" lon="6.03676">
        <ele>2222.4541015625</ele>
        <time>2017-11-18T07:50:35Z</time>
      </trkpt>
      <trkpt lat="45.24345" lon="6.03681">
        <ele>2228.4541015625</ele>
        <time>2017-11-18T07:50:48Z</time>
      </trkpt>
      <trkpt lat="45.24342" lon="6.03686">
        <ele>2232.4541015625</ele>
        <time>2017-11-18T07:50:56Z</time>
      </trkpt>
      <trkpt lat="45.24339" lon="6.03693">
        <ele>2235.4541015625</ele>
        <time>2017-11-18T07:51:03Z</time>
      </trkpt>
      <trkpt lat="45.24335" lon="6.03697">
        <ele>2236.4541015625</ele>
        <time>2017-11-18T07:51:10Z</time>
      </trkpt>
      <trkpt lat="45.24332" lon="6.03702">
        <ele>2240.4541015625</ele>
        <time>2017-11-18T07:51:20Z</time>
      </trkpt>
      <trkpt lat="45.24329" lon="6.03707">
        <ele>2240.4541015625</ele>
        <time>2017-11-18T07:51:29Z</time>
      </trkpt>
      <trkpt lat="45.24326" lon="6.03702">
        <ele>2240.4541015625</ele>
        <time>2017-11-18T07:51:43Z</time>
      </trkpt>
      <trkpt lat="45.2432" lon="6.03704">
        <ele>2243.4541015625</ele>
        <time>2017-11-18T07:51:53Z</time>
      </trkpt>
      <trkpt lat="45.24316" lon="6.03708">
        <ele>2246.4541015625</ele>
        <time>2017-11-18T07:52:00Z</time>
      </trkpt>
      <trkpt lat="45.24313" lon="6.03704">
        <ele>2247.4541015625</ele>
        <time>2017-11-18T07:52:11Z</time>
      </trkpt>
      <trkpt lat="45.24311" lon="6.03697">
        <ele>2246.4541015625</ele>
        <time>2017-11-18T07:52:16Z</time>
      </trkpt>
      <trkpt lat="45.2431" lon="6.03691">
        <ele>2245.4541015625</ele>
        <time>2017-11-18T07:52:21Z</time>
      </trkpt>
      <trkpt lat="45.24309" lon="6.03683">
        <ele>2244.4541015625</ele>
        <time>2017-11-18T07:52:27Z</time>
      </trkpt>
      <trkpt lat="45.24311" lon="6.03676">
        <ele>2249.4541015625</ele>
        <time>2017-11-18T07:52:34Z</time>
      </trkpt>
      <trkpt lat="45.2431" lon="6.03669">
        <ele>2253.4541015625</ele>
        <time>2017-11-18T07:52:42Z</time>
      </trkpt>
      <trkpt lat="45.24305" lon="6.03671">
        <ele>2251.4541015625</ele>
        <time>2017-11-18T07:52:54Z</time>
      </trkpt>
      <trkpt lat="45.24303" lon="6.03677">
        <ele>2253.4541015625</ele>
        <time>2017-11-18T07:53:02Z</time>
      </trkpt>
      <trkpt lat="45.243" lon="6.03682">
        <ele>2255.4541015625</ele>
        <time>2017-11-18T07:53:09Z</time>
      </trkpt>
      <trkpt lat="45.24297" lon="6.03688">
        <ele>2257.4541015625</ele>
        <time>2017-11-18T07:53:16Z</time>
      </trkpt>
      <trkpt lat="45.24295" lon="6.03681">
        <ele>2260.4541015625</ele>
        <time>2017-11-18T07:53:39Z</time>
      </trkpt>
      <trkpt lat="45.24292" lon="6.03675">
        <ele>2261.4541015625</ele>
        <time>2017-11-18T07:53:45Z</time>
      </trkpt>
      <trkpt lat="45.24293" lon="6.03668">
        <ele>2265.4541015625</ele>
        <time>2017-11-18T07:53:53Z</time>
      </trkpt>
      <trkpt lat="45.24291" lon="6.03662">
        <ele>2268.4541015625</ele>
        <time>2017-11-18T07:53:58Z</time>
      </trkpt>
      <trkpt lat="45.24289" lon="6.03656">
        <ele>2272.4541015625</ele>
        <time>2017-11-18T07:54:04Z</time>
      </trkpt>
      <trkpt lat="45.24288" lon="6.03649">
        <ele>2273.4541015625</ele>
        <time>2017-11-18T07:54:10Z</time>
      </trkpt>
      <trkpt lat="45.24285" lon="6.03643">
        <ele>2276.4541015625</ele>
        <time>2017-11-18T07:54:16Z</time>
      </trkpt>
      <trkpt lat="45.2428" lon="6.03645">
        <ele>2279.4541015625</ele>
        <time>2017-11-18T07:54:30Z</time>
      </trkpt>
      <trkpt lat="45.24277" lon="6.0365">
        <ele>2281.4541015625</ele>
        <time>2017-11-18T07:54:37Z</time>
      </trkpt>
      <trkpt lat="45.24277" lon="6.03656">
        <ele>2281.4541015625</ele>
        <time>2017-11-18T07:54:43Z</time>
      </trkpt>
      <trkpt lat="45.24274" lon="6.03663">
        <ele>2282.4541015625</ele>
        <time>2017-11-18T07:54:49Z</time>
      </trkpt>
      <trkpt lat="45.2427" lon="6.03665">
        <ele>2280.4541015625</ele>
        <time>2017-11-18T07:54:56Z</time>
      </trkpt>
      <trkpt lat="45.24268" lon="6.03673">
        <ele>2283.4541015625</ele>
        <time>2017-11-18T07:55:02Z</time>
      </trkpt>
      <trkpt lat="45.24265" lon="6.03669">
        <ele>2284.4541015625</ele>
        <time>2017-11-18T07:55:15Z</time>
      </trkpt>
      <trkpt lat="45.24261" lon="6.03663">
        <ele>2282.4541015625</ele>
        <time>2017-11-18T07:55:20Z</time>
      </trkpt>
      <trkpt lat="45.2426" lon="6.03656">
        <ele>2282.4541015625</ele>
        <time>2017-11-18T07:55:28Z</time>
      </trkpt>
      <trkpt lat="45.24259" lon="6.03647">
        <ele>2283.4541015625</ele>
        <time>2017-11-18T07:55:34Z</time>
      </trkpt>
      <trkpt lat="45.24259" lon="6.03641">
        <ele>2284.4541015625</ele>
        <time>2017-11-18T07:55:40Z</time>
      </trkpt>
      <trkpt lat="45.2426" lon="6.03633">
        <ele>2279.4541015625</ele>
        <time>2017-11-18T07:55:47Z</time>
      </trkpt>
      <trkpt lat="45.24263" lon="6.03628">
        <ele>2286.4541015625</ele>
        <time>2017-11-18T07:55:51Z</time>
      </trkpt>
      <trkpt lat="45.24266" lon="6.03623">
        <ele>2289.4541015625</ele>
        <time>2017-11-18T07:55:58Z</time>
      </trkpt>
      <trkpt lat="45.24268" lon="6.03617">
        <ele>2294.4541015625</ele>
        <time>2017-11-18T07:56:05Z</time>
      </trkpt>
      <trkpt lat="45.24264" lon="6.03614">
        <ele>2296.4541015625</ele>
        <time>2017-11-18T07:56:18Z</time>
      </trkpt>
      <trkpt lat="45.2426" lon="6.03618">
        <ele>2212.4541015625</ele>
        <time>2017-11-18T07:56:24Z</time>
      </trkpt>
      <trkpt lat="45.24257" lon="6.03624">
        <ele>2273.4541015625</ele>
        <time>2017-11-18T07:56:30Z</time>
      </trkpt>
      <trkpt lat="45.24253" lon="6.03628">
        <ele>2281.4541015625</ele>
        <time>2017-11-18T07:56:34Z</time>
      </trkpt>
      <trkpt lat="45.2425" lon="6.03633">
        <ele>2290.4541015625</ele>
        <time>2017-11-18T07:56:39Z</time>
      </trkpt>
      <trkpt lat="45.24246" lon="6.03636">
        <ele>2302.4541015625</ele>
        <time>2017-11-18T07:56:46Z</time>
      </trkpt>
      <trkpt lat="45.24246" lon="6.03629">
        <ele>2308.4528808594</ele>
        <time>2017-11-18T07:56:58Z</time>
      </trkpt>
      <trkpt lat="45.24245" lon="6.03622">
        <ele>2311.4528808594</ele>
        <time>2017-11-18T07:57:02Z</time>
      </trkpt>
      <trkpt lat="45.24245" lon="6.03615">
        <ele>2312.4528808594</ele>
        <time>2017-11-18T07:57:08Z</time>
      </trkpt>
      <trkpt lat="45.24246" lon="6.03608">
        <ele>2315.4528808594</ele>
        <time>2017-11-18T07:57:13Z</time>
      </trkpt>
      <trkpt lat="45.24244" lon="6.03601">
        <ele>2313.4528808594</ele>
        <time>2017-11-18T07:57:18Z</time>
      </trkpt>
      <trkpt lat="45.24246" lon="6.03594">
        <ele>2312.4528808594</ele>
        <time>2017-11-18T07:57:29Z</time>
      </trkpt>
      <trkpt lat="45.2425" lon="6.0359">
        <ele>2311.4528808594</ele>
        <time>2017-11-18T07:59:58Z</time>
      </trkpt>
      <trkpt lat="45.24251" lon="6.036">
        <ele>2310.4528808594</ele>
        <time>2017-11-18T08:00:04Z</time>
      </trkpt>
      <trkpt lat="45.24253" lon="6.0361">
        <ele>2309.4528808594</ele>
        <time>2017-11-18T08:00:06Z</time>
      </trkpt>
      <trkpt lat="45.24262" lon="6.03614">
        <ele>2307.4541015625</ele>
        <time>2017-11-18T08:00:08Z</time>
      </trkpt>
      <trkpt lat="45.24269" lon="6.0362">
        <ele>2304.4541015625</ele>
        <time>2017-11-18T08:00:10Z</time>
      </trkpt>
      <trkpt lat="45.2427" lon="6.03631">
        <ele>2304.4541015625</ele>
        <time>2017-11-18T08:00:12Z</time>
      </trkpt>
      <trkpt lat="45.24269" lon="6.03645">
        <ele>2303.4541015625</ele>
        <time>2017-11-18T08:00:14Z</time>
      </trkpt>
      <trkpt lat="45.24281" lon="6.03644">
        <ele>2296.4541015625</ele>
        <time>2017-11-18T08:00:16Z</time>
      </trkpt>
      <trkpt lat="45.24287" lon="6.03663">
        <ele>2293.4541015625</ele>
        <time>2017-11-18T08:00:19Z</time>
      </trkpt>
      <trkpt lat="45.24294" lon="6.0367">
        <ele>2290.4541015625</ele>
        <time>2017-11-18T08:00:21Z</time>
      </trkpt>
      <trkpt lat="45.24297" lon="6.03676">
        <ele>2289.4541015625</ele>
        <time>2017-11-18T08:00:22Z</time>
      </trkpt>
      <trkpt lat="45.24299" lon="6.03686">
        <ele>2287.4541015625</ele>
        <time>2017-11-18T08:00:24Z</time>
      </trkpt>
      <trkpt lat="45.24298" lon="6.03696">
        <ele>2286.4541015625</ele>
        <time>2017-11-18T08:00:26Z</time>
      </trkpt>
      <trkpt lat="45.24309" lon="6.03693">
        <ele>2279.4541015625</ele>
        <time>2017-11-18T08:00:29Z</time>
      </trkpt>
      <trkpt lat="45.24312" lon="6.03702">
        <ele>2276.4541015625</ele>
        <time>2017-11-18T08:00:32Z</time>
      </trkpt>
      <trkpt lat="45.24311" lon="6.03711">
        <ele>2274.4541015625</ele>
        <time>2017-11-18T08:00:34Z</time>
      </trkpt>
      <trkpt lat="45.24309" lon="6.03717">
        <ele>2273.4541015625</ele>
        <time>2017-11-18T08:00:36Z</time>
      </trkpt>
      <trkpt lat="45.24306" lon="6.0373">
        <ele>2270.4541015625</ele>
        <time>2017-11-18T08:00:38Z</time>
      </trkpt>
      <trkpt lat="45.24305" lon="6.03741">
        <ele>2269.4541015625</ele>
        <time>2017-11-18T08:00:40Z</time>
      </trkpt>
      <trkpt lat="45.24309" lon="6.03748">
        <ele>2257.4541015625</ele>
        <time>2017-11-18T08:00:52Z</time>
      </trkpt>
      <trkpt lat="45.24316" lon="6.03752">
        <ele>2251.4541015625</ele>
        <time>2017-11-18T08:00:54Z</time>
      </trkpt>
      <trkpt lat="45.24324" lon="6.03755">
        <ele>2243.4541015625</ele>
        <time>2017-11-18T08:00:56Z</time>
      </trkpt>
      <trkpt lat="45.24332" lon="6.03765">
        <ele>2237.4541015625</ele>
        <time>2017-11-18T08:00:58Z</time>
      </trkpt>
      <trkpt lat="45.24345" lon="6.03766">
        <ele>2231.4541015625</ele>
        <time>2017-11-18T08:01:00Z</time>
      </trkpt>
      <trkpt lat="45.24356" lon="6.03766">
        <ele>2223.4541015625</ele>
        <time>2017-11-18T08:01:02Z</time>
      </trkpt>
      <trkpt lat="45.24369" lon="6.03767">
        <ele>2218.4541015625</ele>
        <time>2017-11-18T08:01:04Z</time>
      </trkpt>
      <trkpt lat="45.24382" lon="6.03766">
        <ele>2213.4541015625</ele>
        <time>2017-11-18T08:01:06Z</time>
      </trkpt>
      <trkpt lat="45.24382" lon="6.03783">
        <ele>2211.4541015625</ele>
        <time>2017-11-18T08:01:08Z</time>
      </trkpt>
      <trkpt lat="45.24394" lon="6.03796">
        <ele>2205.4541015625</ele>
        <time>2017-11-18T08:01:11Z</time>
      </trkpt>
      <trkpt lat="45.24407" lon="6.03802">
        <ele>2201.4541015625</ele>
        <time>2017-11-18T08:01:13Z</time>
      </trkpt>
      <trkpt lat="45.24419" lon="6.03801">
        <ele>2196.4541015625</ele>
        <time>2017-11-18T08:01:15Z</time>
      </trkpt>
      <trkpt lat="45.2443" lon="6.0379">
        <ele>2193.4541015625</ele>
        <time>2017-11-18T08:01:17Z</time>
      </trkpt>
      <trkpt lat="45.24435" lon="6.03775">
        <ele>2193.4541015625</ele>
        <time>2017-11-18T08:01:19Z</time>
      </trkpt>
      <trkpt lat="45.24441" lon="6.0376">
        <ele>2192.4541015625</ele>
        <time>2017-11-18T08:01:22Z</time>
      </trkpt>
      <trkpt lat="45.24437" lon="6.03756">
        <ele>2187.4541015625</ele>
        <time>2017-11-18T08:01:33Z</time>
      </trkpt>
      <trkpt lat="45.24443" lon="6.03752">
        <ele>2182.4541015625</ele>
        <time>2017-11-18T08:01:43Z</time>
      </trkpt>
      <trkpt lat="45.24458" lon="6.03749">
        <ele>2173.4541015625</ele>
        <time>2017-11-18T08:01:46Z</time>
      </trkpt>
      <trkpt lat="45.24468" lon="6.0375">
        <ele>2168.4541015625</ele>
        <time>2017-11-18T08:01:48Z</time>
      </trkpt>
      <trkpt lat="45.24482" lon="6.03744">
        <ele>2165.4541015625</ele>
        <time>2017-11-18T08:01:50Z</time>
      </trkpt>
      <trkpt lat="45.24496" lon="6.03741">
        <ele>2164.4541015625</ele>
        <time>2017-11-18T08:01:52Z</time>
      </trkpt>
      <trkpt lat="45.24505" lon="6.03734">
        <ele>2164.4541015625</ele>
        <time>2017-11-18T08:01:54Z</time>
      </trkpt>
      <trkpt lat="45.24512" lon="6.03731">
        <ele>2164.4541015625</ele>
        <time>2017-11-18T08:01:56Z</time>
      </trkpt>
      <trkpt lat="45.24524" lon="6.03727">
        <ele>2163.4541015625</ele>
        <time>2017-11-18T08:01:58Z</time>
      </trkpt>
      <trkpt lat="45.24531" lon="6.03731">
        <ele>2162.4541015625</ele>
        <time>2017-11-18T08:02:01Z</time>
      </trkpt>
      <trkpt lat="45.24536" lon="6.0374">
        <ele>2160.4541015625</ele>
        <time>2017-11-18T08:02:03Z</time>
      </trkpt>
      <trkpt lat="45.24539" lon="6.03745">
        <ele>2159.4541015625</ele>
        <time>2017-11-18T08:02:05Z</time>
      </trkpt>
      <trkpt lat="45.24551" lon="6.03742">
        <ele>2157.4541015625</ele>
        <time>2017-11-18T08:02:08Z</time>
      </trkpt>
      <trkpt lat="45.24557" lon="6.0374">
        <ele>2155.4541015625</ele>
        <time>2017-11-18T08:02:10Z</time>
      </trkpt>
      <trkpt lat="45.24563" lon="6.03744">
        <ele>2150.4541015625</ele>
        <time>2017-11-18T08:02:12Z</time>
      </trkpt>
      <trkpt lat="45.24568" lon="6.03749">
        <ele>2145.4541015625</ele>
        <time>2017-11-18T08:02:14Z</time>
      </trkpt>
      <trkpt lat="45.2457" lon="6.0376">
        <ele>2139.4541015625</ele>
        <time>2017-11-18T08:02:16Z</time>
      </trkpt>
      <trkpt lat="45.24576" lon="6.03768">
        <ele>2132.4541015625</ele>
        <time>2017-11-18T08:02:40Z</time>
      </trkpt>
      <trkpt lat="45.24571" lon="6.03772">
        <ele>2130.4541015625</ele>
        <time>2017-11-18T08:02:42Z</time>
      </trkpt>
      <trkpt lat="45.24567" lon="6.03777">
        <ele>2129.4541015625</ele>
        <time>2017-11-18T08:02:44Z</time>
      </trkpt>
      <trkpt lat="45.24565" lon="6.03784">
        <ele>2129.4541015625</ele>
        <time>2017-11-18T08:02:46Z</time>
      </trkpt>
      <trkpt lat="45.2457" lon="6.03791">
        <ele>2123.4541015625</ele>
        <time>2017-11-18T08:02:49Z</time>
      </trkpt>
      <trkpt lat="45.24572" lon="6.03799">
        <ele>2122.4541015625</ele>
        <time>2017-11-18T08:02:51Z</time>
      </trkpt>
      <trkpt lat="45.24578" lon="6.03802">
        <ele>2120.4541015625</ele>
        <time>2017-11-18T08:02:53Z</time>
      </trkpt>
      <trkpt lat="45.24579" lon="6.03809">
        <ele>2118.4541015625</ele>
        <time>2017-11-18T08:02:56Z</time>
      </trkpt>
      <trkpt lat="45.24577" lon="6.03816">
        <ele>2116.4541015625</ele>
        <time>2017-11-18T08:02:58Z</time>
      </trkpt>
      <trkpt lat="45.24581" lon="6.03821">
        <ele>2110.4541015625</ele>
        <time>2017-11-18T08:03:05Z</time>
      </trkpt>
      <trkpt lat="45.24577" lon="6.0383">
        <ele>2108.4541015625</ele>
        <time>2017-11-18T08:03:07Z</time>
      </trkpt>
      <trkpt lat="45.24577" lon="6.03838">
        <ele>2102.4541015625</ele>
        <time>2017-11-18T08:03:11Z</time>
      </trkpt>
      <trkpt lat="45.24579" lon="6.03846">
        <ele>2100.4541015625</ele>
        <time>2017-11-18T08:03:14Z</time>
      </trkpt>
      <trkpt lat="45.24584" lon="6.03845">
        <ele>2094.4541015625</ele>
        <time>2017-11-18T08:03:20Z</time>
      </trkpt>
      <trkpt lat="45.24585" lon="6.03852">
        <ele>2093.4541015625</ele>
        <time>2017-11-18T08:03:22Z</time>
      </trkpt>
      <trkpt lat="45.24585" lon="6.0386">
        <ele>2093.4541015625</ele>
        <time>2017-11-18T08:03:25Z</time>
      </trkpt>
      <trkpt lat="45.2459" lon="6.03862">
        <ele>2089.455078125</ele>
        <time>2017-11-18T08:03:28Z</time>
      </trkpt>
      <trkpt lat="45.24594" lon="6.03867">
        <ele>2086.455078125</ele>
        <time>2017-11-18T08:03:30Z</time>
      </trkpt>
      <trkpt lat="45.246" lon="6.03866">
        <ele>2084.455078125</ele>
        <time>2017-11-18T08:03:33Z</time>
      </trkpt>
      <trkpt lat="45.24607" lon="6.0387">
        <ele>2082.455078125</ele>
        <time>2017-11-18T08:03:35Z</time>
      </trkpt>
      <trkpt lat="45.24611" lon="6.03866">
        <ele>2079.455078125</ele>
        <time>2017-11-18T08:03:37Z</time>
      </trkpt>
      <trkpt lat="45.24618" lon="6.03859">
        <ele>2075.455078125</ele>
        <time>2017-11-18T08:03:39Z</time>
      </trkpt>
      <trkpt lat="45.24628" lon="6.03859">
        <ele>2072.455078125</ele>
        <time>2017-11-18T08:03:42Z</time>
      </trkpt>
      <trkpt lat="45.24633" lon="6.0386">
        <ele>2069.455078125</ele>
        <time>2017-11-18T08:03:44Z</time>
      </trkpt>
      <trkpt lat="45.24641" lon="6.03861">
        <ele>2068.455078125</ele>
        <time>2017-11-18T08:03:46Z</time>
      </trkpt>
      <trkpt lat="45.24647" lon="6.03862">
        <ele>2065.455078125</ele>
        <time>2017-11-18T08:03:48Z</time>
      </trkpt>
      <trkpt lat="45.24655" lon="6.03862">
        <ele>2064.455078125</ele>
        <time>2017-11-18T08:03:50Z</time>
      </trkpt>
      <trkpt lat="45.2466" lon="6.03863">
        <ele>2063.455078125</ele>
        <time>2017-11-18T08:03:52Z</time>
      </trkpt>
      <trkpt lat="45.24665" lon="6.03863">
        <ele>2060.455078125</ele>
        <time>2017-11-18T08:03:54Z</time>
      </trkpt>
      <trkpt lat="45.24674" lon="6.03863">
        <ele>2058.455078125</ele>
        <time>2017-11-18T08:03:56Z</time>
      </trkpt>
      <trkpt lat="45.24682" lon="6.03865">
        <ele>2057.455078125</ele>
        <time>2017-11-18T08:03:58Z</time>
      </trkpt>
      <trkpt lat="45.24687" lon="6.03869">
        <ele>2057.455078125</ele>
        <time>2017-11-18T08:04:00Z</time>
      </trkpt>
      <trkpt lat="45.24691" lon="6.03878">
        <ele>2055.455078125</ele>
        <time>2017-11-18T08:04:02Z</time>
      </trkpt>
      <trkpt lat="45.24696" lon="6.03897">
        <ele>2048.455078125</ele>
        <time>2017-11-18T08:04:05Z</time>
      </trkpt>
      <trkpt lat="45.24704" lon="6.03909">
        <ele>2044.4549560547</ele>
        <time>2017-11-18T08:04:07Z</time>
      </trkpt>
      <trkpt lat="45.24712" lon="6.0392">
        <ele>2034.4549560547</ele>
        <time>2017-11-18T08:04:10Z</time>
      </trkpt>
      <trkpt lat="45.24717" lon="6.03931">
        <ele>2029.4549560547</ele>
        <time>2017-11-18T08:04:12Z</time>
      </trkpt>
      <trkpt lat="45.24728" lon="6.0394">
        <ele>2021.4549560547</ele>
        <time>2017-11-18T08:04:15Z</time>
      </trkpt>
      <trkpt lat="45.24732" lon="6.03952">
        <ele>2015.4549560547</ele>
        <time>2017-11-18T08:04:17Z</time>
      </trkpt>
      <trkpt lat="45.24742" lon="6.03964">
        <ele>2010.4549560547</ele>
        <time>2017-11-18T08:04:20Z</time>
      </trkpt>
      <trkpt lat="45.2475" lon="6.03964">
        <ele>2005.4549560547</ele>
        <time>2017-11-18T08:04:22Z</time>
      </trkpt>
      <trkpt lat="45.24757" lon="6.03962">
        <ele>2003.4549560547</ele>
        <time>2017-11-18T08:04:24Z</time>
      </trkpt>
      <trkpt lat="45.24763" lon="6.03961">
        <ele>1999.4549560547</ele>
        <time>2017-11-18T08:04:30Z</time>
      </trkpt>
      <trkpt lat="45.24766" lon="6.0397">
        <ele>1996.4549560547</ele>
        <time>2017-11-18T08:04:32Z</time>
      </trkpt>
      <trkpt lat="45.24771" lon="6.03978">
        <ele>1991.4549560547</ele>
        <time>2017-11-18T08:04:34Z</time>
      </trkpt>
      <trkpt lat="45.24784" lon="6.03991">
        <ele>1986.4549560547</ele>
        <time>2017-11-18T08:04:37Z</time>
      </trkpt>
      <trkpt lat="45.24795" lon="6.03992">
        <ele>1984.4549560547</ele>
        <time>2017-11-18T08:04:39Z</time>
      </trkpt>
      <trkpt lat="45.24803" lon="6.04">
        <ele>1983.4549560547</ele>
        <time>2017-11-18T08:04:41Z</time>
      </trkpt>
      <trkpt lat="45.24811" lon="6.04015">
        <ele>1974.4549560547</ele>
        <time>2017-11-18T08:04:44Z</time>
      </trkpt>
      <trkpt lat="45.24819" lon="6.04017">
        <ele>1970.4549560547</ele>
        <time>2017-11-18T08:04:46Z</time>
      </trkpt>
      <trkpt lat="45.24825" lon="6.04015">
        <ele>1967.4549560547</ele>
        <time>2017-11-18T08:04:48Z</time>
      </trkpt>
      <trkpt lat="45.24831" lon="6.04015">
        <ele>1965.4549560547</ele>
        <time>2017-11-18T08:04:51Z</time>
      </trkpt>
      <trkpt lat="45.24831" lon="6.04025">
        <ele>1961.4549560547</ele>
        <time>2017-11-18T08:04:53Z</time>
      </trkpt>
      <trkpt lat="45.24835" lon="6.04036">
        <ele>1958.4549560547</ele>
        <time>2017-11-18T08:04:55Z</time>
      </trkpt>
      <trkpt lat="45.24831" lon="6.04053">
        <ele>1955.4549560547</ele>
        <time>2017-11-18T08:04:57Z</time>
      </trkpt>
      <trkpt lat="45.24832" lon="6.04066">
        <ele>1953.4549560547</ele>
        <time>2017-11-18T08:05:00Z</time>
      </trkpt>
      <trkpt lat="45.24837" lon="6.04068">
        <ele>1948.4549560547</ele>
        <time>2017-11-18T08:05:18Z</time>
      </trkpt>
      <trkpt lat="45.24843" lon="6.04075">
        <ele>1941.4549560547</ele>
        <time>2017-11-18T08:05:20Z</time>
      </trkpt>
      <trkpt lat="45.24855" lon="6.0407">
        <ele>1938.4549560547</ele>
        <time>2017-11-18T08:05:23Z</time>
      </trkpt>
      <trkpt lat="45.24864" lon="6.04072">
        <ele>1933.4549560547</ele>
        <time>2017-11-18T08:05:25Z</time>
      </trkpt>
      <trkpt lat="45.24874" lon="6.04073">
        <ele>1929.4549560547</ele>
        <time>2017-11-18T08:05:27Z</time>
      </trkpt>
      <trkpt lat="45.24886" lon="6.04074">
        <ele>1926.4549560547</ele>
        <time>2017-11-18T08:05:29Z</time>
      </trkpt>
      <trkpt lat="45.24895" lon="6.04073">
        <ele>1924.4549560547</ele>
        <time>2017-11-18T08:05:31Z</time>
      </trkpt>
      <trkpt lat="45.24903" lon="6.04068">
        <ele>1921.4549560547</ele>
        <time>2017-11-18T08:05:43Z</time>
      </trkpt>
      <trkpt lat="45.24906" lon="6.04063">
        <ele>1918.4549560547</ele>
        <time>2017-11-18T08:05:51Z</time>
      </trkpt>
      <trkpt lat="45.24913" lon="6.04067">
        <ele>1918.4549560547</ele>
        <time>2017-11-18T08:06:01Z</time>
      </trkpt>
      <trkpt lat="45.24918" lon="6.04076">
        <ele>1917.4549560547</ele>
        <time>2017-11-18T08:06:03Z</time>
      </trkpt>
      <trkpt lat="45.2492" lon="6.0409">
        <ele>1915.4549560547</ele>
        <time>2017-11-18T08:06:05Z</time>
      </trkpt>
      <trkpt lat="45.24925" lon="6.04102">
        <ele>1912.4549560547</ele>
        <time>2017-11-18T08:06:07Z</time>
      </trkpt>
      <trkpt lat="45.24934" lon="6.0411">
        <ele>1908.4560546875</ele>
        <time>2017-11-18T08:06:09Z</time>
      </trkpt>
      <trkpt lat="45.2494" lon="6.0412">
        <ele>1905.4560546875</ele>
        <time>2017-11-18T08:06:11Z</time>
      </trkpt>
      <trkpt lat="45.24947" lon="6.04131">
        <ele>1901.4560546875</ele>
        <time>2017-11-18T08:06:13Z</time>
      </trkpt>
      <trkpt lat="45.24957" lon="6.04144">
        <ele>1898.4560546875</ele>
        <time>2017-11-18T08:06:15Z</time>
      </trkpt>
      <trkpt lat="45.24969" lon="6.04149">
        <ele>1894.4560546875</ele>
        <time>2017-11-18T08:06:17Z</time>
      </trkpt>
      <trkpt lat="45.24978" lon="6.04157">
        <ele>1891.4560546875</ele>
        <time>2017-11-18T08:06:19Z</time>
      </trkpt>
      <trkpt lat="45.24985" lon="6.04169">
        <ele>1889.4560546875</ele>
        <time>2017-11-18T08:06:21Z</time>
      </trkpt>
      <trkpt lat="45.24995" lon="6.04176">
        <ele>1886.4560546875</ele>
        <time>2017-11-18T08:06:23Z</time>
      </trkpt>
      <trkpt lat="45.25004" lon="6.04184">
        <ele>1885.4560546875</ele>
        <time>2017-11-18T08:06:25Z</time>
      </trkpt>
      <trkpt lat="45.25009" lon="6.04191">
        <ele>1884.4560546875</ele>
        <time>2017-11-18T08:06:27Z</time>
      </trkpt>
      <trkpt lat="45.25009" lon="6.04197">
        <ele>1884.4560546875</ele>
        <time>2017-11-18T08:06:30Z</time>
      </trkpt>
      <trkpt lat="45.25004" lon="6.04195">
        <ele>1892.4560546875</ele>
        <time>2017-11-18T08:10:16Z</time>
      </trkpt>
      <trkpt lat="45.25" lon="6.04191">
        <ele>1892.4560546875</ele>
        <time>2017-11-18T08:10:25Z</time>
      </trkpt>
      <trkpt lat="45.24995" lon="6.04193">
        <ele>1889.4560546875</ele>
        <time>2017-11-18T08:10:31Z</time>
      </trkpt>
      <trkpt lat="45.24989" lon="6.04192">
        <ele>1893.4560546875</ele>
        <time>2017-11-18T08:10:37Z</time>
      </trkpt>
      <trkpt lat="45.24984" lon="6.0419">
        <ele>1891.4560546875</ele>
        <time>2017-11-18T08:10:42Z</time>
      </trkpt>
      <trkpt lat="45.24981" lon="6.04185">
        <ele>1894.4560546875</ele>
        <time>2017-11-18T08:10:47Z</time>
      </trkpt>
      <trkpt lat="45.24977" lon="6.04181">
        <ele>1900.4560546875</ele>
        <time>2017-11-18T08:10:53Z</time>
      </trkpt>
      <trkpt lat="45.24974" lon="6.04175">
        <ele>1903.4560546875</ele>
        <time>2017-11-18T08:11:00Z</time>
      </trkpt>
      <trkpt lat="45.2497" lon="6.04173">
        <ele>1902.4560546875</ele>
        <time>2017-11-18T08:11:05Z</time>
      </trkpt>
      <trkpt lat="45.24966" lon="6.04169">
        <ele>1899.4560546875</ele>
        <time>2017-11-18T08:11:09Z</time>
      </trkpt>
      <trkpt lat="45.24961" lon="6.04166">
        <ele>1901.4560546875</ele>
        <time>2017-11-18T08:11:15Z</time>
      </trkpt>
      <trkpt lat="45.24956" lon="6.04163">
        <ele>1903.4560546875</ele>
        <time>2017-11-18T08:11:20Z</time>
      </trkpt>
      <trkpt lat="45.24951" lon="6.04161">
        <ele>1902.4560546875</ele>
        <time>2017-11-18T08:11:26Z</time>
      </trkpt>
      <trkpt lat="45.24947" lon="6.04158">
        <ele>1904.4560546875</ele>
        <time>2017-11-18T08:11:30Z</time>
      </trkpt>
      <trkpt lat="45.24942" lon="6.04158">
        <ele>1906.4560546875</ele>
        <time>2017-11-18T08:11:36Z</time>
      </trkpt>
      <trkpt lat="45.24937" lon="6.04154">
        <ele>1905.4560546875</ele>
        <time>2017-11-18T08:11:42Z</time>
      </trkpt>
      <trkpt lat="45.24937" lon="6.04148">
        <ele>1909.4560546875</ele>
        <time>2017-11-18T08:11:48Z</time>
      </trkpt>
      <trkpt lat="45.24936" lon="6.04141">
        <ele>1910.4560546875</ele>
        <time>2017-11-18T08:11:52Z</time>
      </trkpt>
      <trkpt lat="45.24935" lon="6.04133">
        <ele>1914.4560546875</ele>
        <time>2017-11-18T08:11:56Z</time>
      </trkpt>
      <trkpt lat="45.24933" lon="6.04125">
        <ele>1920.4560546875</ele>
        <time>2017-11-18T08:12:03Z</time>
      </trkpt>
      <trkpt lat="45.24932" lon="6.04118">
        <ele>1922.4560546875</ele>
        <time>2017-11-18T08:12:11Z</time>
      </trkpt>
      <trkpt lat="45.24929" lon="6.04111">
        <ele>1923.4560546875</ele>
        <time>2017-11-18T08:12:16Z</time>
      </trkpt>
      <trkpt lat="45.24929" lon="6.04103">
        <ele>1923.4560546875</ele>
        <time>2017-11-18T08:12:23Z</time>
      </trkpt>
      <trkpt lat="45.24928" lon="6.04096">
        <ele>1926.4549560547</ele>
        <time>2017-11-18T08:12:26Z</time>
      </trkpt>
      <trkpt lat="45.24926" lon="6.04089">
        <ele>1923.4549560547</ele>
        <time>2017-11-18T08:12:30Z</time>
      </trkpt>
      <trkpt lat="45.24923" lon="6.04083">
        <ele>1922.4549560547</ele>
        <time>2017-11-18T08:12:34Z</time>
      </trkpt>
      <trkpt lat="45.24922" lon="6.04076">
        <ele>1927.4549560547</ele>
        <time>2017-11-18T08:12:38Z</time>
      </trkpt>
      <trkpt lat="45.24924" lon="6.0407">
        <ele>1926.4549560547</ele>
        <time>2017-11-18T08:12:45Z</time>
      </trkpt>
      <trkpt lat="45.24928" lon="6.04066">
        <ele>1923.4549560547</ele>
        <time>2017-11-18T08:12:53Z</time>
      </trkpt>
      <trkpt lat="45.2493" lon="6.0406">
        <ele>1922.4549560547</ele>
        <time>2017-11-18T08:12:57Z</time>
      </trkpt>
      <trkpt lat="45.24931" lon="6.04052">
        <ele>1924.4549560547</ele>
        <time>2017-11-18T08:13:04Z</time>
      </trkpt>
      <trkpt lat="45.24932" lon="6.04045">
        <ele>1922.4549560547</ele>
        <time>2017-11-18T08:13:10Z</time>
      </trkpt>
      <trkpt lat="45.24933" lon="6.04038">
        <ele>1926.4549560547</ele>
        <time>2017-11-18T08:13:16Z</time>
      </trkpt>
      <trkpt lat="45.24934" lon="6.04031">
        <ele>1925.4549560547</ele>
        <time>2017-11-18T08:13:21Z</time>
      </trkpt>
      <trkpt lat="45.24936" lon="6.04024">
        <ele>1927.4549560547</ele>
        <time>2017-11-18T08:13:28Z</time>
      </trkpt>
      <trkpt lat="45.24941" lon="6.04021">
        <ele>1926.4549560547</ele>
        <time>2017-11-18T08:13:34Z</time>
      </trkpt>
      <trkpt lat="45.24944" lon="6.04016">
        <ele>1929.4549560547</ele>
        <time>2017-11-18T08:13:40Z</time>
      </trkpt>
      <trkpt lat="45.24948" lon="6.0401">
        <ele>1932.4549560547</ele>
        <time>2017-11-18T08:13:43Z</time>
      </trkpt>
      <trkpt lat="45.24951" lon="6.04005">
        <ele>1933.4549560547</ele>
        <time>2017-11-18T08:13:46Z</time>
      </trkpt>
      <trkpt lat="45.24955" lon="6.04002">
        <ele>1933.4549560547</ele>
        <time>2017-11-18T08:13:50Z</time>
      </trkpt>
      <trkpt lat="45.2496" lon="6.03999">
        <ele>1934.4549560547</ele>
        <time>2017-11-18T08:13:55Z</time>
      </trkpt>
      <trkpt lat="45.24966" lon="6.03997">
        <ele>1934.4549560547</ele>
        <time>2017-11-18T08:14:01Z</time>
      </trkpt>
      <trkpt lat="45.24969" lon="6.03992">
        <ele>1936.4549560547</ele>
        <time>2017-11-18T08:14:06Z</time>
      </trkpt>
      <trkpt lat="45.24974" lon="6.03988">
        <ele>1937.4549560547</ele>
        <time>2017-11-18T08:14:09Z</time>
      </trkpt>
      <trkpt lat="45.24979" lon="6.03984">
        <ele>1938.4549560547</ele>
        <time>2017-11-18T08:14:13Z</time>
      </trkpt>
      <trkpt lat="45.24983" lon="6.03978">
        <ele>1938.4549560547</ele>
        <time>2017-11-18T08:14:18Z</time>
      </trkpt>
      <trkpt lat="45.24986" lon="6.03974">
        <ele>1939.4549560547</ele>
        <time>2017-11-18T08:14:21Z</time>
      </trkpt>
      <trkpt lat="45.24989" lon="6.03967">
        <ele>1940.4549560547</ele>
        <time>2017-11-18T08:14:27Z</time>
      </trkpt>
      <trkpt lat="45.24992" lon="6.03961">
        <ele>1940.4549560547</ele>
        <time>2017-11-18T08:14:33Z</time>
      </trkpt>
      <trkpt lat="45.24995" lon="6.03956">
        <ele>1938.4549560547</ele>
        <time>2017-11-18T08:14:36Z</time>
      </trkpt>
      <trkpt lat="45.24999" lon="6.0395">
        <ele>1942.4549560547</ele>
        <time>2017-11-18T08:14:40Z</time>
      </trkpt>
      <trkpt lat="45.25003" lon="6.03945">
        <ele>1940.4549560547</ele>
        <time>2017-11-18T08:14:46Z</time>
      </trkpt>
      <trkpt lat="45.25007" lon="6.03944">
        <ele>1941.4549560547</ele>
        <time>2017-11-18T08:14:49Z</time>
      </trkpt>
      <trkpt lat="45.25012" lon="6.03941">
        <ele>1943.4549560547</ele>
        <time>2017-11-18T08:14:56Z</time>
      </trkpt>
      <trkpt lat="45.25017" lon="6.03937">
        <ele>1943.4549560547</ele>
        <time>2017-11-18T08:15:00Z</time>
      </trkpt>
      <trkpt lat="45.25023" lon="6.03936">
        <ele>1945.4549560547</ele>
        <time>2017-11-18T08:15:07Z</time>
      </trkpt>
      <trkpt lat="45.25027" lon="6.03935">
        <ele>1945.4549560547</ele>
        <time>2017-11-18T08:15:11Z</time>
      </trkpt>
      <trkpt lat="45.25032" lon="6.03935">
        <ele>1949.4549560547</ele>
        <time>2017-11-18T08:17:03Z</time>
      </trkpt>
      <trkpt lat="45.25038" lon="6.03932">
        <ele>1948.4549560547</ele>
        <time>2017-11-18T08:17:06Z</time>
      </trkpt>
      <trkpt lat="45.25043" lon="6.03929">
        <ele>1949.4549560547</ele>
        <time>2017-11-18T08:17:10Z</time>
      </trkpt>
      <trkpt lat="45.25047" lon="6.03923">
        <ele>1950.4549560547</ele>
        <time>2017-11-18T08:17:13Z</time>
      </trkpt>
      <trkpt lat="45.25052" lon="6.03921">
        <ele>1954.4549560547</ele>
        <time>2017-11-18T08:17:17Z</time>
      </trkpt>
      <trkpt lat="45.25054" lon="6.03915">
        <ele>1952.4549560547</ele>
        <time>2017-11-18T08:17:20Z</time>
      </trkpt>
      <trkpt lat="45.25059" lon="6.03912">
        <ele>1953.4549560547</ele>
        <time>2017-11-18T08:17:25Z</time>
      </trkpt>
      <trkpt lat="45.25064" lon="6.03911">
        <ele>1951.4560546875</ele>
        <time>2017-11-18T08:17:29Z</time>
      </trkpt>
      <trkpt lat="45.25069" lon="6.03912">
        <ele>1951.4560546875</ele>
        <time>2017-11-18T08:17:33Z</time>
      </trkpt>
      <trkpt lat="45.25074" lon="6.03911">
        <ele>1953.4560546875</ele>
        <time>2017-11-18T08:17:38Z</time>
      </trkpt>
      <trkpt lat="45.2508" lon="6.03911">
        <ele>1955.4560546875</ele>
        <time>2017-11-18T08:17:45Z</time>
      </trkpt>
      <trkpt lat="45.25083" lon="6.03906">
        <ele>1952.4560546875</ele>
        <time>2017-11-18T08:17:50Z</time>
      </trkpt>
      <trkpt lat="45.25088" lon="6.03903">
        <ele>1951.4560546875</ele>
        <time>2017-11-18T08:17:54Z</time>
      </trkpt>
      <trkpt lat="45.25092" lon="6.03905">
        <ele>1950.4560546875</ele>
        <time>2017-11-18T08:17:59Z</time>
      </trkpt>
      <trkpt lat="45.25097" lon="6.03906">
        <ele>1953.4560546875</ele>
        <time>2017-11-18T08:18:06Z</time>
      </trkpt>
      <trkpt lat="45.25102" lon="6.03908">
        <ele>1956.4560546875</ele>
        <time>2017-11-18T08:18:09Z</time>
      </trkpt>
      <trkpt lat="45.25107" lon="6.0391">
        <ele>1961.4560546875</ele>
        <time>2017-11-18T08:18:14Z</time>
      </trkpt>
      <trkpt lat="45.25112" lon="6.03914">
        <ele>1962.4560546875</ele>
        <time>2017-11-18T08:18:19Z</time>
      </trkpt>
      <trkpt lat="45.25117" lon="6.03913">
        <ele>1963.4560546875</ele>
        <time>2017-11-18T08:18:22Z</time>
      </trkpt>
      <trkpt lat="45.25122" lon="6.0391">
        <ele>1963.4560546875</ele>
        <time>2017-11-18T08:18:26Z</time>
      </trkpt>
      <trkpt lat="45.25127" lon="6.03909">
        <ele>1964.4560546875</ele>
        <time>2017-11-18T08:18:30Z</time>
      </trkpt>
      <trkpt lat="45.25132" lon="6.03908">
        <ele>1963.4560546875</ele>
        <time>2017-11-18T08:18:36Z</time>
      </trkpt>
      <trkpt lat="45.25135" lon="6.03904">
        <ele>1967.4560546875</ele>
        <time>2017-11-18T08:18:43Z</time>
      </trkpt>
      <trkpt lat="45.25133" lon="6.03895">
        <ele>1968.4560546875</ele>
        <time>2017-11-18T08:18:47Z</time>
      </trkpt>
      <trkpt lat="45.25135" lon="6.03888">
        <ele>1967.4560546875</ele>
        <time>2017-11-18T08:18:52Z</time>
      </trkpt>
      <trkpt lat="45.25134" lon="6.03881">
        <ele>1967.4560546875</ele>
        <time>2017-11-18T08:18:56Z</time>
      </trkpt>
      <trkpt lat="45.25137" lon="6.03876">
        <ele>1968.4560546875</ele>
        <time>2017-11-18T08:19:03Z</time>
      </trkpt>
      <trkpt lat="45.25139" lon="6.0387">
        <ele>1969.4560546875</ele>
        <time>2017-11-18T08:19:07Z</time>
      </trkpt>
      <trkpt lat="45.25138" lon="6.03864">
        <ele>1971.4560546875</ele>
        <time>2017-11-18T08:19:15Z</time>
      </trkpt>
      <trkpt lat="45.25142" lon="6.03859">
        <ele>1971.4560546875</ele>
        <time>2017-11-18T08:19:19Z</time>
      </trkpt>
      <trkpt lat="45.25147" lon="6.03858">
        <ele>1973.4560546875</ele>
        <time>2017-11-18T08:19:24Z</time>
      </trkpt>
      <trkpt lat="45.25152" lon="6.03863">
        <ele>1979.4560546875</ele>
        <time>2017-11-18T08:19:30Z</time>
      </trkpt>
      <trkpt lat="45.25153" lon="6.03856">
        <ele>1982.4560546875</ele>
        <time>2017-11-18T08:19:44Z</time>
      </trkpt>
      <trkpt lat="45.25155" lon="6.03847">
        <ele>1981.4560546875</ele>
        <time>2017-11-18T08:19:50Z</time>
      </trkpt>
      <trkpt lat="45.25158" lon="6.03842">
        <ele>1984.4560546875</ele>
        <time>2017-11-18T08:19:54Z</time>
      </trkpt>
      <trkpt lat="45.25162" lon="6.03839">
        <ele>1983.4560546875</ele>
        <time>2017-11-18T08:19:58Z</time>
      </trkpt>
      <trkpt lat="45.25165" lon="6.03834">
        <ele>1982.4560546875</ele>
        <time>2017-11-18T08:20:02Z</time>
      </trkpt>
      <trkpt lat="45.25171" lon="6.03831">
        <ele>1982.4560546875</ele>
        <time>2017-11-18T08:20:08Z</time>
      </trkpt>
      <trkpt lat="45.25176" lon="6.03829">
        <ele>1981.4560546875</ele>
        <time>2017-11-18T08:20:12Z</time>
      </trkpt>
      <trkpt lat="45.25181" lon="6.03826">
        <ele>1978.4560546875</ele>
        <time>2017-11-18T08:20:16Z</time>
      </trkpt>
      <trkpt lat="45.25177" lon="6.03822">
        <ele>1976.4560546875</ele>
        <time>2017-11-18T08:20:24Z</time>
      </trkpt>
      <trkpt lat="45.25181" lon="6.03819">
        <ele>1978.4560546875</ele>
        <time>2017-11-18T08:20:32Z</time>
      </trkpt>
      <trkpt lat="45.25186" lon="6.03819">
        <ele>1981.4560546875</ele>
        <time>2017-11-18T08:20:37Z</time>
      </trkpt>
      <trkpt lat="45.25191" lon="6.03817">
        <ele>1984.4560546875</ele>
        <time>2017-11-18T08:20:47Z</time>
      </trkpt>
      <trkpt lat="45.25195" lon="6.03815">
        <ele>1986.4560546875</ele>
        <time>2017-11-18T08:20:52Z</time>
      </trkpt>
      <trkpt lat="45.252" lon="6.03815">
        <ele>1987.4560546875</ele>
        <time>2017-11-18T08:20:56Z</time>
      </trkpt>
      <trkpt lat="45.25198" lon="6.03809">
        <ele>1991.4560546875</ele>
        <time>2017-11-18T08:21:08Z</time>
      </trkpt>
      <trkpt lat="45.25193" lon="6.03806">
        <ele>1995.4560546875</ele>
        <time>2017-11-18T08:21:14Z</time>
      </trkpt>
      <trkpt lat="45.25189" lon="6.03802">
        <ele>1997.4560546875</ele>
        <time>2017-11-18T08:21:20Z</time>
      </trkpt>
      <trkpt lat="45.25194" lon="6.03799">
        <ele>1990.4560546875</ele>
        <time>2017-11-18T08:21:27Z</time>
      </trkpt>
      <trkpt lat="45.25199" lon="6.03799">
        <ele>1998.4560546875</ele>
        <time>2017-11-18T08:21:33Z</time>
      </trkpt>
      <trkpt lat="45.25205" lon="6.03798">
        <ele>1999.4560546875</ele>
        <time>2017-11-18T08:21:39Z</time>
      </trkpt>
      <trkpt lat="45.25209" lon="6.03797">
        <ele>1999.4560546875</ele>
        <time>2017-11-18T08:21:44Z</time>
      </trkpt>
      <trkpt lat="45.25214" lon="6.03797">
        <ele>1998.4560546875</ele>
        <time>2017-11-18T08:21:52Z</time>
      </trkpt>
      <trkpt lat="45.25215" lon="6.03791">
        <ele>2001.4560546875</ele>
        <time>2017-11-18T08:22:27Z</time>
      </trkpt>
      <trkpt lat="45.25214" lon="6.03784">
        <ele>2002.4560546875</ele>
        <time>2017-11-18T08:22:32Z</time>
      </trkpt>
      <trkpt lat="45.2521" lon="6.03779">
        <ele>2004.4560546875</ele>
        <time>2017-11-18T08:22:36Z</time>
      </trkpt>
      <trkpt lat="45.25207" lon="6.03774">
        <ele>2003.4560546875</ele>
        <time>2017-11-18T08:22:42Z</time>
      </trkpt>
      <trkpt lat="45.25204" lon="6.03768">
        <ele>2005.4560546875</ele>
        <time>2017-11-18T08:23:18Z</time>
      </trkpt>
      <trkpt lat="45.25206" lon="6.03761">
        <ele>2006.4560546875</ele>
        <time>2017-11-18T08:23:35Z</time>
      </trkpt>
      <trkpt lat="45.25211" lon="6.03761">
        <ele>2009.4560546875</ele>
        <time>2017-11-18T08:23:40Z</time>
      </trkpt>
      <trkpt lat="45.25217" lon="6.0376">
        <ele>2008.4560546875</ele>
        <time>2017-11-18T08:23:45Z</time>
      </trkpt>
      <trkpt lat="45.25221" lon="6.0376">
        <ele>2012.4560546875</ele>
        <time>2017-11-18T08:23:52Z</time>
      </trkpt>
      <trkpt lat="45.25226" lon="6.03764">
        <ele>2014.4560546875</ele>
        <time>2017-11-18T08:24:00Z</time>
      </trkpt>
      <trkpt lat="45.2523" lon="6.03765">
        <ele>2014.4560546875</ele>
        <time>2017-11-18T08:24:04Z</time>
      </trkpt>
      <trkpt lat="45.25236" lon="6.03767">
        <ele>2016.4560546875</ele>
        <time>2017-11-18T08:24:11Z</time>
      </trkpt>
      <trkpt lat="45.25241" lon="6.03768">
        <ele>2013.4560546875</ele>
        <time>2017-11-18T08:24:17Z</time>
      </trkpt>
      <trkpt lat="45.25246" lon="6.0377">
        <ele>2017.4560546875</ele>
        <time>2017-11-18T08:24:23Z</time>
      </trkpt>
      <trkpt lat="45.25245" lon="6.03763">
        <ele>2017.4560546875</ele>
        <time>2017-11-18T08:24:31Z</time>
      </trkpt>
      <trkpt lat="45.25246" lon="6.03755">
        <ele>2016.4560546875</ele>
        <time>2017-11-18T08:24:39Z</time>
      </trkpt>
      <trkpt lat="45.25249" lon="6.0375">
        <ele>2018.4560546875</ele>
        <time>2017-11-18T08:24:44Z</time>
      </trkpt>
      <trkpt lat="45.25247" lon="6.03743">
        <ele>2024.4560546875</ele>
        <time>2017-11-18T08:24:55Z</time>
      </trkpt>
      <trkpt lat="45.25251" lon="6.0374">
        <ele>2026.4560546875</ele>
        <time>2017-11-18T08:25:02Z</time>
      </trkpt>
      <trkpt lat="45.25252" lon="6.03733">
        <ele>2028.4560546875</ele>
        <time>2017-11-18T08:25:09Z</time>
      </trkpt>
      <trkpt lat="45.25255" lon="6.03728">
        <ele>2034.4560546875</ele>
        <time>2017-11-18T08:25:19Z</time>
      </trkpt>
      <trkpt lat="45.25251" lon="6.03725">
        <ele>2041.4560546875</ele>
        <time>2017-11-18T08:25:27Z</time>
      </trkpt>
      <trkpt lat="45.25248" lon="6.03718">
        <ele>2035.4560546875</ele>
        <time>2017-11-18T08:25:37Z</time>
      </trkpt>
      <trkpt lat="45.25251" lon="6.03712">
        <ele>2038.4560546875</ele>
        <time>2017-11-18T08:25:49Z</time>
      </trkpt>
      <trkpt lat="45.25249" lon="6.03707">
        <ele>2038.4560546875</ele>
        <time>2017-11-18T08:25:56Z</time>
      </trkpt>
      <trkpt lat="45.25243" lon="6.03704">
        <ele>2043.4560546875</ele>
        <time>2017-11-18T08:26:05Z</time>
      </trkpt>
      <trkpt lat="45.2524" lon="6.03698">
        <ele>2045.4560546875</ele>
        <time>2017-11-18T08:26:13Z</time>
      </trkpt>
      <trkpt lat="45.25241" lon="6.03691">
        <ele>2045.4560546875</ele>
        <time>2017-11-18T08:26:18Z</time>
      </trkpt>
      <trkpt lat="45.25245" lon="6.03687">
        <ele>2049.4560546875</ele>
        <time>2017-11-18T08:26:26Z</time>
      </trkpt>
      <trkpt lat="45.25244" lon="6.0368">
        <ele>2049.4560546875</ele>
        <time>2017-11-18T08:26:33Z</time>
      </trkpt>
      <trkpt lat="45.2524" lon="6.03677">
        <ele>2050.4560546875</ele>
        <time>2017-11-18T08:26:44Z</time>
      </trkpt>
      <trkpt lat="45.25236" lon="6.03674">
        <ele>2050.4560546875</ele>
        <time>2017-11-18T08:26:53Z</time>
      </trkpt>
      <trkpt lat="45.25231" lon="6.03672">
        <ele>2051.4560546875</ele>
        <time>2017-11-18T08:26:57Z</time>
      </trkpt>
      <trkpt lat="45.25231" lon="6.03666">
        <ele>2052.455078125</ele>
        <time>2017-11-18T08:27:05Z</time>
      </trkpt>
      <trkpt lat="45.25236" lon="6.03662">
        <ele>2051.4560546875</ele>
        <time>2017-11-18T08:27:13Z</time>
      </trkpt>
      <trkpt lat="45.25239" lon="6.03656">
        <ele>2051.4560546875</ele>
        <time>2017-11-18T08:27:20Z</time>
      </trkpt>
      <trkpt lat="45.25242" lon="6.03651">
        <ele>2055.455078125</ele>
        <time>2017-11-18T08:27:25Z</time>
      </trkpt>
      <trkpt lat="45.25246" lon="6.03648">
        <ele>2054.4560546875</ele>
        <time>2017-11-18T08:27:30Z</time>
      </trkpt>
      <trkpt lat="45.25251" lon="6.03646">
        <ele>2056.4560546875</ele>
        <time>2017-11-18T08:27:35Z</time>
      </trkpt>
      <trkpt lat="45.25257" lon="6.03646">
        <ele>2059.4560546875</ele>
        <time>2017-11-18T08:27:43Z</time>
      </trkpt>
      <trkpt lat="45.25261" lon="6.03642">
        <ele>2057.4560546875</ele>
        <time>2017-11-18T08:27:48Z</time>
      </trkpt>
      <trkpt lat="45.25266" lon="6.0364">
        <ele>2056.4560546875</ele>
        <time>2017-11-18T08:27:52Z</time>
      </trkpt>
      <trkpt lat="45.25271" lon="6.03637">
        <ele>2056.4560546875</ele>
        <time>2017-11-18T08:27:59Z</time>
      </trkpt>
      <trkpt lat="45.25276" lon="6.03636">
        <ele>2064.4560546875</ele>
        <time>2017-11-18T08:28:07Z</time>
      </trkpt>
      <trkpt lat="45.2528" lon="6.03633">
        <ele>2064.4560546875</ele>
        <time>2017-11-18T08:28:11Z</time>
      </trkpt>
      <trkpt lat="45.25285" lon="6.03632">
        <ele>2061.4560546875</ele>
        <time>2017-11-18T08:28:18Z</time>
      </trkpt>
      <trkpt lat="45.25289" lon="6.03631">
        <ele>2062.4560546875</ele>
        <time>2017-11-18T08:28:24Z</time>
      </trkpt>
      <trkpt lat="45.25294" lon="6.03631">
        <ele>2067.4560546875</ele>
        <time>2017-11-18T08:28:32Z</time>
      </trkpt>
      <trkpt lat="45.25299" lon="6.0363">
        <ele>2074.4560546875</ele>
        <time>2017-11-18T08:28:42Z</time>
      </trkpt>
      <trkpt lat="45.25303" lon="6.03627">
        <ele>2078.4560546875</ele>
        <time>2017-11-18T08:28:47Z</time>
      </trkpt>
      <trkpt lat="45.25308" lon="6.03625">
        <ele>2074.4560546875</ele>
        <time>2017-11-18T08:28:52Z</time>
      </trkpt>
      <trkpt lat="45.25315" lon="6.03624">
        <ele>2076.4560546875</ele>
        <time>2017-11-18T08:29:01Z</time>
      </trkpt>
      <trkpt lat="45.25321" lon="6.03626">
        <ele>2078.4560546875</ele>
        <time>2017-11-18T08:29:06Z</time>
      </trkpt>
      <trkpt lat="45.25326" lon="6.03625">
        <ele>2080.4560546875</ele>
        <time>2017-11-18T08:29:17Z</time>
      </trkpt>
      <trkpt lat="45.25328" lon="6.03618">
        <ele>2085.4560546875</ele>
        <time>2017-11-18T08:29:26Z</time>
      </trkpt>
      <trkpt lat="45.25325" lon="6.03612">
        <ele>2083.4560546875</ele>
        <time>2017-11-18T08:29:33Z</time>
      </trkpt>
      <trkpt lat="45.25323" lon="6.03605">
        <ele>2080.4560546875</ele>
        <time>2017-11-18T08:29:38Z</time>
      </trkpt>
      <trkpt lat="45.25322" lon="6.03598">
        <ele>2083.4560546875</ele>
        <time>2017-11-18T08:29:46Z</time>
      </trkpt>
      <trkpt lat="45.25323" lon="6.03591">
        <ele>2085.4560546875</ele>
        <time>2017-11-18T08:29:53Z</time>
      </trkpt>
      <trkpt lat="45.25328" lon="6.03587">
        <ele>2085.4560546875</ele>
        <time>2017-11-18T08:29:59Z</time>
      </trkpt>
      <trkpt lat="45.25332" lon="6.03585">
        <ele>2084.4560546875</ele>
        <time>2017-11-18T08:30:14Z</time>
      </trkpt>
      <trkpt lat="45.25335" lon="6.0358">
        <ele>2085.4560546875</ele>
        <time>2017-11-18T08:30:19Z</time>
      </trkpt>
      <trkpt lat="45.25338" lon="6.03575">
        <ele>2087.4560546875</ele>
        <time>2017-11-18T08:30:25Z</time>
      </trkpt>
      <trkpt lat="45.25341" lon="6.03569">
        <ele>2088.4560546875</ele>
        <time>2017-11-18T08:30:31Z</time>
      </trkpt>
      <trkpt lat="45.25345" lon="6.03565">
        <ele>2088.4560546875</ele>
        <time>2017-11-18T08:30:37Z</time>
      </trkpt>
      <trkpt lat="45.2535" lon="6.03562">
        <ele>2090.4560546875</ele>
        <time>2017-11-18T08:30:43Z</time>
      </trkpt>
      <trkpt lat="45.25354" lon="6.03557">
        <ele>2092.4560546875</ele>
        <time>2017-11-18T08:30:49Z</time>
      </trkpt>
      <trkpt lat="45.25358" lon="6.03554">
        <ele>2094.4560546875</ele>
        <time>2017-11-18T08:30:55Z</time>
      </trkpt>
      <trkpt lat="45.25357" lon="6.03548">
        <ele>2098.4560546875</ele>
        <time>2017-11-18T08:32:07Z</time>
      </trkpt>
      <trkpt lat="45.25352" lon="6.03545">
        <ele>2100.4560546875</ele>
        <time>2017-11-18T08:32:13Z</time>
      </trkpt>
      <trkpt lat="45.25356" lon="6.03541">
        <ele>2102.4560546875</ele>
        <time>2017-11-18T08:32:22Z</time>
      </trkpt>
      <trkpt lat="45.25361" lon="6.03538">
        <ele>2102.4560546875</ele>
        <time>2017-11-18T08:32:28Z</time>
      </trkpt>
      <trkpt lat="45.25364" lon="6.03534">
        <ele>2104.4560546875</ele>
        <time>2017-11-18T08:32:31Z</time>
      </trkpt>
      <trkpt lat="45.25369" lon="6.0353">
        <ele>2105.4560546875</ele>
        <time>2017-11-18T08:32:35Z</time>
      </trkpt>
      <trkpt lat="45.25373" lon="6.03526">
        <ele>2107.4560546875</ele>
        <time>2017-11-18T08:32:39Z</time>
      </trkpt>
      <trkpt lat="45.25376" lon="6.03523">
        <ele>2110.4560546875</ele>
        <time>2017-11-18T08:32:44Z</time>
      </trkpt>
      <trkpt lat="45.25381" lon="6.03521">
        <ele>2110.4560546875</ele>
        <time>2017-11-18T08:32:47Z</time>
      </trkpt>
      <trkpt lat="45.25386" lon="6.03518">
        <ele>2113.4560546875</ele>
        <time>2017-11-18T08:32:52Z</time>
      </trkpt>
      <trkpt lat="45.2539" lon="6.03514">
        <ele>2109.4560546875</ele>
        <time>2017-11-18T08:32:57Z</time>
      </trkpt>
      <trkpt lat="45.25393" lon="6.0351">
        <ele>2108.4560546875</ele>
        <time>2017-11-18T08:33:01Z</time>
      </trkpt>
      <trkpt lat="45.25398" lon="6.03508">
        <ele>2111.4560546875</ele>
        <time>2017-11-18T08:33:10Z</time>
      </trkpt>
      <trkpt lat="45.25402" lon="6.03504">
        <ele>2113.4560546875</ele>
        <time>2017-11-18T08:33:16Z</time>
      </trkpt>
      <trkpt lat="45.25408" lon="6.03504">
        <ele>2113.4560546875</ele>
        <time>2017-11-18T08:33:25Z</time>
      </trkpt>
      <trkpt lat="45.25412" lon="6.035">
        <ele>2117.4560546875</ele>
        <time>2017-11-18T08:33:32Z</time>
      </trkpt>
      <trkpt lat="45.25409" lon="6.03495">
        <ele>2120.4560546875</ele>
        <time>2017-11-18T08:33:41Z</time>
      </trkpt>
      <trkpt lat="45.25411" lon="6.03489">
        <ele>2121.4560546875</ele>
        <time>2017-11-18T08:33:54Z</time>
      </trkpt>
      <trkpt lat="45.25416" lon="6.03486">
        <ele>2122.4560546875</ele>
        <time>2017-11-18T08:34:00Z</time>
      </trkpt>
      <trkpt lat="45.25421" lon="6.03484">
        <ele>2123.4560546875</ele>
        <time>2017-11-18T08:34:04Z</time>
      </trkpt>
      <trkpt lat="45.25424" lon="6.03479">
        <ele>2124.4560546875</ele>
        <time>2017-11-18T08:34:10Z</time>
      </trkpt>
      <trkpt lat="45.2543" lon="6.03477">
        <ele>2125.4560546875</ele>
        <time>2017-11-18T08:34:14Z</time>
      </trkpt>
      <trkpt lat="45.25436" lon="6.03476">
        <ele>2125.4560546875</ele>
        <time>2017-11-18T08:34:23Z</time>
      </trkpt>
      <trkpt lat="45.2544" lon="6.03474">
        <ele>2128.4560546875</ele>
        <time>2017-11-18T08:34:29Z</time>
      </trkpt>
      <trkpt lat="45.25445" lon="6.03472">
        <ele>2129.4560546875</ele>
        <time>2017-11-18T08:34:35Z</time>
      </trkpt>
      <trkpt lat="45.25448" lon="6.03466">
        <ele>2134.4560546875</ele>
        <time>2017-11-18T08:34:41Z</time>
      </trkpt>
      <trkpt lat="45.25451" lon="6.0346">
        <ele>2136.4560546875</ele>
        <time>2017-11-18T08:34:46Z</time>
      </trkpt>
      <trkpt lat="45.25452" lon="6.03452">
        <ele>2134.4560546875</ele>
        <time>2017-11-18T08:34:49Z</time>
      </trkpt>
      <trkpt lat="45.25454" lon="6.03445">
        <ele>2133.4560546875</ele>
        <time>2017-11-18T08:34:53Z</time>
      </trkpt>
      <trkpt lat="45.25457" lon="6.03437">
        <ele>2135.4560546875</ele>
        <time>2017-11-18T08:34:57Z</time>
      </trkpt>
      <trkpt lat="45.2546" lon="6.03432">
        <ele>2135.4560546875</ele>
        <time>2017-11-18T08:34:59Z</time>
      </trkpt>
      <trkpt lat="45.25463" lon="6.03426">
        <ele>2136.4560546875</ele>
        <time>2017-11-18T08:35:02Z</time>
      </trkpt>
      <trkpt lat="45.25466" lon="6.0342">
        <ele>2134.4560546875</ele>
        <time>2017-11-18T08:35:06Z</time>
      </trkpt>
      <trkpt lat="45.25469" lon="6.03415">
        <ele>2134.4560546875</ele>
        <time>2017-11-18T08:35:09Z</time>
      </trkpt>
      <trkpt lat="45.25471" lon="6.03409">
        <ele>2134.4560546875</ele>
        <time>2017-11-18T08:35:14Z</time>
      </trkpt>
      <trkpt lat="45.25474" lon="6.03403">
        <ele>2134.4560546875</ele>
        <time>2017-11-18T08:35:19Z</time>
      </trkpt>
      <trkpt lat="45.25472" lon="6.03395">
        <ele>2136.4560546875</ele>
        <time>2017-11-18T08:35:24Z</time>
      </trkpt>
      <trkpt lat="45.25469" lon="6.0339">
        <ele>2139.4560546875</ele>
        <time>2017-11-18T08:35:31Z</time>
      </trkpt>
      <trkpt lat="45.25464" lon="6.03386">
        <ele>2140.4560546875</ele>
        <time>2017-11-18T08:35:39Z</time>
      </trkpt>
      <trkpt lat="45.25461" lon="6.03381">
        <ele>2143.4560546875</ele>
        <time>2017-11-18T08:35:46Z</time>
      </trkpt>
      <trkpt lat="45.2546" lon="6.03374">
        <ele>2150.4560546875</ele>
        <time>2017-11-18T08:36:04Z</time>
      </trkpt>
      <trkpt lat="45.25458" lon="6.03369">
        <ele>2143.4560546875</ele>
        <time>2017-11-18T08:37:42Z</time>
      </trkpt>
      <trkpt lat="45.25463" lon="6.03371">
        <ele>2147.4560546875</ele>
        <time>2017-11-18T08:39:36Z</time>
      </trkpt>
      <trkpt lat="45.2547" lon="6.03372">
        <ele>2146.4560546875</ele>
        <time>2017-11-18T08:39:38Z</time>
      </trkpt>
      <trkpt lat="45.25482" lon="6.03371">
        <ele>2140.4560546875</ele>
        <time>2017-11-18T08:39:40Z</time>
      </trkpt>
      <trkpt lat="45.25491" lon="6.03362">
        <ele>2137.4560546875</ele>
        <time>2017-11-18T08:39:43Z</time>
      </trkpt>
      <trkpt lat="45.25494" lon="6.03357">
        <ele>2137.4560546875</ele>
        <time>2017-11-18T08:39:45Z</time>
      </trkpt>
      <trkpt lat="45.25503" lon="6.0336">
        <ele>2134.4560546875</ele>
        <time>2017-11-18T08:40:07Z</time>
      </trkpt>
      <trkpt lat="45.25513" lon="6.03359">
        <ele>2134.4560546875</ele>
        <time>2017-11-18T08:40:09Z</time>
      </trkpt>
      <trkpt lat="45.25525" lon="6.03333">
        <ele>2130.4560546875</ele>
        <time>2017-11-18T08:40:11Z</time>
      </trkpt>
      <trkpt lat="45.25533" lon="6.03308">
        <ele>2126.4560546875</ele>
        <time>2017-11-18T08:40:13Z</time>
      </trkpt>
      <trkpt lat="45.25547" lon="6.03279">
        <ele>2122.4560546875</ele>
        <time>2017-11-18T08:40:15Z</time>
      </trkpt>
      <trkpt lat="45.2556" lon="6.03248">
        <ele>2118.4560546875</ele>
        <time>2017-11-18T08:40:17Z</time>
      </trkpt>
      <trkpt lat="45.25576" lon="6.03221">
        <ele>2114.4560546875</ele>
        <time>2017-11-18T08:40:19Z</time>
      </trkpt>
      <trkpt lat="45.25592" lon="6.03192">
        <ele>2114.4560546875</ele>
        <time>2017-11-18T08:40:21Z</time>
      </trkpt>
      <trkpt lat="45.25603" lon="6.03163">
        <ele>2111.4560546875</ele>
        <time>2017-11-18T08:40:23Z</time>
      </trkpt>
      <trkpt lat="45.25614" lon="6.03146">
        <ele>2110.4560546875</ele>
        <time>2017-11-18T08:40:25Z</time>
      </trkpt>
      <trkpt lat="45.25628" lon="6.03151">
        <ele>2127.4560546875</ele>
        <time>2017-11-18T08:40:27Z</time>
      </trkpt>
      <trkpt lat="45.25641" lon="6.03156">
        <ele>2117.4560546875</ele>
        <time>2017-11-18T08:40:29Z</time>
      </trkpt>
      <trkpt lat="45.25652" lon="6.03175">
        <ele>2111.4560546875</ele>
        <time>2017-11-18T08:40:31Z</time>
      </trkpt>
      <trkpt lat="45.25662" lon="6.03183">
        <ele>2083.4560546875</ele>
        <time>2017-11-18T08:40:32Z</time>
      </trkpt>
      <trkpt lat="45.25701" lon="6.03189">
        <ele>2087.4560546875</ele>
        <time>2017-11-18T08:40:35Z</time>
      </trkpt>
      <trkpt lat="45.25715" lon="6.03188">
        <ele>2086.4560546875</ele>
        <time>2017-11-18T08:40:36Z</time>
      </trkpt>
      <trkpt lat="45.25742" lon="6.03192">
        <ele>2083.4560546875</ele>
        <time>2017-11-18T08:40:38Z</time>
      </trkpt>
      <trkpt lat="45.25767" lon="6.03198">
        <ele>2080.4560546875</ele>
        <time>2017-11-18T08:40:40Z</time>
      </trkpt>
      <trkpt lat="45.25787" lon="6.03207">
        <ele>2077.4560546875</ele>
        <time>2017-11-18T08:40:42Z</time>
      </trkpt>
      <trkpt lat="45.25794" lon="6.03202">
        <ele>2065.4560546875</ele>
        <time>2017-11-18T08:40:58Z</time>
      </trkpt>
      <trkpt lat="45.25799" lon="6.03197">
        <ele>2063.4560546875</ele>
        <time>2017-11-18T08:40:59Z</time>
      </trkpt>
      <trkpt lat="45.25806" lon="6.03187">
        <ele>2060.4560546875</ele>
        <time>2017-11-18T08:41:01Z</time>
      </trkpt>
      <trkpt lat="45.25809" lon="6.03169">
        <ele>2058.4560546875</ele>
        <time>2017-11-18T08:41:03Z</time>
      </trkpt>
      <trkpt lat="45.25814" lon="6.03148">
        <ele>2056.4560546875</ele>
        <time>2017-11-18T08:41:05Z</time>
      </trkpt>
      <trkpt lat="45.25816" lon="6.03134">
        <ele>2052.4560546875</ele>
        <time>2017-11-18T08:41:06Z</time>
      </trkpt>
      <trkpt lat="45.25821" lon="6.03109">
        <ele>2046.4560546875</ele>
        <time>2017-11-18T08:41:08Z</time>
      </trkpt>
      <trkpt lat="45.2583" lon="6.03094">
        <ele>2039.4560546875</ele>
        <time>2017-11-18T08:41:10Z</time>
      </trkpt>
      <trkpt lat="45.25844" lon="6.03085">
        <ele>2035.4560546875</ele>
        <time>2017-11-18T08:41:12Z</time>
      </trkpt>
      <trkpt lat="45.25861" lon="6.03089">
        <ele>2031.4560546875</ele>
        <time>2017-11-18T08:41:14Z</time>
      </trkpt>
      <trkpt lat="45.25879" lon="6.03095">
        <ele>2021.4560546875</ele>
        <time>2017-11-18T08:41:16Z</time>
      </trkpt>
      <trkpt lat="45.25891" lon="6.03112">
        <ele>2015.4560546875</ele>
        <time>2017-11-18T08:41:18Z</time>
      </trkpt>
      <trkpt lat="45.25896" lon="6.03123">
        <ele>2010.4560546875</ele>
        <time>2017-11-18T08:41:19Z</time>
      </trkpt>
      <trkpt lat="45.25913" lon="6.03147">
        <ele>2002.4560546875</ele>
        <time>2017-11-18T08:41:21Z</time>
      </trkpt>
      <trkpt lat="45.25931" lon="6.03164">
        <ele>1996.4560546875</ele>
        <time>2017-11-18T08:41:23Z</time>
      </trkpt>
      <trkpt lat="45.25949" lon="6.03177">
        <ele>1989.4560546875</ele>
        <time>2017-11-18T08:41:25Z</time>
      </trkpt>
      <trkpt lat="45.25967" lon="6.03187">
        <ele>1985.4560546875</ele>
        <time>2017-11-18T08:41:27Z</time>
      </trkpt>
      <trkpt lat="45.25982" lon="6.03187">
        <ele>1975.4560546875</ele>
        <time>2017-11-18T08:41:29Z</time>
      </trkpt>
      <trkpt lat="45.25989" lon="6.03175">
        <ele>1970.4560546875</ele>
        <time>2017-11-18T08:41:31Z</time>
      </trkpt>
      <trkpt lat="45.25998" lon="6.03159">
        <ele>1966.4560546875</ele>
        <time>2017-11-18T08:41:33Z</time>
      </trkpt>
      <trkpt lat="45.26006" lon="6.03148">
        <ele>1963.4560546875</ele>
        <time>2017-11-18T08:41:35Z</time>
      </trkpt>
      <trkpt lat="45.2601" lon="6.03142">
        <ele>1956.4560546875</ele>
        <time>2017-11-18T08:41:56Z</time>
      </trkpt>
      <trkpt lat="45.26019" lon="6.03127">
        <ele>1950.4560546875</ele>
        <time>2017-11-18T08:41:58Z</time>
      </trkpt>
      <trkpt lat="45.26023" lon="6.03097">
        <ele>1936.4560546875</ele>
        <time>2017-11-18T08:42:00Z</time>
      </trkpt>
      <trkpt lat="45.26028" lon="6.03059">
        <ele>1924.4560546875</ele>
        <time>2017-11-18T08:42:02Z</time>
      </trkpt>
      <trkpt lat="45.26035" lon="6.03021">
        <ele>1919.4560546875</ele>
        <time>2017-11-18T08:42:04Z</time>
      </trkpt>
      <trkpt lat="45.26044" lon="6.02989">
        <ele>1916.4560546875</ele>
        <time>2017-11-18T08:42:06Z</time>
      </trkpt>
      <trkpt lat="45.26049" lon="6.02965">
        <ele>1915.4560546875</ele>
        <time>2017-11-18T08:42:08Z</time>
      </trkpt>
      <trkpt lat="45.26055" lon="6.02942">
        <ele>1913.4560546875</ele>
        <time>2017-11-18T08:42:10Z</time>
      </trkpt>
      <trkpt lat="45.26064" lon="6.02924">
        <ele>1908.4560546875</ele>
        <time>2017-11-18T08:42:12Z</time>
      </trkpt>
      <trkpt lat="45.2607" lon="6.02911">
        <ele>1906.4560546875</ele>
        <time>2017-11-18T08:42:14Z</time>
      </trkpt>
      <trkpt lat="45.26073" lon="6.02899">
        <ele>1903.4560546875</ele>
        <time>2017-11-18T08:42:16Z</time>
      </trkpt>
      <trkpt lat="45.26076" lon="6.02886">
        <ele>1900.4560546875</ele>
        <time>2017-11-18T08:42:18Z</time>
      </trkpt>
      <trkpt lat="45.26079" lon="6.02873">
        <ele>1894.4560546875</ele>
        <time>2017-11-18T08:42:20Z</time>
      </trkpt>
      <trkpt lat="45.26083" lon="6.02854">
        <ele>1888.4560546875</ele>
        <time>2017-11-18T08:42:23Z</time>
      </trkpt>
      <trkpt lat="45.26081" lon="6.0283">
        <ele>1885.4560546875</ele>
        <time>2017-11-18T08:42:25Z</time>
      </trkpt>
      <trkpt lat="45.26084" lon="6.02803">
        <ele>1875.4560546875</ele>
        <time>2017-11-18T08:42:27Z</time>
      </trkpt>
      <trkpt lat="45.26084" lon="6.02778">
        <ele>1870.4560546875</ele>
        <time>2017-11-18T08:42:29Z</time>
      </trkpt>
      <trkpt lat="45.26084" lon="6.0275">
        <ele>1864.4560546875</ele>
        <time>2017-11-18T08:42:31Z</time>
      </trkpt>
      <trkpt lat="45.26083" lon="6.02724">
        <ele>1859.4560546875</ele>
        <time>2017-11-18T08:42:33Z</time>
      </trkpt>
      <trkpt lat="45.26089" lon="6.02704">
        <ele>1855.4560546875</ele>
        <time>2017-11-18T08:42:35Z</time>
      </trkpt>
      <trkpt lat="45.26096" lon="6.0269">
        <ele>1853.4560546875</ele>
        <time>2017-11-18T08:42:37Z</time>
      </trkpt>
      <trkpt lat="45.26107" lon="6.02682">
        <ele>1851.4560546875</ele>
        <time>2017-11-18T08:42:40Z</time>
      </trkpt>
      <trkpt lat="45.26112" lon="6.02676">
        <ele>1849.4560546875</ele>
        <time>2017-11-18T08:42:42Z</time>
      </trkpt>
      <trkpt lat="45.26116" lon="6.02681">
        <ele>1844.4560546875</ele>
        <time>2017-11-18T08:43:06Z</time>
      </trkpt>
      <trkpt lat="45.26122" lon="6.02686">
        <ele>1841.4560546875</ele>
        <time>2017-11-18T08:43:08Z</time>
      </trkpt>
      <trkpt lat="45.26128" lon="6.02697">
        <ele>1839.4560546875</ele>
        <time>2017-11-18T08:43:10Z</time>
      </trkpt>
      <trkpt lat="45.26136" lon="6.02709">
        <ele>1835.4560546875</ele>
        <time>2017-11-18T08:43:13Z</time>
      </trkpt>
      <trkpt lat="45.2614" lon="6.02721">
        <ele>1830.4560546875</ele>
        <time>2017-11-18T08:43:15Z</time>
      </trkpt>
      <trkpt lat="45.26148" lon="6.02732">
        <ele>1826.4560546875</ele>
        <time>2017-11-18T08:43:17Z</time>
      </trkpt>
      <trkpt lat="45.26158" lon="6.02742">
        <ele>1821.4560546875</ele>
        <time>2017-11-18T08:43:19Z</time>
      </trkpt>
      <trkpt lat="45.26173" lon="6.0275">
        <ele>1817.4560546875</ele>
        <time>2017-11-18T08:43:22Z</time>
      </trkpt>
      <trkpt lat="45.26181" lon="6.02757">
        <ele>1814.4560546875</ele>
        <time>2017-11-18T08:43:24Z</time>
      </trkpt>
      <trkpt lat="45.2619" lon="6.02762">
        <ele>1812.4560546875</ele>
        <time>2017-11-18T08:43:26Z</time>
      </trkpt>
      <trkpt lat="45.26198" lon="6.02766">
        <ele>1809.4560546875</ele>
        <time>2017-11-18T08:43:28Z</time>
      </trkpt>
      <trkpt lat="45.26206" lon="6.02773">
        <ele>1807.4560546875</ele>
        <time>2017-11-18T08:43:30Z</time>
      </trkpt>
      <trkpt lat="45.26213" lon="6.02782">
        <ele>1760.4560546875</ele>
        <time>2017-11-18T08:43:33Z</time>
      </trkpt>
      <trkpt lat="45.26219" lon="6.02784">
        <ele>1784.4560546875</ele>
        <time>2017-11-18T08:43:36Z</time>
      </trkpt>
      <trkpt lat="45.26226" lon="6.02785">
        <ele>1798.4560546875</ele>
        <time>2017-11-18T08:43:49Z</time>
      </trkpt>
      <trkpt lat="45.26231" lon="6.02788">
        <ele>1798.4560546875</ele>
        <time>2017-11-18T08:43:51Z</time>
      </trkpt>
      <trkpt lat="45.26245" lon="6.02793">
        <ele>1797.4560546875</ele>
        <time>2017-11-18T08:43:53Z</time>
      </trkpt>
      <trkpt lat="45.26253" lon="6.02807">
        <ele>1793.4560546875</ele>
        <time>2017-11-18T08:43:56Z</time>
      </trkpt>
      <trkpt lat="45.26262" lon="6.02815">
        <ele>1791.4560546875</ele>
        <time>2017-11-18T08:43:58Z</time>
      </trkpt>
      <trkpt lat="45.26271" lon="6.02818">
        <ele>1788.4560546875</ele>
        <time>2017-11-18T08:44:00Z</time>
      </trkpt>
      <trkpt lat="45.2628" lon="6.02822">
        <ele>1787.4560546875</ele>
        <time>2017-11-18T08:44:02Z</time>
      </trkpt>
      <trkpt lat="45.26284" lon="6.02809">
        <ele>1784.4560546875</ele>
        <time>2017-11-18T08:44:05Z</time>
      </trkpt>
      <trkpt lat="45.26291" lon="6.02807">
        <ele>1781.4560546875</ele>
        <time>2017-11-18T08:44:13Z</time>
      </trkpt>
      <trkpt lat="45.26298" lon="6.02806">
        <ele>1777.4560546875</ele>
        <time>2017-11-18T08:44:15Z</time>
      </trkpt>
      <trkpt lat="45.2631" lon="6.02799">
        <ele>1774.4560546875</ele>
        <time>2017-11-18T08:44:16Z</time>
      </trkpt>
      <trkpt lat="45.26327" lon="6.02786">
        <ele>1769.4560546875</ele>
        <time>2017-11-18T08:44:18Z</time>
      </trkpt>
      <trkpt lat="45.26339" lon="6.02781">
        <ele>1765.4560546875</ele>
        <time>2017-11-18T08:44:19Z</time>
      </trkpt>
      <trkpt lat="45.2636" lon="6.02762">
        <ele>1761.4560546875</ele>
        <time>2017-11-18T08:44:21Z</time>
      </trkpt>
      <trkpt lat="45.26371" lon="6.02736">
        <ele>1760.4560546875</ele>
        <time>2017-11-18T08:44:23Z</time>
      </trkpt>
      <trkpt lat="45.26374" lon="6.0271">
        <ele>1759.4560546875</ele>
        <time>2017-11-18T08:44:25Z</time>
      </trkpt>
      <trkpt lat="45.26375" lon="6.02696">
        <ele>1758.4560546875</ele>
        <time>2017-11-18T08:44:26Z</time>
      </trkpt>
      <trkpt lat="45.26371" lon="6.02666">
        <ele>1757.4560546875</ele>
        <time>2017-11-18T08:44:28Z</time>
      </trkpt>
      <trkpt lat="45.26366" lon="6.02638">
        <ele>1756.4560546875</ele>
        <time>2017-11-18T08:44:30Z</time>
      </trkpt>
      <trkpt lat="45.26357" lon="6.02613">
        <ele>1756.4560546875</ele>
        <time>2017-11-18T08:44:32Z</time>
      </trkpt>
      <trkpt lat="45.26348" lon="6.026">
        <ele>1750.4560546875</ele>
        <time>2017-11-18T08:44:34Z</time>
      </trkpt>
      <trkpt lat="45.26337" lon="6.02587">
        <ele>1748.4560546875</ele>
        <time>2017-11-18T08:44:36Z</time>
      </trkpt>
      <trkpt lat="45.26324" lon="6.02578">
        <ele>1746.4560546875</ele>
        <time>2017-11-18T08:44:38Z</time>
      </trkpt>
      <trkpt lat="45.26313" lon="6.02566">
        <ele>1744.4560546875</ele>
        <time>2017-11-18T08:44:40Z</time>
      </trkpt>
      <trkpt lat="45.26302" lon="6.02557">
        <ele>1741.4560546875</ele>
        <time>2017-11-18T08:44:42Z</time>
      </trkpt>
      <trkpt lat="45.26298" lon="6.0255">
        <ele>1739.4560546875</ele>
        <time>2017-11-18T08:45:25Z</time>
      </trkpt>
      <trkpt lat="45.26293" lon="6.02545">
        <ele>1737.4560546875</ele>
        <time>2017-11-18T08:45:27Z</time>
      </trkpt>
      <trkpt lat="45.26286" lon="6.02538">
        <ele>1736.4560546875</ele>
        <time>2017-11-18T08:45:29Z</time>
      </trkpt>
      <trkpt lat="45.26278" lon="6.02521">
        <ele>1733.4560546875</ele>
        <time>2017-11-18T08:45:32Z</time>
      </trkpt>
      <trkpt lat="45.26278" lon="6.02507">
        <ele>1733.4560546875</ele>
        <time>2017-11-18T08:45:34Z</time>
      </trkpt>
      <trkpt lat="45.26279" lon="6.02493">
        <ele>1733.4560546875</ele>
        <time>2017-11-18T08:45:36Z</time>
      </trkpt>
      <trkpt lat="45.2628" lon="6.02479">
        <ele>1732.4560546875</ele>
        <time>2017-11-18T08:45:38Z</time>
      </trkpt>
      <trkpt lat="45.26284" lon="6.02473">
        <ele>1728.4560546875</ele>
        <time>2017-11-18T08:45:39Z</time>
      </trkpt>
      <trkpt lat="45.26291" lon="6.02458">
        <ele>1727.4560546875</ele>
        <time>2017-11-18T08:45:41Z</time>
      </trkpt>
      <trkpt lat="45.26293" lon="6.02438">
        <ele>1724.4560546875</ele>
        <time>2017-11-18T08:45:43Z</time>
      </trkpt>
      <trkpt lat="45.26301" lon="6.02417">
        <ele>1722.4560546875</ele>
        <time>2017-11-18T08:45:45Z</time>
      </trkpt>
      <trkpt lat="45.26303" lon="6.02398">
        <ele>1719.4560546875</ele>
        <time>2017-11-18T08:45:47Z</time>
      </trkpt>
      <trkpt lat="45.26307" lon="6.02391">
        <ele>1714.4560546875</ele>
        <time>2017-11-18T08:45:48Z</time>
      </trkpt>
      <trkpt lat="45.26314" lon="6.02374">
        <ele>1712.4560546875</ele>
        <time>2017-11-18T08:45:50Z</time>
      </trkpt>
      <trkpt lat="45.26311" lon="6.02359">
        <ele>1712.4560546875</ele>
        <time>2017-11-18T08:45:52Z</time>
      </trkpt>
      <trkpt lat="45.26308" lon="6.02344">
        <ele>1712.4560546875</ele>
        <time>2017-11-18T08:45:54Z</time>
      </trkpt>
      <trkpt lat="45.26305" lon="6.02335">
        <ele>1712.4560546875</ele>
        <time>2017-11-18T08:45:55Z</time>
      </trkpt>
      <trkpt lat="45.26298" lon="6.02322">
        <ele>1711.4560546875</ele>
        <time>2017-11-18T08:45:57Z</time>
      </trkpt>
      <trkpt lat="45.26288" lon="6.02314">
        <ele>1709.4560546875</ele>
        <time>2017-11-18T08:45:59Z</time>
      </trkpt>
      <trkpt lat="45.26279" lon="6.02309">
        <ele>1707.4560546875</ele>
        <time>2017-11-18T08:46:01Z</time>
      </trkpt>
      <trkpt lat="45.26268" lon="6.02298">
        <ele>1705.4560546875</ele>
        <time>2017-11-18T08:46:04Z</time>
      </trkpt>
      <trkpt lat="45.26261" lon="6.02292">
        <ele>1704.4560546875</ele>
        <time>2017-11-18T08:46:06Z</time>
      </trkpt>
      <trkpt lat="45.26256" lon="6.02285">
        <ele>1703.4560546875</ele>
        <time>2017-11-18T08:46:08Z</time>
      </trkpt>
      <trkpt lat="45.26253" lon="6.02275">
        <ele>1702.4560546875</ele>
        <time>2017-11-18T08:46:10Z</time>
      </trkpt>
      <trkpt lat="45.2625" lon="6.02262">
        <ele>1702.4560546875</ele>
        <time>2017-11-18T08:46:12Z</time>
      </trkpt>
      <trkpt lat="45.26246" lon="6.02253">
        <ele>1699.4560546875</ele>
        <time>2017-11-18T08:46:13Z</time>
      </trkpt>
      <trkpt lat="45.26232" lon="6.02239">
        <ele>1699.4560546875</ele>
        <time>2017-11-18T08:46:18Z</time>
      </trkpt>
      <trkpt lat="45.26229" lon="6.02233">
        <ele>1697.4560546875</ele>
        <time>2017-11-18T08:46:19Z</time>
      </trkpt>
      <trkpt lat="45.26223" lon="6.02219">
        <ele>1694.4549560547</ele>
        <time>2017-11-18T08:46:21Z</time>
      </trkpt>
      <trkpt lat="45.26216" lon="6.02206">
        <ele>1693.4549560547</ele>
        <time>2017-11-18T08:46:23Z</time>
      </trkpt>
      <trkpt lat="45.26212" lon="6.0219">
        <ele>1692.4549560547</ele>
        <time>2017-11-18T08:46:25Z</time>
      </trkpt>
      <trkpt lat="45.26209" lon="6.02182">
        <ele>1690.4549560547</ele>
        <time>2017-11-18T08:46:26Z</time>
      </trkpt>
      <trkpt lat="45.26205" lon="6.02165">
        <ele>1687.4549560547</ele>
        <time>2017-11-18T08:46:28Z</time>
      </trkpt>
      <trkpt lat="45.26198" lon="6.02145">
        <ele>1684.4549560547</ele>
        <time>2017-11-18T08:46:30Z</time>
      </trkpt>
      <trkpt lat="45.26192" lon="6.02124">
        <ele>1683.4549560547</ele>
        <time>2017-11-18T08:46:32Z</time>
      </trkpt>
      <trkpt lat="45.26189" lon="6.02103">
        <ele>1684.4549560547</ele>
        <time>2017-11-18T08:46:34Z</time>
      </trkpt>
      <trkpt lat="45.26187" lon="6.02085">
        <ele>1682.4549560547</ele>
        <time>2017-11-18T08:46:36Z</time>
      </trkpt>
      <trkpt lat="45.26184" lon="6.02066">
        <ele>1683.4549560547</ele>
        <time>2017-11-18T08:46:38Z</time>
      </trkpt>
      <trkpt lat="45.26185" lon="6.02046">
        <ele>1682.4549560547</ele>
        <time>2017-11-18T08:46:40Z</time>
      </trkpt>
      <trkpt lat="45.26184" lon="6.02027">
        <ele>1682.4549560547</ele>
        <time>2017-11-18T08:46:42Z</time>
      </trkpt>
      <trkpt lat="45.26183" lon="6.02018">
        <ele>1682.4549560547</ele>
        <time>2017-11-18T08:46:43Z</time>
      </trkpt>
      <trkpt lat="45.26182" lon="6.02">
        <ele>1679.4549560547</ele>
        <time>2017-11-18T08:46:45Z</time>
      </trkpt>
      <trkpt lat="45.26186" lon="6.01985">
        <ele>1678.4549560547</ele>
        <time>2017-11-18T08:46:47Z</time>
      </trkpt>
      <trkpt lat="45.26194" lon="6.01967">
        <ele>1671.4549560547</ele>
        <time>2017-11-18T08:46:50Z</time>
      </trkpt>
      <trkpt lat="45.26199" lon="6.01967">
        <ele>1669.4549560547</ele>
        <time>2017-11-18T08:46:52Z</time>
      </trkpt>
      <trkpt lat="45.26205" lon="6.01961">
        <ele>1666.4549560547</ele>
        <time>2017-11-18T08:46:54Z</time>
      </trkpt>
      <trkpt lat="45.26213" lon="6.01954">
        <ele>1661.4549560547</ele>
        <time>2017-11-18T08:46:56Z</time>
      </trkpt>
      <trkpt lat="45.26225" lon="6.01944">
        <ele>1661.4549560547</ele>
        <time>2017-11-18T08:46:58Z</time>
      </trkpt>
      <trkpt lat="45.26229" lon="6.01948">
        <ele>1660.4549560547</ele>
        <time>2017-11-18T08:46:59Z</time>
      </trkpt>
      <trkpt lat="45.26237" lon="6.01947">
        <ele>1658.4549560547</ele>
        <time>2017-11-18T08:47:01Z</time>
      </trkpt>
      <trkpt lat="45.26246" lon="6.01949">
        <ele>1656.4549560547</ele>
        <time>2017-11-18T08:47:03Z</time>
      </trkpt>
      <trkpt lat="45.2625" lon="6.01946">
        <ele>1654.4549560547</ele>
        <time>2017-11-18T08:47:04Z</time>
      </trkpt>
      <trkpt lat="45.26257" lon="6.01949">
        <ele>1652.4549560547</ele>
        <time>2017-11-18T08:47:06Z</time>
      </trkpt>
      <trkpt lat="45.26261" lon="6.01945">
        <ele>1651.4549560547</ele>
        <time>2017-11-18T08:47:08Z</time>
      </trkpt>
      <trkpt lat="45.26266" lon="6.01948">
        <ele>1647.4549560547</ele>
        <time>2017-11-18T08:47:10Z</time>
      </trkpt>
      <trkpt lat="45.26274" lon="6.01947">
        <ele>1643.4549560547</ele>
        <time>2017-11-18T08:47:12Z</time>
      </trkpt>
      <trkpt lat="45.26281" lon="6.0194">
        <ele>1640.4549560547</ele>
        <time>2017-11-18T08:47:14Z</time>
      </trkpt>
      <trkpt lat="45.26286" lon="6.01931">
        <ele>1636.4549560547</ele>
        <time>2017-11-18T08:47:16Z</time>
      </trkpt>
      <trkpt lat="45.2629" lon="6.01919">
        <ele>1633.4549560547</ele>
        <time>2017-11-18T08:47:18Z</time>
      </trkpt>
      <trkpt lat="45.26298" lon="6.01911">
        <ele>1630.4549560547</ele>
        <time>2017-11-18T08:47:20Z</time>
      </trkpt>
      <trkpt lat="45.26302" lon="6.01901">
        <ele>1627.4549560547</ele>
        <time>2017-11-18T08:47:22Z</time>
      </trkpt>
      <trkpt lat="45.26313" lon="6.01899">
        <ele>1623.4549560547</ele>
        <time>2017-11-18T08:47:24Z</time>
      </trkpt>
      <trkpt lat="45.26323" lon="6.01885">
        <ele>1618.4549560547</ele>
        <time>2017-11-18T08:47:27Z</time>
      </trkpt>
      <trkpt lat="45.26335" lon="6.01874">
        <ele>1614.4549560547</ele>
        <time>2017-11-18T08:47:30Z</time>
      </trkpt>
      <trkpt lat="45.26344" lon="6.01869">
        <ele>1610.4549560547</ele>
        <time>2017-11-18T08:47:32Z</time>
      </trkpt>
      <trkpt lat="45.26353" lon="6.01857">
        <ele>1606.4549560547</ele>
        <time>2017-11-18T08:47:35Z</time>
      </trkpt>
      <trkpt lat="45.26355" lon="6.01851">
        <ele>1604.4549560547</ele>
        <time>2017-11-18T08:47:53Z</time>
      </trkpt>
      <trkpt lat="45.26361" lon="6.01843">
        <ele>1602.4549560547</ele>
        <time>2017-11-18T08:47:55Z</time>
      </trkpt>
      <trkpt lat="45.26368" lon="6.01828">
        <ele>1599.4549560547</ele>
        <time>2017-11-18T08:47:57Z</time>
      </trkpt>
      <trkpt lat="45.26377" lon="6.01815">
        <ele>1597.4549560547</ele>
        <time>2017-11-18T08:47:59Z</time>
      </trkpt>
      <trkpt lat="45.26379" lon="6.01799">
        <ele>1594.4549560547</ele>
        <time>2017-11-18T08:48:01Z</time>
      </trkpt>
      <trkpt lat="45.26383" lon="6.0178">
        <ele>1590.4549560547</ele>
        <time>2017-11-18T08:48:03Z</time>
      </trkpt>
      <trkpt lat="45.26383" lon="6.01751">
        <ele>1586.4549560547</ele>
        <time>2017-11-18T08:48:05Z</time>
      </trkpt>
      <trkpt lat="45.26381" lon="6.01728">
        <ele>1584.4549560547</ele>
        <time>2017-11-18T08:48:07Z</time>
      </trkpt>
      <trkpt lat="45.26382" lon="6.01709">
        <ele>1580.4549560547</ele>
        <time>2017-11-18T08:48:09Z</time>
      </trkpt>
      <trkpt lat="45.26384" lon="6.01687">
        <ele>1577.4549560547</ele>
        <time>2017-11-18T08:48:11Z</time>
      </trkpt>
      <trkpt lat="45.26393" lon="6.01664">
        <ele>1573.4549560547</ele>
        <time>2017-11-18T08:48:13Z</time>
      </trkpt>
      <trkpt lat="45.26404" lon="6.01646">
        <ele>1571.4549560547</ele>
        <time>2017-11-18T08:48:15Z</time>
      </trkpt>
      <trkpt lat="45.26415" lon="6.01629">
        <ele>1570.4549560547</ele>
        <time>2017-11-18T08:48:17Z</time>
      </trkpt>
      <trkpt lat="45.26428" lon="6.01615">
        <ele>1569.4549560547</ele>
        <time>2017-11-18T08:48:19Z</time>
      </trkpt>
      <trkpt lat="45.26441" lon="6.01604">
        <ele>1569.4549560547</ele>
        <time>2017-11-18T08:48:21Z</time>
      </trkpt>
      <trkpt lat="45.26452" lon="6.01596">
        <ele>1568.4549560547</ele>
        <time>2017-11-18T08:48:23Z</time>
      </trkpt>
      <trkpt lat="45.26458" lon="6.01586">
        <ele>1568.4549560547</ele>
        <time>2017-11-18T08:48:25Z</time>
      </trkpt>
      <trkpt lat="45.26462" lon="6.01576">
        <ele>1567.4549560547</ele>
        <time>2017-11-18T08:48:27Z</time>
      </trkpt>
      <trkpt lat="45.2646" lon="6.01566">
        <ele>1566.4549560547</ele>
        <time>2017-11-18T08:48:29Z</time>
      </trkpt>
      <trkpt lat="45.26456" lon="6.01559">
        <ele>1566.4549560547</ele>
        <time>2017-11-18T08:48:31Z</time>
      </trkpt>
      <trkpt lat="45.2645" lon="6.01554">
        <ele>1565.4549560547</ele>
        <time>2017-11-18T08:48:33Z</time>
      </trkpt>
      <trkpt lat="45.26445" lon="6.01549">
        <ele>1565.4549560547</ele>
        <time>2017-11-18T08:48:35Z</time>
      </trkpt>
      <trkpt lat="45.26443" lon="6.01543">
        <ele>1567.4549560547</ele>
        <time>2017-11-18T08:48:52Z</time>
      </trkpt>
      <trkpt lat="45.26445" lon="6.01537">
        <ele>1566.4549560547</ele>
        <time>2017-11-18T08:48:56Z</time>
      </trkpt>
      <trkpt lat="45.26447" lon="6.01531">
        <ele>1565.4549560547</ele>
        <time>2017-11-18T08:49:01Z</time>
      </trkpt>
      <trkpt lat="45.26444" lon="6.01526">
        <ele>1565.4549560547</ele>
        <time>2017-11-18T08:49:05Z</time>
      </trkpt>
      <trkpt lat="45.26443" lon="6.0152">
        <ele>1564.4549560547</ele>
        <time>2017-11-18T08:49:36Z</time>
      </trkpt>
    </trkseg>
  </trk>
</gpx>